<?xml version="1.0" encoding="UTF-8" standalone="no" ?>
<gpx xmlns="http://www.topografix.com/GPX/1/1" xmlns:xsi="http://www.w3.org/2001/XMLSchema-instance" xsi:schemaLocation="http://www.topografix.com/GPX/1/1 http://www.topografix.com/GPX/1/1/gpx.xsd" version="1.1" creator="VisuGPX - https://www.visugpx.com">
  <metadata>
    <name>dePuyloubier vers la montagne des Ubacs</name>
    <desc><![CDATA[Pistes roulantes, dénivelé progressif, des km sans forcer]]></desc>
  </metadata>
  <trk>
    <name><![CDATA[20180325001152-X4luu]]></name>
    <trkseg>
      <trkpt lat="43.52645" lon="5.68142">
        <ele>357</ele>
        <time>2017-02-19T06:45:27Z</time>
      </trkpt>
      <trkpt lat="43.52643" lon="5.68167">
        <ele>359</ele>
        <time>2017-02-19T06:46:15Z</time>
      </trkpt>
      <trkpt lat="43.52635" lon="5.68191">
        <ele>358</ele>
        <time>2017-02-19T06:46:25Z</time>
      </trkpt>
      <trkpt lat="43.52633" lon="5.68217">
        <ele>359</ele>
        <time>2017-02-19T06:46:34Z</time>
      </trkpt>
      <trkpt lat="43.52631" lon="5.68243">
        <ele>359</ele>
        <time>2017-02-19T06:46:42Z</time>
      </trkpt>
      <trkpt lat="43.52633" lon="5.6827">
        <ele>362</ele>
        <time>2017-02-19T06:46:50Z</time>
      </trkpt>
      <trkpt lat="43.52637" lon="5.68295">
        <ele>362</ele>
        <time>2017-02-19T06:46:57Z</time>
      </trkpt>
      <trkpt lat="43.5264" lon="5.68322">
        <ele>363</ele>
        <time>2017-02-19T06:47:03Z</time>
      </trkpt>
      <trkpt lat="43.52645" lon="5.6835">
        <ele>362</ele>
        <time>2017-02-19T06:47:08Z</time>
      </trkpt>
      <trkpt lat="43.52646" lon="5.68376">
        <ele>361</ele>
        <time>2017-02-19T06:47:12Z</time>
      </trkpt>
      <trkpt lat="43.52646" lon="5.68406">
        <ele>360</ele>
        <time>2017-02-19T06:47:16Z</time>
      </trkpt>
      <trkpt lat="43.52642" lon="5.68436">
        <ele>358</ele>
        <time>2017-02-19T06:47:20Z</time>
      </trkpt>
      <trkpt lat="43.52636" lon="5.68466">
        <ele>357</ele>
        <time>2017-02-19T06:47:24Z</time>
      </trkpt>
      <trkpt lat="43.52628" lon="5.68495">
        <ele>357</ele>
        <time>2017-02-19T06:47:28Z</time>
      </trkpt>
      <trkpt lat="43.52619" lon="5.68525">
        <ele>356</ele>
        <time>2017-02-19T06:47:32Z</time>
      </trkpt>
      <trkpt lat="43.52614" lon="5.68551">
        <ele>355</ele>
        <time>2017-02-19T06:47:35Z</time>
      </trkpt>
      <trkpt lat="43.52608" lon="5.68577">
        <ele>354</ele>
        <time>2017-02-19T06:47:38Z</time>
      </trkpt>
      <trkpt lat="43.52604" lon="5.68603">
        <ele>352</ele>
        <time>2017-02-19T06:47:41Z</time>
      </trkpt>
      <trkpt lat="43.52605" lon="5.68628">
        <ele>352</ele>
        <time>2017-02-19T06:47:44Z</time>
      </trkpt>
      <trkpt lat="43.52611" lon="5.68653">
        <ele>351</ele>
        <time>2017-02-19T06:47:47Z</time>
      </trkpt>
      <trkpt lat="43.5262" lon="5.68676">
        <ele>349</ele>
        <time>2017-02-19T06:47:50Z</time>
      </trkpt>
      <trkpt lat="43.5263" lon="5.68698">
        <ele>349</ele>
        <time>2017-02-19T06:47:53Z</time>
      </trkpt>
      <trkpt lat="43.52641" lon="5.68723">
        <ele>349</ele>
        <time>2017-02-19T06:47:57Z</time>
      </trkpt>
      <trkpt lat="43.52651" lon="5.68745">
        <ele>349</ele>
        <time>2017-02-19T06:48:01Z</time>
      </trkpt>
      <trkpt lat="43.52661" lon="5.6877">
        <ele>349</ele>
        <time>2017-02-19T06:48:06Z</time>
      </trkpt>
      <trkpt lat="43.5267" lon="5.68792">
        <ele>353</ele>
        <time>2017-02-19T06:48:11Z</time>
      </trkpt>
      <trkpt lat="43.52674" lon="5.68817">
        <ele>354</ele>
        <time>2017-02-19T06:48:19Z</time>
      </trkpt>
      <trkpt lat="43.52674" lon="5.68843">
        <ele>354</ele>
        <time>2017-02-19T06:48:27Z</time>
      </trkpt>
      <trkpt lat="43.52675" lon="5.68869">
        <ele>356</ele>
        <time>2017-02-19T06:48:36Z</time>
      </trkpt>
      <trkpt lat="43.52677" lon="5.68894">
        <ele>356</ele>
        <time>2017-02-19T06:48:43Z</time>
      </trkpt>
      <trkpt lat="43.52681" lon="5.68918">
        <ele>357</ele>
        <time>2017-02-19T06:48:51Z</time>
      </trkpt>
      <trkpt lat="43.52684" lon="5.68944">
        <ele>358</ele>
        <time>2017-02-19T06:49:00Z</time>
      </trkpt>
      <trkpt lat="43.52688" lon="5.6897">
        <ele>358</ele>
        <time>2017-02-19T06:49:09Z</time>
      </trkpt>
      <trkpt lat="43.52692" lon="5.68996">
        <ele>358</ele>
        <time>2017-02-19T06:49:19Z</time>
      </trkpt>
      <trkpt lat="43.52702" lon="5.69018">
        <ele>360</ele>
        <time>2017-02-19T06:49:28Z</time>
      </trkpt>
      <trkpt lat="43.52717" lon="5.69035">
        <ele>360</ele>
        <time>2017-02-19T06:49:36Z</time>
      </trkpt>
      <trkpt lat="43.52727" lon="5.69057">
        <ele>360</ele>
        <time>2017-02-19T06:49:44Z</time>
      </trkpt>
      <trkpt lat="43.52732" lon="5.69081">
        <ele>361</ele>
        <time>2017-02-19T06:49:51Z</time>
      </trkpt>
      <trkpt lat="43.52741" lon="5.69104">
        <ele>360</ele>
        <time>2017-02-19T06:49:57Z</time>
      </trkpt>
      <trkpt lat="43.5275" lon="5.69126">
        <ele>366</ele>
        <time>2017-02-19T06:50:03Z</time>
      </trkpt>
      <trkpt lat="43.52759" lon="5.69148">
        <ele>364</ele>
        <time>2017-02-19T06:50:09Z</time>
      </trkpt>
      <trkpt lat="43.52769" lon="5.69171">
        <ele>364</ele>
        <time>2017-02-19T06:50:15Z</time>
      </trkpt>
      <trkpt lat="43.52778" lon="5.69196">
        <ele>366</ele>
        <time>2017-02-19T06:50:22Z</time>
      </trkpt>
      <trkpt lat="43.52786" lon="5.69221">
        <ele>367</ele>
        <time>2017-02-19T06:50:31Z</time>
      </trkpt>
      <trkpt lat="43.52798" lon="5.6924">
        <ele>368</ele>
        <time>2017-02-19T06:50:41Z</time>
      </trkpt>
      <trkpt lat="43.52816" lon="5.69246">
        <ele>370</ele>
        <time>2017-02-19T06:50:53Z</time>
      </trkpt>
      <trkpt lat="43.52834" lon="5.69247">
        <ele>374</ele>
        <time>2017-02-19T06:51:05Z</time>
      </trkpt>
      <trkpt lat="43.52853" lon="5.69246">
        <ele>380</ele>
        <time>2017-02-19T06:51:14Z</time>
      </trkpt>
      <trkpt lat="43.52871" lon="5.69253">
        <ele>382</ele>
        <time>2017-02-19T06:51:26Z</time>
      </trkpt>
      <trkpt lat="43.5288" lon="5.69275">
        <ele>384</ele>
        <time>2017-02-19T06:51:39Z</time>
      </trkpt>
      <trkpt lat="43.52878" lon="5.693">
        <ele>384</ele>
        <time>2017-02-19T06:51:51Z</time>
      </trkpt>
      <trkpt lat="43.5288" lon="5.69326">
        <ele>385</ele>
        <time>2017-02-19T06:52:04Z</time>
      </trkpt>
      <trkpt lat="43.52883" lon="5.69351">
        <ele>387</ele>
        <time>2017-02-19T06:52:16Z</time>
      </trkpt>
      <trkpt lat="43.52885" lon="5.69378">
        <ele>387</ele>
        <time>2017-02-19T06:52:29Z</time>
      </trkpt>
      <trkpt lat="43.52893" lon="5.694">
        <ele>389</ele>
        <time>2017-02-19T06:52:41Z</time>
      </trkpt>
      <trkpt lat="43.529" lon="5.69425">
        <ele>389</ele>
        <time>2017-02-19T06:52:54Z</time>
      </trkpt>
      <trkpt lat="43.5291" lon="5.69447">
        <ele>387</ele>
        <time>2017-02-19T06:53:07Z</time>
      </trkpt>
      <trkpt lat="43.52925" lon="5.69464">
        <ele>397</ele>
        <time>2017-02-19T06:53:20Z</time>
      </trkpt>
      <trkpt lat="43.52942" lon="5.69477">
        <ele>397</ele>
        <time>2017-02-19T06:53:33Z</time>
      </trkpt>
      <trkpt lat="43.5296" lon="5.69479">
        <ele>400</ele>
        <time>2017-02-19T06:53:46Z</time>
      </trkpt>
      <trkpt lat="43.52978" lon="5.69472">
        <ele>402</ele>
        <time>2017-02-19T06:53:59Z</time>
      </trkpt>
      <trkpt lat="43.52995" lon="5.69463">
        <ele>403</ele>
        <time>2017-02-19T06:54:12Z</time>
      </trkpt>
      <trkpt lat="43.53012" lon="5.69455">
        <ele>415</ele>
        <time>2017-02-19T06:54:26Z</time>
      </trkpt>
      <trkpt lat="43.5303" lon="5.69447">
        <ele>417</ele>
        <time>2017-02-19T06:54:41Z</time>
      </trkpt>
      <trkpt lat="43.53048" lon="5.69449">
        <ele>419</ele>
        <time>2017-02-19T06:54:56Z</time>
      </trkpt>
      <trkpt lat="43.53051" lon="5.69474">
        <ele>419</ele>
        <time>2017-02-19T06:55:13Z</time>
      </trkpt>
      <trkpt lat="43.53051" lon="5.695">
        <ele>419</ele>
        <time>2017-02-19T06:55:28Z</time>
      </trkpt>
      <trkpt lat="43.53054" lon="5.69526">
        <ele>419</ele>
        <time>2017-02-19T06:55:41Z</time>
      </trkpt>
      <trkpt lat="43.5306" lon="5.69551">
        <ele>420</ele>
        <time>2017-02-19T06:55:54Z</time>
      </trkpt>
      <trkpt lat="43.53065" lon="5.69578">
        <ele>422</ele>
        <time>2017-02-19T06:56:06Z</time>
      </trkpt>
      <trkpt lat="43.53071" lon="5.69603">
        <ele>422</ele>
        <time>2017-02-19T06:56:17Z</time>
      </trkpt>
      <trkpt lat="43.53077" lon="5.69629">
        <ele>421</ele>
        <time>2017-02-19T06:56:27Z</time>
      </trkpt>
      <trkpt lat="43.5308" lon="5.69654">
        <ele>422</ele>
        <time>2017-02-19T06:56:37Z</time>
      </trkpt>
      <trkpt lat="43.53081" lon="5.6968">
        <ele>421</ele>
        <time>2017-02-19T06:56:49Z</time>
      </trkpt>
      <trkpt lat="43.53088" lon="5.69703">
        <ele>429</ele>
        <time>2017-02-19T06:57:00Z</time>
      </trkpt>
      <trkpt lat="43.531" lon="5.69722">
        <ele>429</ele>
        <time>2017-02-19T06:57:12Z</time>
      </trkpt>
      <trkpt lat="43.53117" lon="5.69733">
        <ele>430</ele>
        <time>2017-02-19T06:57:24Z</time>
      </trkpt>
      <trkpt lat="43.53135" lon="5.69739">
        <ele>433</ele>
        <time>2017-02-19T06:57:37Z</time>
      </trkpt>
      <trkpt lat="43.53153" lon="5.69744">
        <ele>436</ele>
        <time>2017-02-19T06:57:49Z</time>
      </trkpt>
      <trkpt lat="43.53169" lon="5.69759">
        <ele>444</ele>
        <time>2017-02-19T06:58:02Z</time>
      </trkpt>
      <trkpt lat="43.53159" lon="5.69779">
        <ele>433</ele>
        <time>2017-02-19T06:58:14Z</time>
      </trkpt>
      <trkpt lat="43.53146" lon="5.69799">
        <ele>432</ele>
        <time>2017-02-19T06:58:26Z</time>
      </trkpt>
      <trkpt lat="43.53142" lon="5.69825">
        <ele>433</ele>
        <time>2017-02-19T06:58:38Z</time>
      </trkpt>
      <trkpt lat="43.53145" lon="5.69849">
        <ele>432</ele>
        <time>2017-02-19T06:58:50Z</time>
      </trkpt>
      <trkpt lat="43.53154" lon="5.69871">
        <ele>431</ele>
        <time>2017-02-19T06:59:01Z</time>
      </trkpt>
      <trkpt lat="43.53167" lon="5.6989">
        <ele>446</ele>
        <time>2017-02-19T06:59:13Z</time>
      </trkpt>
      <trkpt lat="43.53182" lon="5.69905">
        <ele>446</ele>
        <time>2017-02-19T06:59:25Z</time>
      </trkpt>
      <trkpt lat="43.53199" lon="5.69919">
        <ele>447</ele>
        <time>2017-02-19T06:59:38Z</time>
      </trkpt>
      <trkpt lat="43.53216" lon="5.69927">
        <ele>451</ele>
        <time>2017-02-19T06:59:51Z</time>
      </trkpt>
      <trkpt lat="43.5322" lon="5.69952">
        <ele>451</ele>
        <time>2017-02-19T07:00:03Z</time>
      </trkpt>
      <trkpt lat="43.53211" lon="5.69975">
        <ele>450</ele>
        <time>2017-02-19T07:00:15Z</time>
      </trkpt>
      <trkpt lat="43.53198" lon="5.69994">
        <ele>447</ele>
        <time>2017-02-19T07:00:26Z</time>
      </trkpt>
      <trkpt lat="43.53193" lon="5.7002">
        <ele>448</ele>
        <time>2017-02-19T07:00:36Z</time>
      </trkpt>
      <trkpt lat="43.53196" lon="5.70046">
        <ele>450</ele>
        <time>2017-02-19T07:00:47Z</time>
      </trkpt>
      <trkpt lat="43.53198" lon="5.70073">
        <ele>451</ele>
        <time>2017-02-19T07:00:59Z</time>
      </trkpt>
      <trkpt lat="43.53199" lon="5.70098">
        <ele>454</ele>
        <time>2017-02-19T07:01:10Z</time>
      </trkpt>
      <trkpt lat="43.53204" lon="5.70123">
        <ele>455</ele>
        <time>2017-02-19T07:01:21Z</time>
      </trkpt>
      <trkpt lat="43.53209" lon="5.70147">
        <ele>456</ele>
        <time>2017-02-19T07:01:31Z</time>
      </trkpt>
      <trkpt lat="43.53214" lon="5.70173">
        <ele>457</ele>
        <time>2017-02-19T07:01:42Z</time>
      </trkpt>
      <trkpt lat="43.53218" lon="5.70198">
        <ele>457</ele>
        <time>2017-02-19T07:01:53Z</time>
      </trkpt>
      <trkpt lat="43.53225" lon="5.70222">
        <ele>457</ele>
        <time>2017-02-19T07:02:03Z</time>
      </trkpt>
      <trkpt lat="43.53238" lon="5.70241">
        <ele>460</ele>
        <time>2017-02-19T07:02:13Z</time>
      </trkpt>
      <trkpt lat="43.53255" lon="5.7025">
        <ele>465</ele>
        <time>2017-02-19T07:02:24Z</time>
      </trkpt>
      <trkpt lat="43.53263" lon="5.70273">
        <ele>468</ele>
        <time>2017-02-19T07:02:37Z</time>
      </trkpt>
      <trkpt lat="43.53262" lon="5.703">
        <ele>467</ele>
        <time>2017-02-19T07:02:49Z</time>
      </trkpt>
      <trkpt lat="43.53265" lon="5.70326">
        <ele>466</ele>
        <time>2017-02-19T07:03:00Z</time>
      </trkpt>
      <trkpt lat="43.53268" lon="5.70351">
        <ele>467</ele>
        <time>2017-02-19T07:03:12Z</time>
      </trkpt>
      <trkpt lat="43.53271" lon="5.70375">
        <ele>468</ele>
        <time>2017-02-19T07:03:25Z</time>
      </trkpt>
      <trkpt lat="43.53278" lon="5.70399">
        <ele>468</ele>
        <time>2017-02-19T07:06:12Z</time>
      </trkpt>
      <trkpt lat="43.53285" lon="5.70424">
        <ele>469</ele>
        <time>2017-02-19T07:06:23Z</time>
      </trkpt>
      <trkpt lat="43.53293" lon="5.70449">
        <ele>470</ele>
        <time>2017-02-19T07:06:33Z</time>
      </trkpt>
      <trkpt lat="43.53302" lon="5.70474">
        <ele>471</ele>
        <time>2017-02-19T07:06:41Z</time>
      </trkpt>
      <trkpt lat="43.53312" lon="5.70497">
        <ele>471</ele>
        <time>2017-02-19T07:06:48Z</time>
      </trkpt>
      <trkpt lat="43.53322" lon="5.70518">
        <ele>472</ele>
        <time>2017-02-19T07:06:55Z</time>
      </trkpt>
      <trkpt lat="43.53333" lon="5.70542">
        <ele>472</ele>
        <time>2017-02-19T07:07:03Z</time>
      </trkpt>
      <trkpt lat="43.53343" lon="5.70564">
        <ele>475</ele>
        <time>2017-02-19T07:07:11Z</time>
      </trkpt>
      <trkpt lat="43.53353" lon="5.70586">
        <ele>475</ele>
        <time>2017-02-19T07:07:19Z</time>
      </trkpt>
      <trkpt lat="43.53364" lon="5.70609">
        <ele>475</ele>
        <time>2017-02-19T07:07:27Z</time>
      </trkpt>
      <trkpt lat="43.53374" lon="5.70631">
        <ele>475</ele>
        <time>2017-02-19T07:07:34Z</time>
      </trkpt>
      <trkpt lat="43.53383" lon="5.70653">
        <ele>475</ele>
        <time>2017-02-19T07:07:41Z</time>
      </trkpt>
      <trkpt lat="43.53392" lon="5.70677">
        <ele>475</ele>
        <time>2017-02-19T07:07:48Z</time>
      </trkpt>
      <trkpt lat="43.53402" lon="5.70702">
        <ele>475</ele>
        <time>2017-02-19T07:07:55Z</time>
      </trkpt>
      <trkpt lat="43.53412" lon="5.70727">
        <ele>475</ele>
        <time>2017-02-19T07:08:02Z</time>
      </trkpt>
      <trkpt lat="43.53421" lon="5.70748">
        <ele>475</ele>
        <time>2017-02-19T07:08:08Z</time>
      </trkpt>
      <trkpt lat="43.5343" lon="5.70772">
        <ele>475</ele>
        <time>2017-02-19T07:08:14Z</time>
      </trkpt>
      <trkpt lat="43.53438" lon="5.70797">
        <ele>475</ele>
        <time>2017-02-19T07:08:20Z</time>
      </trkpt>
      <trkpt lat="43.53448" lon="5.70821">
        <ele>475</ele>
        <time>2017-02-19T07:08:26Z</time>
      </trkpt>
      <trkpt lat="43.53456" lon="5.70845">
        <ele>474</ele>
        <time>2017-02-19T07:08:32Z</time>
      </trkpt>
      <trkpt lat="43.53464" lon="5.70871">
        <ele>474</ele>
        <time>2017-02-19T07:08:38Z</time>
      </trkpt>
      <trkpt lat="43.53472" lon="5.70897">
        <ele>475</ele>
        <time>2017-02-19T07:08:44Z</time>
      </trkpt>
      <trkpt lat="43.5348" lon="5.70921">
        <ele>475</ele>
        <time>2017-02-19T07:08:50Z</time>
      </trkpt>
      <trkpt lat="43.53486" lon="5.70946">
        <ele>474</ele>
        <time>2017-02-19T07:08:57Z</time>
      </trkpt>
      <trkpt lat="43.53496" lon="5.70971">
        <ele>474</ele>
        <time>2017-02-19T07:09:04Z</time>
      </trkpt>
      <trkpt lat="43.53505" lon="5.70996">
        <ele>477</ele>
        <time>2017-02-19T07:09:10Z</time>
      </trkpt>
      <trkpt lat="43.53515" lon="5.7102">
        <ele>478</ele>
        <time>2017-02-19T07:09:15Z</time>
      </trkpt>
      <trkpt lat="43.53524" lon="5.71045">
        <ele>478</ele>
        <time>2017-02-19T07:09:20Z</time>
      </trkpt>
      <trkpt lat="43.53533" lon="5.71068">
        <ele>478</ele>
        <time>2017-02-19T07:09:25Z</time>
      </trkpt>
      <trkpt lat="43.53541" lon="5.71091">
        <ele>478</ele>
        <time>2017-02-19T07:09:30Z</time>
      </trkpt>
      <trkpt lat="43.5355" lon="5.71117">
        <ele>478</ele>
        <time>2017-02-19T07:09:36Z</time>
      </trkpt>
      <trkpt lat="43.5356" lon="5.71139">
        <ele>479</ele>
        <time>2017-02-19T07:09:41Z</time>
      </trkpt>
      <trkpt lat="43.53572" lon="5.71162">
        <ele>480</ele>
        <time>2017-02-19T07:09:47Z</time>
      </trkpt>
      <trkpt lat="43.53586" lon="5.71181">
        <ele>481</ele>
        <time>2017-02-19T07:09:53Z</time>
      </trkpt>
      <trkpt lat="43.53599" lon="5.71202">
        <ele>481</ele>
        <time>2017-02-19T07:09:59Z</time>
      </trkpt>
      <trkpt lat="43.53614" lon="5.71224">
        <ele>481</ele>
        <time>2017-02-19T07:10:05Z</time>
      </trkpt>
      <trkpt lat="43.53626" lon="5.71245">
        <ele>481</ele>
        <time>2017-02-19T07:10:11Z</time>
      </trkpt>
      <trkpt lat="43.5364" lon="5.71266">
        <ele>480</ele>
        <time>2017-02-19T07:10:17Z</time>
      </trkpt>
      <trkpt lat="43.53654" lon="5.71287">
        <ele>480</ele>
        <time>2017-02-19T07:10:23Z</time>
      </trkpt>
      <trkpt lat="43.53666" lon="5.71306">
        <ele>481</ele>
        <time>2017-02-19T07:10:29Z</time>
      </trkpt>
      <trkpt lat="43.53679" lon="5.71328">
        <ele>483</ele>
        <time>2017-02-19T07:10:36Z</time>
      </trkpt>
      <trkpt lat="43.53691" lon="5.71347">
        <ele>484</ele>
        <time>2017-02-19T07:10:42Z</time>
      </trkpt>
      <trkpt lat="43.53704" lon="5.71367">
        <ele>484</ele>
        <time>2017-02-19T07:10:48Z</time>
      </trkpt>
      <trkpt lat="43.53716" lon="5.71388">
        <ele>484</ele>
        <time>2017-02-19T07:10:55Z</time>
      </trkpt>
      <trkpt lat="43.53728" lon="5.71408">
        <ele>485</ele>
        <time>2017-02-19T07:11:02Z</time>
      </trkpt>
      <trkpt lat="43.53743" lon="5.71426">
        <ele>486</ele>
        <time>2017-02-19T07:11:10Z</time>
      </trkpt>
      <trkpt lat="43.53756" lon="5.71444">
        <ele>489</ele>
        <time>2017-02-19T07:11:18Z</time>
      </trkpt>
      <trkpt lat="43.53755" lon="5.71469">
        <ele>489</ele>
        <time>2017-02-19T07:11:28Z</time>
      </trkpt>
      <trkpt lat="43.53743" lon="5.71492">
        <ele>487</ele>
        <time>2017-02-19T07:11:37Z</time>
      </trkpt>
      <trkpt lat="43.5373" lon="5.7151">
        <ele>489</ele>
        <time>2017-02-19T07:11:45Z</time>
      </trkpt>
      <trkpt lat="43.5372" lon="5.71532">
        <ele>489</ele>
        <time>2017-02-19T07:11:53Z</time>
      </trkpt>
      <trkpt lat="43.53721" lon="5.71558">
        <ele>491</ele>
        <time>2017-02-19T07:12:01Z</time>
      </trkpt>
      <trkpt lat="43.53738" lon="5.71572">
        <ele>493</ele>
        <time>2017-02-19T07:12:10Z</time>
      </trkpt>
      <trkpt lat="43.53758" lon="5.7157">
        <ele>496</ele>
        <time>2017-02-19T07:12:20Z</time>
      </trkpt>
      <trkpt lat="43.53777" lon="5.71568">
        <ele>496</ele>
        <time>2017-02-19T07:12:29Z</time>
      </trkpt>
      <trkpt lat="43.53797" lon="5.71565">
        <ele>497</ele>
        <time>2017-02-19T07:12:38Z</time>
      </trkpt>
      <trkpt lat="43.53815" lon="5.71561">
        <ele>498</ele>
        <time>2017-02-19T07:12:46Z</time>
      </trkpt>
      <trkpt lat="43.53834" lon="5.71559">
        <ele>502</ele>
        <time>2017-02-19T07:12:54Z</time>
      </trkpt>
      <trkpt lat="43.53853" lon="5.71557">
        <ele>502</ele>
        <time>2017-02-19T07:13:03Z</time>
      </trkpt>
      <trkpt lat="43.53871" lon="5.71555">
        <ele>502</ele>
        <time>2017-02-19T07:13:12Z</time>
      </trkpt>
      <trkpt lat="43.5389" lon="5.71553">
        <ele>503</ele>
        <time>2017-02-19T07:13:21Z</time>
      </trkpt>
      <trkpt lat="43.53908" lon="5.7155">
        <ele>504</ele>
        <time>2017-02-19T07:13:31Z</time>
      </trkpt>
      <trkpt lat="43.53927" lon="5.71547">
        <ele>506</ele>
        <time>2017-02-19T07:13:41Z</time>
      </trkpt>
      <trkpt lat="43.53946" lon="5.71543">
        <ele>506</ele>
        <time>2017-02-19T07:13:51Z</time>
      </trkpt>
      <trkpt lat="43.53965" lon="5.71541">
        <ele>506</ele>
        <time>2017-02-19T07:14:02Z</time>
      </trkpt>
      <trkpt lat="43.53983" lon="5.71534">
        <ele>507</ele>
        <time>2017-02-19T07:14:11Z</time>
      </trkpt>
      <trkpt lat="43.54001" lon="5.71524">
        <ele>505</ele>
        <time>2017-02-19T07:14:19Z</time>
      </trkpt>
      <trkpt lat="43.54018" lon="5.71509">
        <ele>505</ele>
        <time>2017-02-19T07:14:28Z</time>
      </trkpt>
      <trkpt lat="43.54033" lon="5.71493">
        <ele>508</ele>
        <time>2017-02-19T07:14:38Z</time>
      </trkpt>
      <trkpt lat="43.54048" lon="5.71476">
        <ele>507</ele>
        <time>2017-02-19T07:14:47Z</time>
      </trkpt>
      <trkpt lat="43.54063" lon="5.71458">
        <ele>508</ele>
        <time>2017-02-19T07:14:55Z</time>
      </trkpt>
      <trkpt lat="43.54078" lon="5.71439">
        <ele>509</ele>
        <time>2017-02-19T07:15:01Z</time>
      </trkpt>
      <trkpt lat="43.54094" lon="5.71421">
        <ele>506</ele>
        <time>2017-02-19T07:15:06Z</time>
      </trkpt>
      <trkpt lat="43.54108" lon="5.71405">
        <ele>508</ele>
        <time>2017-02-19T07:15:10Z</time>
      </trkpt>
      <trkpt lat="43.54126" lon="5.71383">
        <ele>506</ele>
        <time>2017-02-19T07:15:14Z</time>
      </trkpt>
      <trkpt lat="43.54141" lon="5.71363">
        <ele>506</ele>
        <time>2017-02-19T07:15:17Z</time>
      </trkpt>
      <trkpt lat="43.54154" lon="5.71341">
        <ele>504</ele>
        <time>2017-02-19T07:15:20Z</time>
      </trkpt>
      <trkpt lat="43.54169" lon="5.71319">
        <ele>499</ele>
        <time>2017-02-19T07:15:23Z</time>
      </trkpt>
      <trkpt lat="43.54182" lon="5.71294">
        <ele>499</ele>
        <time>2017-02-19T07:15:26Z</time>
      </trkpt>
      <trkpt lat="43.54198" lon="5.71268">
        <ele>498</ele>
        <time>2017-02-19T07:15:29Z</time>
      </trkpt>
      <trkpt lat="43.54213" lon="5.71243">
        <ele>500</ele>
        <time>2017-02-19T07:15:32Z</time>
      </trkpt>
      <trkpt lat="43.54229" lon="5.71216">
        <ele>499</ele>
        <time>2017-02-19T07:15:35Z</time>
      </trkpt>
      <trkpt lat="43.54242" lon="5.71197">
        <ele>498</ele>
        <time>2017-02-19T07:15:37Z</time>
      </trkpt>
      <trkpt lat="43.54255" lon="5.71176">
        <ele>492</ele>
        <time>2017-02-19T07:15:39Z</time>
      </trkpt>
      <trkpt lat="43.54272" lon="5.71148">
        <ele>491</ele>
        <time>2017-02-19T07:15:42Z</time>
      </trkpt>
      <trkpt lat="43.54286" lon="5.71122">
        <ele>491</ele>
        <time>2017-02-19T07:15:45Z</time>
      </trkpt>
      <trkpt lat="43.54299" lon="5.71097">
        <ele>491</ele>
        <time>2017-02-19T07:15:48Z</time>
      </trkpt>
      <trkpt lat="43.54313" lon="5.71073">
        <ele>491</ele>
        <time>2017-02-19T07:15:51Z</time>
      </trkpt>
      <trkpt lat="43.54328" lon="5.71056">
        <ele>491</ele>
        <time>2017-02-19T07:15:54Z</time>
      </trkpt>
      <trkpt lat="43.54342" lon="5.71038">
        <ele>489</ele>
        <time>2017-02-19T07:15:58Z</time>
      </trkpt>
      <trkpt lat="43.54354" lon="5.71018">
        <ele>489</ele>
        <time>2017-02-19T07:16:04Z</time>
      </trkpt>
      <trkpt lat="43.54368" lon="5.71002">
        <ele>489</ele>
        <time>2017-02-19T07:16:10Z</time>
      </trkpt>
      <trkpt lat="43.54382" lon="5.70983">
        <ele>489</ele>
        <time>2017-02-19T07:16:16Z</time>
      </trkpt>
      <trkpt lat="43.54396" lon="5.70962">
        <ele>489</ele>
        <time>2017-02-19T07:16:22Z</time>
      </trkpt>
      <trkpt lat="43.54408" lon="5.70943">
        <ele>489</ele>
        <time>2017-02-19T07:16:28Z</time>
      </trkpt>
      <trkpt lat="43.5442" lon="5.7092">
        <ele>489</ele>
        <time>2017-02-19T07:16:35Z</time>
      </trkpt>
      <trkpt lat="43.5443" lon="5.709">
        <ele>488</ele>
        <time>2017-02-19T07:16:41Z</time>
      </trkpt>
      <trkpt lat="43.54441" lon="5.70879">
        <ele>488</ele>
        <time>2017-02-19T07:16:47Z</time>
      </trkpt>
      <trkpt lat="43.54453" lon="5.70859">
        <ele>488</ele>
        <time>2017-02-19T07:16:53Z</time>
      </trkpt>
      <trkpt lat="43.54468" lon="5.7084">
        <ele>488</ele>
        <time>2017-02-19T07:17:00Z</time>
      </trkpt>
      <trkpt lat="43.54477" lon="5.70816">
        <ele>488</ele>
        <time>2017-02-19T07:17:07Z</time>
      </trkpt>
      <trkpt lat="43.54491" lon="5.70797">
        <ele>488</ele>
        <time>2017-02-19T07:17:13Z</time>
      </trkpt>
      <trkpt lat="43.54503" lon="5.70777">
        <ele>490</ele>
        <time>2017-02-19T07:17:22Z</time>
      </trkpt>
      <trkpt lat="43.54516" lon="5.70756">
        <ele>490</ele>
        <time>2017-02-19T07:17:31Z</time>
      </trkpt>
      <trkpt lat="43.54526" lon="5.70735">
        <ele>492</ele>
        <time>2017-02-19T07:17:39Z</time>
      </trkpt>
      <trkpt lat="43.54537" lon="5.70714">
        <ele>492</ele>
        <time>2017-02-19T07:17:46Z</time>
      </trkpt>
      <trkpt lat="43.5455" lon="5.70694">
        <ele>493</ele>
        <time>2017-02-19T07:17:53Z</time>
      </trkpt>
      <trkpt lat="43.5456" lon="5.70672">
        <ele>493</ele>
        <time>2017-02-19T07:18:02Z</time>
      </trkpt>
      <trkpt lat="43.54571" lon="5.7065">
        <ele>495</ele>
        <time>2017-02-19T07:18:10Z</time>
      </trkpt>
      <trkpt lat="43.54583" lon="5.70625">
        <ele>495</ele>
        <time>2017-02-19T07:18:20Z</time>
      </trkpt>
      <trkpt lat="43.54599" lon="5.70609">
        <ele>497</ele>
        <time>2017-02-19T07:18:26Z</time>
      </trkpt>
      <trkpt lat="43.54617" lon="5.70598">
        <ele>497</ele>
        <time>2017-02-19T07:18:34Z</time>
      </trkpt>
      <trkpt lat="43.54634" lon="5.70588">
        <ele>498</ele>
        <time>2017-02-19T07:18:57Z</time>
      </trkpt>
      <trkpt lat="43.54647" lon="5.70571">
        <ele>499</ele>
        <time>2017-02-19T07:19:04Z</time>
      </trkpt>
      <trkpt lat="43.54662" lon="5.70557">
        <ele>500</ele>
        <time>2017-02-19T07:19:22Z</time>
      </trkpt>
      <trkpt lat="43.54681" lon="5.70557">
        <ele>501</ele>
        <time>2017-02-19T07:22:01Z</time>
      </trkpt>
      <trkpt lat="43.54698" lon="5.70568">
        <ele>501</ele>
        <time>2017-02-19T07:22:10Z</time>
      </trkpt>
      <trkpt lat="43.54718" lon="5.70576">
        <ele>500</ele>
        <time>2017-02-19T07:22:18Z</time>
      </trkpt>
      <trkpt lat="43.54738" lon="5.7058">
        <ele>500</ele>
        <time>2017-02-19T07:22:25Z</time>
      </trkpt>
      <trkpt lat="43.54757" lon="5.70584">
        <ele>499</ele>
        <time>2017-02-19T07:22:31Z</time>
      </trkpt>
      <trkpt lat="43.54777" lon="5.70588">
        <ele>498</ele>
        <time>2017-02-19T07:22:37Z</time>
      </trkpt>
      <trkpt lat="43.54796" lon="5.70592">
        <ele>498</ele>
        <time>2017-02-19T07:22:42Z</time>
      </trkpt>
      <trkpt lat="43.54818" lon="5.70595">
        <ele>498</ele>
        <time>2017-02-19T07:22:47Z</time>
      </trkpt>
      <trkpt lat="43.5484" lon="5.70595">
        <ele>497</ele>
        <time>2017-02-19T07:22:52Z</time>
      </trkpt>
      <trkpt lat="43.54859" lon="5.70594">
        <ele>497</ele>
        <time>2017-02-19T07:22:56Z</time>
      </trkpt>
      <trkpt lat="43.54877" lon="5.70592">
        <ele>497</ele>
        <time>2017-02-19T07:23:00Z</time>
      </trkpt>
      <trkpt lat="43.54895" lon="5.70593">
        <ele>497</ele>
        <time>2017-02-19T07:23:04Z</time>
      </trkpt>
      <trkpt lat="43.54913" lon="5.70595">
        <ele>497</ele>
        <time>2017-02-19T07:23:08Z</time>
      </trkpt>
      <trkpt lat="43.54933" lon="5.70596">
        <ele>498</ele>
        <time>2017-02-19T07:23:13Z</time>
      </trkpt>
      <trkpt lat="43.54952" lon="5.70599">
        <ele>498</ele>
        <time>2017-02-19T07:23:19Z</time>
      </trkpt>
      <trkpt lat="43.54974" lon="5.70602">
        <ele>498</ele>
        <time>2017-02-19T07:23:25Z</time>
      </trkpt>
      <trkpt lat="43.54993" lon="5.70603">
        <ele>498</ele>
        <time>2017-02-19T07:23:30Z</time>
      </trkpt>
      <trkpt lat="43.55014" lon="5.70606">
        <ele>498</ele>
        <time>2017-02-19T07:23:36Z</time>
      </trkpt>
      <trkpt lat="43.55035" lon="5.70609">
        <ele>498</ele>
        <time>2017-02-19T07:23:42Z</time>
      </trkpt>
      <trkpt lat="43.55056" lon="5.70613">
        <ele>498</ele>
        <time>2017-02-19T07:23:48Z</time>
      </trkpt>
      <trkpt lat="43.55075" lon="5.70618">
        <ele>498</ele>
        <time>2017-02-19T07:23:53Z</time>
      </trkpt>
      <trkpt lat="43.55096" lon="5.70623">
        <ele>499</ele>
        <time>2017-02-19T07:23:58Z</time>
      </trkpt>
      <trkpt lat="43.55116" lon="5.70627">
        <ele>499</ele>
        <time>2017-02-19T07:24:03Z</time>
      </trkpt>
      <trkpt lat="43.55137" lon="5.70631">
        <ele>499</ele>
        <time>2017-02-19T07:24:08Z</time>
      </trkpt>
      <trkpt lat="43.55158" lon="5.70639">
        <ele>499</ele>
        <time>2017-02-19T07:24:13Z</time>
      </trkpt>
      <trkpt lat="43.55178" lon="5.70644">
        <ele>501</ele>
        <time>2017-02-19T07:24:18Z</time>
      </trkpt>
      <trkpt lat="43.55196" lon="5.70648">
        <ele>501</ele>
        <time>2017-02-19T07:24:23Z</time>
      </trkpt>
      <trkpt lat="43.55217" lon="5.70652">
        <ele>502</ele>
        <time>2017-02-19T07:24:29Z</time>
      </trkpt>
      <trkpt lat="43.55237" lon="5.70655">
        <ele>501</ele>
        <time>2017-02-19T07:24:35Z</time>
      </trkpt>
      <trkpt lat="43.55259" lon="5.70659">
        <ele>502</ele>
        <time>2017-02-19T07:24:41Z</time>
      </trkpt>
      <trkpt lat="43.55279" lon="5.70662">
        <ele>503</ele>
        <time>2017-02-19T07:24:47Z</time>
      </trkpt>
      <trkpt lat="43.55297" lon="5.70665">
        <ele>503</ele>
        <time>2017-02-19T07:24:52Z</time>
      </trkpt>
      <trkpt lat="43.55316" lon="5.70668">
        <ele>499</ele>
        <time>2017-02-19T07:24:57Z</time>
      </trkpt>
      <trkpt lat="43.55334" lon="5.7067">
        <ele>501</ele>
        <time>2017-02-19T07:25:02Z</time>
      </trkpt>
      <trkpt lat="43.55352" lon="5.7067">
        <ele>499</ele>
        <time>2017-02-19T07:25:07Z</time>
      </trkpt>
      <trkpt lat="43.55371" lon="5.70669">
        <ele>498</ele>
        <time>2017-02-19T07:25:12Z</time>
      </trkpt>
      <trkpt lat="43.55389" lon="5.70666">
        <ele>502</ele>
        <time>2017-02-19T07:25:17Z</time>
      </trkpt>
      <trkpt lat="43.55407" lon="5.70661">
        <ele>501</ele>
        <time>2017-02-19T07:25:22Z</time>
      </trkpt>
      <trkpt lat="43.55428" lon="5.70653">
        <ele>501</ele>
        <time>2017-02-19T07:25:28Z</time>
      </trkpt>
      <trkpt lat="43.55448" lon="5.70645">
        <ele>502</ele>
        <time>2017-02-19T07:25:34Z</time>
      </trkpt>
      <trkpt lat="43.55468" lon="5.70634">
        <ele>503</ele>
        <time>2017-02-19T07:25:40Z</time>
      </trkpt>
      <trkpt lat="43.55486" lon="5.70626">
        <ele>503</ele>
        <time>2017-02-19T07:25:46Z</time>
      </trkpt>
      <trkpt lat="43.55504" lon="5.70619">
        <ele>503</ele>
        <time>2017-02-19T07:25:52Z</time>
      </trkpt>
      <trkpt lat="43.55522" lon="5.70613">
        <ele>503</ele>
        <time>2017-02-19T07:25:58Z</time>
      </trkpt>
      <trkpt lat="43.55539" lon="5.70606">
        <ele>503</ele>
        <time>2017-02-19T07:26:04Z</time>
      </trkpt>
      <trkpt lat="43.55557" lon="5.706">
        <ele>503</ele>
        <time>2017-02-19T07:26:10Z</time>
      </trkpt>
      <trkpt lat="43.55576" lon="5.70593">
        <ele>503</ele>
        <time>2017-02-19T07:26:17Z</time>
      </trkpt>
      <trkpt lat="43.55594" lon="5.70581">
        <ele>503</ele>
        <time>2017-02-19T07:26:24Z</time>
      </trkpt>
      <trkpt lat="43.55612" lon="5.70572">
        <ele>503</ele>
        <time>2017-02-19T07:26:32Z</time>
      </trkpt>
      <trkpt lat="43.55621" lon="5.70599">
        <ele>501</ele>
        <time>2017-02-19T07:27:22Z</time>
      </trkpt>
      <trkpt lat="43.55623" lon="5.70624">
        <ele>500</ele>
        <time>2017-02-19T07:27:26Z</time>
      </trkpt>
      <trkpt lat="43.55624" lon="5.70653">
        <ele>500</ele>
        <time>2017-02-19T07:27:30Z</time>
      </trkpt>
      <trkpt lat="43.55625" lon="5.7068">
        <ele>499</ele>
        <time>2017-02-19T07:27:33Z</time>
      </trkpt>
      <trkpt lat="43.55625" lon="5.70709">
        <ele>498</ele>
        <time>2017-02-19T07:27:37Z</time>
      </trkpt>
      <trkpt lat="43.55622" lon="5.70737">
        <ele>498</ele>
        <time>2017-02-19T07:27:42Z</time>
      </trkpt>
      <trkpt lat="43.55634" lon="5.70714">
        <ele>499</ele>
        <time>2017-02-19T07:27:54Z</time>
      </trkpt>
      <trkpt lat="43.55643" lon="5.70691">
        <ele>499</ele>
        <time>2017-02-19T07:28:00Z</time>
      </trkpt>
      <trkpt lat="43.55659" lon="5.70673">
        <ele>499</ele>
        <time>2017-02-19T07:28:09Z</time>
      </trkpt>
      <trkpt lat="43.55673" lon="5.70658">
        <ele>500</ele>
        <time>2017-02-19T07:28:16Z</time>
      </trkpt>
      <trkpt lat="43.55686" lon="5.7064">
        <ele>501</ele>
        <time>2017-02-19T07:28:23Z</time>
      </trkpt>
      <trkpt lat="43.55699" lon="5.70621">
        <ele>501</ele>
        <time>2017-02-19T07:28:33Z</time>
      </trkpt>
      <trkpt lat="43.55714" lon="5.70607">
        <ele>502</ele>
        <time>2017-02-19T07:28:42Z</time>
      </trkpt>
      <trkpt lat="43.55731" lon="5.70595">
        <ele>502</ele>
        <time>2017-02-19T07:28:51Z</time>
      </trkpt>
      <trkpt lat="43.55749" lon="5.70599">
        <ele>502</ele>
        <time>2017-02-19T07:29:00Z</time>
      </trkpt>
      <trkpt lat="43.55768" lon="5.70601">
        <ele>507</ele>
        <time>2017-02-19T07:29:11Z</time>
      </trkpt>
      <trkpt lat="43.55784" lon="5.70587">
        <ele>509</ele>
        <time>2017-02-19T07:29:24Z</time>
      </trkpt>
      <trkpt lat="43.558" lon="5.70574">
        <ele>510</ele>
        <time>2017-02-19T07:29:35Z</time>
      </trkpt>
      <trkpt lat="43.55817" lon="5.70563">
        <ele>511</ele>
        <time>2017-02-19T07:29:46Z</time>
      </trkpt>
      <trkpt lat="43.55833" lon="5.70547">
        <ele>511</ele>
        <time>2017-02-19T07:29:58Z</time>
      </trkpt>
      <trkpt lat="43.55847" lon="5.70529">
        <ele>518</ele>
        <time>2017-02-19T07:30:10Z</time>
      </trkpt>
      <trkpt lat="43.55863" lon="5.70514">
        <ele>518</ele>
        <time>2017-02-19T07:30:24Z</time>
      </trkpt>
      <trkpt lat="43.55872" lon="5.70493">
        <ele>521</ele>
        <time>2017-02-19T07:30:38Z</time>
      </trkpt>
      <trkpt lat="43.55881" lon="5.7047">
        <ele>523</ele>
        <time>2017-02-19T07:31:02Z</time>
      </trkpt>
      <trkpt lat="43.55894" lon="5.70448">
        <ele>524</ele>
        <time>2017-02-19T07:31:34Z</time>
      </trkpt>
      <trkpt lat="43.55906" lon="5.70429">
        <ele>527</ele>
        <time>2017-02-19T07:31:48Z</time>
      </trkpt>
      <trkpt lat="43.55921" lon="5.70414">
        <ele>533</ele>
        <time>2017-02-19T07:32:09Z</time>
      </trkpt>
      <trkpt lat="43.55936" lon="5.70398">
        <ele>537</ele>
        <time>2017-02-19T07:32:27Z</time>
      </trkpt>
      <trkpt lat="43.55948" lon="5.70378">
        <ele>539</ele>
        <time>2017-02-19T07:33:02Z</time>
      </trkpt>
      <trkpt lat="43.55962" lon="5.70362">
        <ele>541</ele>
        <time>2017-02-19T07:33:28Z</time>
      </trkpt>
      <trkpt lat="43.5597" lon="5.7034">
        <ele>542</ele>
        <time>2017-02-19T07:34:00Z</time>
      </trkpt>
      <trkpt lat="43.55982" lon="5.7032">
        <ele>545</ele>
        <time>2017-02-19T07:37:27Z</time>
      </trkpt>
      <trkpt lat="43.55983" lon="5.7029">
        <ele>545</ele>
        <time>2017-02-19T07:41:09Z</time>
      </trkpt>
      <trkpt lat="43.55986" lon="5.70265">
        <ele>546</ele>
        <time>2017-02-19T07:41:19Z</time>
      </trkpt>
      <trkpt lat="43.55997" lon="5.70242">
        <ele>547</ele>
        <time>2017-02-19T07:44:56Z</time>
      </trkpt>
      <trkpt lat="43.56013" lon="5.7023">
        <ele>547</ele>
        <time>2017-02-19T07:45:06Z</time>
      </trkpt>
      <trkpt lat="43.56026" lon="5.70212">
        <ele>547</ele>
        <time>2017-02-19T07:45:14Z</time>
      </trkpt>
      <trkpt lat="43.56042" lon="5.70202">
        <ele>546</ele>
        <time>2017-02-19T07:45:23Z</time>
      </trkpt>
      <trkpt lat="43.5605" lon="5.70177">
        <ele>545</ele>
        <time>2017-02-19T07:45:33Z</time>
      </trkpt>
      <trkpt lat="43.56067" lon="5.70163">
        <ele>541</ele>
        <time>2017-02-19T07:45:43Z</time>
      </trkpt>
      <trkpt lat="43.5608" lon="5.70144">
        <ele>541</ele>
        <time>2017-02-19T07:45:55Z</time>
      </trkpt>
      <trkpt lat="43.56094" lon="5.70123">
        <ele>534</ele>
        <time>2017-02-19T07:46:03Z</time>
      </trkpt>
      <trkpt lat="43.56107" lon="5.70104">
        <ele>533</ele>
        <time>2017-02-19T07:46:12Z</time>
      </trkpt>
      <trkpt lat="43.56124" lon="5.7009">
        <ele>532</ele>
        <time>2017-02-19T07:46:19Z</time>
      </trkpt>
      <trkpt lat="43.56144" lon="5.70085">
        <ele>529</ele>
        <time>2017-02-19T07:46:26Z</time>
      </trkpt>
      <trkpt lat="43.56164" lon="5.70078">
        <ele>525</ele>
        <time>2017-02-19T07:46:33Z</time>
      </trkpt>
      <trkpt lat="43.56179" lon="5.70061">
        <ele>522</ele>
        <time>2017-02-19T07:46:40Z</time>
      </trkpt>
      <trkpt lat="43.56194" lon="5.70043">
        <ele>522</ele>
        <time>2017-02-19T07:46:47Z</time>
      </trkpt>
      <trkpt lat="43.56216" lon="5.70037">
        <ele>520</ele>
        <time>2017-02-19T07:46:52Z</time>
      </trkpt>
      <trkpt lat="43.56236" lon="5.70029">
        <ele>519</ele>
        <time>2017-02-19T07:46:57Z</time>
      </trkpt>
      <trkpt lat="43.56255" lon="5.7002">
        <ele>514</ele>
        <time>2017-02-19T07:47:02Z</time>
      </trkpt>
      <trkpt lat="43.5627" lon="5.70008">
        <ele>514</ele>
        <time>2017-02-19T07:47:42Z</time>
      </trkpt>
      <trkpt lat="43.56273" lon="5.69982">
        <ele>516</ele>
        <time>2017-02-19T07:47:55Z</time>
      </trkpt>
      <trkpt lat="43.5627" lon="5.69957">
        <ele>517</ele>
        <time>2017-02-19T07:48:08Z</time>
      </trkpt>
      <trkpt lat="43.56255" lon="5.6994">
        <ele>517</ele>
        <time>2017-02-19T07:48:17Z</time>
      </trkpt>
      <trkpt lat="43.56243" lon="5.69919">
        <ele>517</ele>
        <time>2017-02-19T07:48:28Z</time>
      </trkpt>
      <trkpt lat="43.56239" lon="5.69893">
        <ele>519</ele>
        <time>2017-02-19T07:48:37Z</time>
      </trkpt>
      <trkpt lat="43.56234" lon="5.69868">
        <ele>520</ele>
        <time>2017-02-19T07:48:46Z</time>
      </trkpt>
      <trkpt lat="43.5623" lon="5.69842">
        <ele>519</ele>
        <time>2017-02-19T07:48:55Z</time>
      </trkpt>
      <trkpt lat="43.5622" lon="5.69821">
        <ele>520</ele>
        <time>2017-02-19T07:49:04Z</time>
      </trkpt>
      <trkpt lat="43.56205" lon="5.69805">
        <ele>520</ele>
        <time>2017-02-19T07:49:13Z</time>
      </trkpt>
      <trkpt lat="43.56192" lon="5.69788">
        <ele>520</ele>
        <time>2017-02-19T07:49:22Z</time>
      </trkpt>
      <trkpt lat="43.56174" lon="5.69782">
        <ele>520</ele>
        <time>2017-02-19T07:49:31Z</time>
      </trkpt>
      <trkpt lat="43.56156" lon="5.6979">
        <ele>523</ele>
        <time>2017-02-19T07:49:40Z</time>
      </trkpt>
      <trkpt lat="43.56136" lon="5.69793">
        <ele>524</ele>
        <time>2017-02-19T07:49:49Z</time>
      </trkpt>
      <trkpt lat="43.56119" lon="5.69783">
        <ele>524</ele>
        <time>2017-02-19T07:49:55Z</time>
      </trkpt>
      <trkpt lat="43.56108" lon="5.69763">
        <ele>525</ele>
        <time>2017-02-19T07:50:02Z</time>
      </trkpt>
      <trkpt lat="43.56113" lon="5.69736">
        <ele>523</ele>
        <time>2017-02-19T07:50:10Z</time>
      </trkpt>
      <trkpt lat="43.56118" lon="5.69711">
        <ele>523</ele>
        <time>2017-02-19T07:50:18Z</time>
      </trkpt>
      <trkpt lat="43.56119" lon="5.69683">
        <ele>524</ele>
        <time>2017-02-19T07:50:26Z</time>
      </trkpt>
      <trkpt lat="43.56117" lon="5.69658">
        <ele>526</ele>
        <time>2017-02-19T07:50:35Z</time>
      </trkpt>
      <trkpt lat="43.56117" lon="5.69631">
        <ele>526</ele>
        <time>2017-02-19T07:50:43Z</time>
      </trkpt>
      <trkpt lat="43.56107" lon="5.6961">
        <ele>526</ele>
        <time>2017-02-19T07:50:52Z</time>
      </trkpt>
      <trkpt lat="43.56095" lon="5.6959">
        <ele>526</ele>
        <time>2017-02-19T07:51:01Z</time>
      </trkpt>
      <trkpt lat="43.56086" lon="5.69565">
        <ele>528</ele>
        <time>2017-02-19T07:51:09Z</time>
      </trkpt>
      <trkpt lat="43.56075" lon="5.69542">
        <ele>530</ele>
        <time>2017-02-19T07:51:18Z</time>
      </trkpt>
      <trkpt lat="43.56069" lon="5.69518">
        <ele>530</ele>
        <time>2017-02-19T07:51:27Z</time>
      </trkpt>
      <trkpt lat="43.56069" lon="5.6949">
        <ele>531</ele>
        <time>2017-02-19T07:51:34Z</time>
      </trkpt>
      <trkpt lat="43.56077" lon="5.69466">
        <ele>532</ele>
        <time>2017-02-19T07:51:41Z</time>
      </trkpt>
      <trkpt lat="43.56081" lon="5.69439">
        <ele>532</ele>
        <time>2017-02-19T07:51:50Z</time>
      </trkpt>
      <trkpt lat="43.5609" lon="5.69415">
        <ele>531</ele>
        <time>2017-02-19T07:52:01Z</time>
      </trkpt>
      <trkpt lat="43.56098" lon="5.69391">
        <ele>533</ele>
        <time>2017-02-19T07:52:10Z</time>
      </trkpt>
      <trkpt lat="43.56105" lon="5.69366">
        <ele>534</ele>
        <time>2017-02-19T07:52:20Z</time>
      </trkpt>
      <trkpt lat="43.56109" lon="5.6934">
        <ele>533</ele>
        <time>2017-02-19T07:52:29Z</time>
      </trkpt>
      <trkpt lat="43.56109" lon="5.69313">
        <ele>535</ele>
        <time>2017-02-19T07:52:41Z</time>
      </trkpt>
      <trkpt lat="43.56097" lon="5.69292">
        <ele>534</ele>
        <time>2017-02-19T07:52:53Z</time>
      </trkpt>
      <trkpt lat="43.56082" lon="5.69277">
        <ele>533</ele>
        <time>2017-02-19T07:53:02Z</time>
      </trkpt>
      <trkpt lat="43.56066" lon="5.69265">
        <ele>534</ele>
        <time>2017-02-19T07:53:11Z</time>
      </trkpt>
      <trkpt lat="43.5605" lon="5.69252">
        <ele>534</ele>
        <time>2017-02-19T07:53:20Z</time>
      </trkpt>
      <trkpt lat="43.56034" lon="5.69238">
        <ele>535</ele>
        <time>2017-02-19T07:53:29Z</time>
      </trkpt>
      <trkpt lat="43.56018" lon="5.69223">
        <ele>535</ele>
        <time>2017-02-19T07:53:38Z</time>
      </trkpt>
      <trkpt lat="43.56003" lon="5.69207">
        <ele>535</ele>
        <time>2017-02-19T07:53:48Z</time>
      </trkpt>
      <trkpt lat="43.55991" lon="5.69188">
        <ele>538</ele>
        <time>2017-02-19T07:53:57Z</time>
      </trkpt>
      <trkpt lat="43.55978" lon="5.69166">
        <ele>538</ele>
        <time>2017-02-19T07:54:06Z</time>
      </trkpt>
      <trkpt lat="43.55966" lon="5.69146">
        <ele>539</ele>
        <time>2017-02-19T07:54:15Z</time>
      </trkpt>
      <trkpt lat="43.55956" lon="5.69123">
        <ele>539</ele>
        <time>2017-02-19T07:54:23Z</time>
      </trkpt>
      <trkpt lat="43.55945" lon="5.69101">
        <ele>540</ele>
        <time>2017-02-19T07:54:32Z</time>
      </trkpt>
      <trkpt lat="43.55937" lon="5.69078">
        <ele>540</ele>
        <time>2017-02-19T07:54:40Z</time>
      </trkpt>
      <trkpt lat="43.55933" lon="5.69053">
        <ele>540</ele>
        <time>2017-02-19T07:54:48Z</time>
      </trkpt>
      <trkpt lat="43.55933" lon="5.69027">
        <ele>540</ele>
        <time>2017-02-19T07:54:55Z</time>
      </trkpt>
      <trkpt lat="43.55931" lon="5.69002">
        <ele>540</ele>
        <time>2017-02-19T07:55:03Z</time>
      </trkpt>
      <trkpt lat="43.55926" lon="5.68976">
        <ele>541</ele>
        <time>2017-02-19T07:55:11Z</time>
      </trkpt>
      <trkpt lat="43.55926" lon="5.68951">
        <ele>542</ele>
        <time>2017-02-19T07:55:19Z</time>
      </trkpt>
      <trkpt lat="43.5592" lon="5.68925">
        <ele>542</ele>
        <time>2017-02-19T07:55:29Z</time>
      </trkpt>
      <trkpt lat="43.5591" lon="5.68904">
        <ele>542</ele>
        <time>2017-02-19T07:55:40Z</time>
      </trkpt>
      <trkpt lat="43.55921" lon="5.68884">
        <ele>544</ele>
        <time>2017-02-19T07:55:53Z</time>
      </trkpt>
      <trkpt lat="43.55939" lon="5.68874">
        <ele>545</ele>
        <time>2017-02-19T07:56:02Z</time>
      </trkpt>
      <trkpt lat="43.55958" lon="5.68872">
        <ele>546</ele>
        <time>2017-02-19T07:56:14Z</time>
      </trkpt>
      <trkpt lat="43.55976" lon="5.6888">
        <ele>547</ele>
        <time>2017-02-19T07:56:29Z</time>
      </trkpt>
      <trkpt lat="43.5599" lon="5.68863">
        <ele>548</ele>
        <time>2017-02-19T07:56:43Z</time>
      </trkpt>
      <trkpt lat="43.56007" lon="5.68854">
        <ele>553</ele>
        <time>2017-02-19T07:56:56Z</time>
      </trkpt>
      <trkpt lat="43.56024" lon="5.68846">
        <ele>553</ele>
        <time>2017-02-19T07:57:10Z</time>
      </trkpt>
      <trkpt lat="43.56042" lon="5.68834">
        <ele>554</ele>
        <time>2017-02-19T07:57:24Z</time>
      </trkpt>
      <trkpt lat="43.56056" lon="5.68819">
        <ele>557</ele>
        <time>2017-02-19T08:01:10Z</time>
      </trkpt>
      <trkpt lat="43.56048" lon="5.68795">
        <ele>557</ele>
        <time>2017-02-19T08:03:39Z</time>
      </trkpt>
      <trkpt lat="43.56036" lon="5.68773">
        <ele>557</ele>
        <time>2017-02-19T08:03:49Z</time>
      </trkpt>
      <trkpt lat="43.56019" lon="5.68752">
        <ele>557</ele>
        <time>2017-02-19T08:03:55Z</time>
      </trkpt>
      <trkpt lat="43.56011" lon="5.68727">
        <ele>559</ele>
        <time>2017-02-19T08:03:59Z</time>
      </trkpt>
      <trkpt lat="43.55999" lon="5.68701">
        <ele>557</ele>
        <time>2017-02-19T08:04:04Z</time>
      </trkpt>
      <trkpt lat="43.55983" lon="5.68677">
        <ele>558</ele>
        <time>2017-02-19T08:04:08Z</time>
      </trkpt>
      <trkpt lat="43.55972" lon="5.68653">
        <ele>560</ele>
        <time>2017-02-19T08:04:11Z</time>
      </trkpt>
      <trkpt lat="43.55956" lon="5.68634">
        <ele>560</ele>
        <time>2017-02-19T08:04:16Z</time>
      </trkpt>
      <trkpt lat="43.5594" lon="5.6862">
        <ele>560</ele>
        <time>2017-02-19T08:04:24Z</time>
      </trkpt>
      <trkpt lat="43.55925" lon="5.68606">
        <ele>560</ele>
        <time>2017-02-19T08:04:31Z</time>
      </trkpt>
      <trkpt lat="43.55908" lon="5.6859">
        <ele>558</ele>
        <time>2017-02-19T08:04:37Z</time>
      </trkpt>
      <trkpt lat="43.55898" lon="5.68567">
        <ele>559</ele>
        <time>2017-02-19T08:04:43Z</time>
      </trkpt>
      <trkpt lat="43.55887" lon="5.68543">
        <ele>559</ele>
        <time>2017-02-19T08:04:49Z</time>
      </trkpt>
      <trkpt lat="43.5588" lon="5.68519">
        <ele>559</ele>
        <time>2017-02-19T08:04:54Z</time>
      </trkpt>
      <trkpt lat="43.55877" lon="5.68492">
        <ele>562</ele>
        <time>2017-02-19T08:05:01Z</time>
      </trkpt>
      <trkpt lat="43.55881" lon="5.68467">
        <ele>562</ele>
        <time>2017-02-19T08:05:10Z</time>
      </trkpt>
      <trkpt lat="43.5589" lon="5.68444">
        <ele>563</ele>
        <time>2017-02-19T08:05:19Z</time>
      </trkpt>
      <trkpt lat="43.55902" lon="5.68424">
        <ele>565</ele>
        <time>2017-02-19T08:05:29Z</time>
      </trkpt>
      <trkpt lat="43.5592" lon="5.68415">
        <ele>568</ele>
        <time>2017-02-19T08:05:40Z</time>
      </trkpt>
      <trkpt lat="43.55934" lon="5.68396">
        <ele>570</ele>
        <time>2017-02-19T08:05:52Z</time>
      </trkpt>
      <trkpt lat="43.55945" lon="5.68374">
        <ele>571</ele>
        <time>2017-02-19T08:06:04Z</time>
      </trkpt>
      <trkpt lat="43.55958" lon="5.68356">
        <ele>572</ele>
        <time>2017-02-19T08:06:15Z</time>
      </trkpt>
      <trkpt lat="43.55975" lon="5.68344">
        <ele>573</ele>
        <time>2017-02-19T08:06:25Z</time>
      </trkpt>
      <trkpt lat="43.55986" lon="5.68322">
        <ele>575</ele>
        <time>2017-02-19T08:06:36Z</time>
      </trkpt>
      <trkpt lat="43.55992" lon="5.68298">
        <ele>575</ele>
        <time>2017-02-19T08:06:46Z</time>
      </trkpt>
      <trkpt lat="43.55996" lon="5.68272">
        <ele>575</ele>
        <time>2017-02-19T08:06:57Z</time>
      </trkpt>
      <trkpt lat="43.56002" lon="5.68247">
        <ele>577</ele>
        <time>2017-02-19T08:07:07Z</time>
      </trkpt>
      <trkpt lat="43.56001" lon="5.68222">
        <ele>578</ele>
        <time>2017-02-19T08:07:16Z</time>
      </trkpt>
      <trkpt lat="43.55995" lon="5.68196">
        <ele>577</ele>
        <time>2017-02-19T08:07:26Z</time>
      </trkpt>
      <trkpt lat="43.55977" lon="5.6819">
        <ele>576</ele>
        <time>2017-02-19T08:07:35Z</time>
      </trkpt>
      <trkpt lat="43.55957" lon="5.68187">
        <ele>575</ele>
        <time>2017-02-19T08:07:42Z</time>
      </trkpt>
      <trkpt lat="43.55938" lon="5.68185">
        <ele>575</ele>
        <time>2017-02-19T08:07:48Z</time>
      </trkpt>
      <trkpt lat="43.55918" lon="5.68182">
        <ele>574</ele>
        <time>2017-02-19T08:07:53Z</time>
      </trkpt>
      <trkpt lat="43.55899" lon="5.68169">
        <ele>571</ele>
        <time>2017-02-19T08:07:57Z</time>
      </trkpt>
      <trkpt lat="43.55884" lon="5.6815">
        <ele>572</ele>
        <time>2017-02-19T08:08:03Z</time>
      </trkpt>
      <trkpt lat="43.55877" lon="5.68125">
        <ele>573</ele>
        <time>2017-02-19T08:08:10Z</time>
      </trkpt>
      <trkpt lat="43.55876" lon="5.681">
        <ele>573</ele>
        <time>2017-02-19T08:08:17Z</time>
      </trkpt>
      <trkpt lat="43.55883" lon="5.68074">
        <ele>575</ele>
        <time>2017-02-19T08:08:25Z</time>
      </trkpt>
      <trkpt lat="43.55898" lon="5.68061">
        <ele>576</ele>
        <time>2017-02-19T08:08:33Z</time>
      </trkpt>
      <trkpt lat="43.55914" lon="5.68046">
        <ele>576</ele>
        <time>2017-02-19T08:08:42Z</time>
      </trkpt>
      <trkpt lat="43.55922" lon="5.68021">
        <ele>578</ele>
        <time>2017-02-19T08:08:51Z</time>
      </trkpt>
      <trkpt lat="43.55927" lon="5.67994">
        <ele>579</ele>
        <time>2017-02-19T08:09:00Z</time>
      </trkpt>
      <trkpt lat="43.55926" lon="5.67969">
        <ele>579</ele>
        <time>2017-02-19T08:09:08Z</time>
      </trkpt>
      <trkpt lat="43.55935" lon="5.67946">
        <ele>580</ele>
        <time>2017-02-19T08:09:17Z</time>
      </trkpt>
      <trkpt lat="43.55949" lon="5.67927">
        <ele>580</ele>
        <time>2017-02-19T08:09:25Z</time>
      </trkpt>
      <trkpt lat="43.55953" lon="5.679">
        <ele>581</ele>
        <time>2017-02-19T08:09:33Z</time>
      </trkpt>
      <trkpt lat="43.55953" lon="5.67873">
        <ele>581</ele>
        <time>2017-02-19T08:09:41Z</time>
      </trkpt>
      <trkpt lat="43.55954" lon="5.67845">
        <ele>581</ele>
        <time>2017-02-19T08:09:49Z</time>
      </trkpt>
      <trkpt lat="43.55952" lon="5.6782">
        <ele>581</ele>
        <time>2017-02-19T08:09:56Z</time>
      </trkpt>
      <trkpt lat="43.55945" lon="5.67796">
        <ele>581</ele>
        <time>2017-02-19T08:10:04Z</time>
      </trkpt>
      <trkpt lat="43.55938" lon="5.67772">
        <ele>582</ele>
        <time>2017-02-19T08:10:12Z</time>
      </trkpt>
      <trkpt lat="43.55931" lon="5.67749">
        <ele>583</ele>
        <time>2017-02-19T08:10:19Z</time>
      </trkpt>
      <trkpt lat="43.55918" lon="5.6773">
        <ele>583</ele>
        <time>2017-02-19T08:10:26Z</time>
      </trkpt>
      <trkpt lat="43.55903" lon="5.67715">
        <ele>585</ele>
        <time>2017-02-19T08:10:33Z</time>
      </trkpt>
      <trkpt lat="43.55888" lon="5.67698">
        <ele>585</ele>
        <time>2017-02-19T08:10:41Z</time>
      </trkpt>
      <trkpt lat="43.55874" lon="5.67682">
        <ele>586</ele>
        <time>2017-02-19T08:10:49Z</time>
      </trkpt>
      <trkpt lat="43.5586" lon="5.67663">
        <ele>587</ele>
        <time>2017-02-19T08:10:57Z</time>
      </trkpt>
      <trkpt lat="43.55844" lon="5.67647">
        <ele>588</ele>
        <time>2017-02-19T08:11:05Z</time>
      </trkpt>
      <trkpt lat="43.55832" lon="5.67626">
        <ele>590</ele>
        <time>2017-02-19T08:11:14Z</time>
      </trkpt>
      <trkpt lat="43.55819" lon="5.67606">
        <ele>591</ele>
        <time>2017-02-19T08:11:23Z</time>
      </trkpt>
      <trkpt lat="43.55811" lon="5.67582">
        <ele>593</ele>
        <time>2017-02-19T08:11:31Z</time>
      </trkpt>
      <trkpt lat="43.558" lon="5.67559">
        <ele>593</ele>
        <time>2017-02-19T08:11:40Z</time>
      </trkpt>
      <trkpt lat="43.55789" lon="5.67536">
        <ele>593</ele>
        <time>2017-02-19T08:11:49Z</time>
      </trkpt>
      <trkpt lat="43.55779" lon="5.67514">
        <ele>594</ele>
        <time>2017-02-19T08:11:58Z</time>
      </trkpt>
      <trkpt lat="43.5579" lon="5.67491">
        <ele>595</ele>
        <time>2017-02-19T08:12:10Z</time>
      </trkpt>
      <trkpt lat="43.55806" lon="5.67481">
        <ele>595</ele>
        <time>2017-02-19T08:12:18Z</time>
      </trkpt>
      <trkpt lat="43.55826" lon="5.67472">
        <ele>595</ele>
        <time>2017-02-19T08:12:26Z</time>
      </trkpt>
      <trkpt lat="43.55844" lon="5.67461">
        <ele>592</ele>
        <time>2017-02-19T08:12:33Z</time>
      </trkpt>
      <trkpt lat="43.55861" lon="5.67451">
        <ele>591</ele>
        <time>2017-02-19T08:12:39Z</time>
      </trkpt>
      <trkpt lat="43.55877" lon="5.67437">
        <ele>591</ele>
        <time>2017-02-19T08:12:44Z</time>
      </trkpt>
      <trkpt lat="43.55884" lon="5.67408">
        <ele>589</ele>
        <time>2017-02-19T08:12:48Z</time>
      </trkpt>
      <trkpt lat="43.55891" lon="5.67384">
        <ele>589</ele>
        <time>2017-02-19T08:12:51Z</time>
      </trkpt>
      <trkpt lat="43.55904" lon="5.67367">
        <ele>589</ele>
        <time>2017-02-19T08:12:54Z</time>
      </trkpt>
      <trkpt lat="43.55922" lon="5.67361">
        <ele>586</ele>
        <time>2017-02-19T08:12:57Z</time>
      </trkpt>
      <trkpt lat="43.5594" lon="5.67342">
        <ele>586</ele>
        <time>2017-02-19T08:13:00Z</time>
      </trkpt>
      <trkpt lat="43.55957" lon="5.67323">
        <ele>585</ele>
        <time>2017-02-19T08:13:03Z</time>
      </trkpt>
      <trkpt lat="43.55973" lon="5.6731">
        <ele>585</ele>
        <time>2017-02-19T08:13:06Z</time>
      </trkpt>
      <trkpt lat="43.55989" lon="5.67295">
        <ele>585</ele>
        <time>2017-02-19T08:13:10Z</time>
      </trkpt>
      <trkpt lat="43.56006" lon="5.67287">
        <ele>589</ele>
        <time>2017-02-19T08:13:16Z</time>
      </trkpt>
      <trkpt lat="43.56015" lon="5.67308">
        <ele>589</ele>
        <time>2017-02-19T08:13:23Z</time>
      </trkpt>
      <trkpt lat="43.56024" lon="5.6733">
        <ele>589</ele>
        <time>2017-02-19T08:13:30Z</time>
      </trkpt>
      <trkpt lat="43.56035" lon="5.6735">
        <ele>590</ele>
        <time>2017-02-19T08:13:37Z</time>
      </trkpt>
      <trkpt lat="43.56047" lon="5.67371">
        <ele>591</ele>
        <time>2017-02-19T08:13:45Z</time>
      </trkpt>
      <trkpt lat="43.56058" lon="5.6735">
        <ele>592</ele>
        <time>2017-02-19T08:13:55Z</time>
      </trkpt>
      <trkpt lat="43.56056" lon="5.67323">
        <ele>592</ele>
        <time>2017-02-19T08:14:03Z</time>
      </trkpt>
      <trkpt lat="43.5606" lon="5.67297">
        <ele>592</ele>
        <time>2017-02-19T08:14:11Z</time>
      </trkpt>
      <trkpt lat="43.56066" lon="5.67273">
        <ele>593</ele>
        <time>2017-02-19T08:14:19Z</time>
      </trkpt>
      <trkpt lat="43.56071" lon="5.67248">
        <ele>595</ele>
        <time>2017-02-19T08:14:27Z</time>
      </trkpt>
      <trkpt lat="43.56079" lon="5.67223">
        <ele>594</ele>
        <time>2017-02-19T08:14:36Z</time>
      </trkpt>
      <trkpt lat="43.56091" lon="5.67202">
        <ele>599</ele>
        <time>2017-02-19T08:14:45Z</time>
      </trkpt>
      <trkpt lat="43.56101" lon="5.67178">
        <ele>599</ele>
        <time>2017-02-19T08:14:55Z</time>
      </trkpt>
      <trkpt lat="43.56106" lon="5.67152">
        <ele>600</ele>
        <time>2017-02-19T08:15:05Z</time>
      </trkpt>
      <trkpt lat="43.56108" lon="5.67128">
        <ele>601</ele>
        <time>2017-02-19T08:15:14Z</time>
      </trkpt>
      <trkpt lat="43.56117" lon="5.67105">
        <ele>601</ele>
        <time>2017-02-19T08:15:26Z</time>
      </trkpt>
      <trkpt lat="43.56131" lon="5.67089">
        <ele>602</ele>
        <time>2017-02-19T08:15:38Z</time>
      </trkpt>
      <trkpt lat="43.56143" lon="5.6707">
        <ele>604</ele>
        <time>2017-02-19T08:15:50Z</time>
      </trkpt>
      <trkpt lat="43.56156" lon="5.6705">
        <ele>605</ele>
        <time>2017-02-19T08:16:01Z</time>
      </trkpt>
      <trkpt lat="43.56167" lon="5.6703">
        <ele>606</ele>
        <time>2017-02-19T08:20:22Z</time>
      </trkpt>
      <trkpt lat="43.56177" lon="5.67008">
        <ele>607</ele>
        <time>2017-02-19T08:21:47Z</time>
      </trkpt>
      <trkpt lat="43.56193" lon="5.66988">
        <ele>609</ele>
        <time>2017-02-19T08:21:54Z</time>
      </trkpt>
      <trkpt lat="43.56198" lon="5.66959">
        <ele>610</ele>
        <time>2017-02-19T08:21:59Z</time>
      </trkpt>
      <trkpt lat="43.56197" lon="5.66934">
        <ele>611</ele>
        <time>2017-02-19T08:22:02Z</time>
      </trkpt>
      <trkpt lat="43.56198" lon="5.66908">
        <ele>614</ele>
        <time>2017-02-19T08:22:05Z</time>
      </trkpt>
      <trkpt lat="43.56203" lon="5.66883">
        <ele>614</ele>
        <time>2017-02-19T08:22:09Z</time>
      </trkpt>
      <trkpt lat="43.56208" lon="5.66857">
        <ele>615</ele>
        <time>2017-02-19T08:22:14Z</time>
      </trkpt>
      <trkpt lat="43.56211" lon="5.66829">
        <ele>618</ele>
        <time>2017-02-19T08:22:20Z</time>
      </trkpt>
      <trkpt lat="43.56215" lon="5.66803">
        <ele>618</ele>
        <time>2017-02-19T08:22:26Z</time>
      </trkpt>
      <trkpt lat="43.5622" lon="5.66779">
        <ele>618</ele>
        <time>2017-02-19T08:22:32Z</time>
      </trkpt>
      <trkpt lat="43.56224" lon="5.66753">
        <ele>619</ele>
        <time>2017-02-19T08:22:39Z</time>
      </trkpt>
      <trkpt lat="43.56228" lon="5.66727">
        <ele>622</ele>
        <time>2017-02-19T08:22:47Z</time>
      </trkpt>
      <trkpt lat="43.56231" lon="5.667">
        <ele>623</ele>
        <time>2017-02-19T08:22:56Z</time>
      </trkpt>
      <trkpt lat="43.56233" lon="5.66675">
        <ele>623</ele>
        <time>2017-02-19T08:23:05Z</time>
      </trkpt>
      <trkpt lat="43.56231" lon="5.66648">
        <ele>626</ele>
        <time>2017-02-19T08:23:15Z</time>
      </trkpt>
      <trkpt lat="43.5623" lon="5.66623">
        <ele>627</ele>
        <time>2017-02-19T08:23:24Z</time>
      </trkpt>
      <trkpt lat="43.56234" lon="5.66599">
        <ele>627</ele>
        <time>2017-02-19T08:23:34Z</time>
      </trkpt>
      <trkpt lat="43.56241" lon="5.66576">
        <ele>628</ele>
        <time>2017-02-19T08:23:44Z</time>
      </trkpt>
      <trkpt lat="43.56252" lon="5.66554">
        <ele>627</ele>
        <time>2017-02-19T08:23:56Z</time>
      </trkpt>
      <trkpt lat="43.56258" lon="5.66529">
        <ele>628</ele>
        <time>2017-02-19T08:24:07Z</time>
      </trkpt>
      <trkpt lat="43.56262" lon="5.66504">
        <ele>629</ele>
        <time>2017-02-19T08:24:18Z</time>
      </trkpt>
      <trkpt lat="43.56264" lon="5.66478">
        <ele>630</ele>
        <time>2017-02-19T08:24:29Z</time>
      </trkpt>
      <trkpt lat="43.56263" lon="5.66453">
        <ele>630</ele>
        <time>2017-02-19T08:24:39Z</time>
      </trkpt>
      <trkpt lat="43.56259" lon="5.66426">
        <ele>631</ele>
        <time>2017-02-19T08:24:49Z</time>
      </trkpt>
      <trkpt lat="43.5626" lon="5.66399">
        <ele>630</ele>
        <time>2017-02-19T08:24:59Z</time>
      </trkpt>
      <trkpt lat="43.56261" lon="5.66372">
        <ele>629</ele>
        <time>2017-02-19T08:25:09Z</time>
      </trkpt>
      <trkpt lat="43.56253" lon="5.66349">
        <ele>630</ele>
        <time>2017-02-19T08:25:18Z</time>
      </trkpt>
      <trkpt lat="43.56236" lon="5.66334">
        <ele>634</ele>
        <time>2017-02-19T08:25:27Z</time>
      </trkpt>
      <trkpt lat="43.5622" lon="5.6632">
        <ele>635</ele>
        <time>2017-02-19T08:25:35Z</time>
      </trkpt>
      <trkpt lat="43.56205" lon="5.66301">
        <ele>636</ele>
        <time>2017-02-19T08:25:43Z</time>
      </trkpt>
      <trkpt lat="43.56199" lon="5.66276">
        <ele>636</ele>
        <time>2017-02-19T08:25:50Z</time>
      </trkpt>
      <trkpt lat="43.56192" lon="5.66251">
        <ele>636</ele>
        <time>2017-02-19T08:25:57Z</time>
      </trkpt>
      <trkpt lat="43.56182" lon="5.66227">
        <ele>637</ele>
        <time>2017-02-19T08:26:05Z</time>
      </trkpt>
      <trkpt lat="43.56174" lon="5.66202">
        <ele>637</ele>
        <time>2017-02-19T08:26:13Z</time>
      </trkpt>
      <trkpt lat="43.56179" lon="5.66177">
        <ele>638</ele>
        <time>2017-02-19T08:26:20Z</time>
      </trkpt>
      <trkpt lat="43.56201" lon="5.66174">
        <ele>636</ele>
        <time>2017-02-19T08:26:24Z</time>
      </trkpt>
      <trkpt lat="43.56221" lon="5.6617">
        <ele>635</ele>
        <time>2017-02-19T08:26:28Z</time>
      </trkpt>
      <trkpt lat="43.56237" lon="5.66151">
        <ele>636</ele>
        <time>2017-02-19T08:26:33Z</time>
      </trkpt>
      <trkpt lat="43.56247" lon="5.6613">
        <ele>637</ele>
        <time>2017-02-19T08:26:37Z</time>
      </trkpt>
      <trkpt lat="43.56259" lon="5.66108">
        <ele>633</ele>
        <time>2017-02-19T08:26:41Z</time>
      </trkpt>
      <trkpt lat="43.56271" lon="5.66085">
        <ele>633</ele>
        <time>2017-02-19T08:26:45Z</time>
      </trkpt>
      <trkpt lat="43.56281" lon="5.66058">
        <ele>633</ele>
        <time>2017-02-19T08:26:49Z</time>
      </trkpt>
      <trkpt lat="43.56284" lon="5.6603">
        <ele>633</ele>
        <time>2017-02-19T08:26:53Z</time>
      </trkpt>
      <trkpt lat="43.56287" lon="5.66">
        <ele>633</ele>
        <time>2017-02-19T08:26:57Z</time>
      </trkpt>
      <trkpt lat="43.56289" lon="5.65968">
        <ele>634</ele>
        <time>2017-02-19T08:27:00Z</time>
      </trkpt>
      <trkpt lat="43.56293" lon="5.65938">
        <ele>634</ele>
        <time>2017-02-19T08:27:03Z</time>
      </trkpt>
      <trkpt lat="43.56297" lon="5.6591">
        <ele>636</ele>
        <time>2017-02-19T08:27:09Z</time>
      </trkpt>
      <trkpt lat="43.56305" lon="5.65884">
        <ele>636</ele>
        <time>2017-02-19T08:27:16Z</time>
      </trkpt>
      <trkpt lat="43.5631" lon="5.6586">
        <ele>637</ele>
        <time>2017-02-19T08:27:22Z</time>
      </trkpt>
      <trkpt lat="43.56312" lon="5.65835">
        <ele>636</ele>
        <time>2017-02-19T08:27:27Z</time>
      </trkpt>
      <trkpt lat="43.56317" lon="5.6581">
        <ele>638</ele>
        <time>2017-02-19T08:27:32Z</time>
      </trkpt>
      <trkpt lat="43.56327" lon="5.65786">
        <ele>638</ele>
        <time>2017-02-19T08:27:36Z</time>
      </trkpt>
      <trkpt lat="43.56337" lon="5.65758">
        <ele>635</ele>
        <time>2017-02-19T08:27:40Z</time>
      </trkpt>
      <trkpt lat="43.56346" lon="5.65734">
        <ele>634</ele>
        <time>2017-02-19T08:27:44Z</time>
      </trkpt>
      <trkpt lat="43.56353" lon="5.65709">
        <ele>633</ele>
        <time>2017-02-19T08:27:48Z</time>
      </trkpt>
      <trkpt lat="43.56358" lon="5.65683">
        <ele>634</ele>
        <time>2017-02-19T08:27:52Z</time>
      </trkpt>
      <trkpt lat="43.56357" lon="5.65655">
        <ele>635</ele>
        <time>2017-02-19T08:27:57Z</time>
      </trkpt>
      <trkpt lat="43.56356" lon="5.65628">
        <ele>635</ele>
        <time>2017-02-19T08:28:02Z</time>
      </trkpt>
      <trkpt lat="43.5635" lon="5.65602">
        <ele>636</ele>
        <time>2017-02-19T08:28:07Z</time>
      </trkpt>
      <trkpt lat="43.56345" lon="5.65577">
        <ele>638</ele>
        <time>2017-02-19T08:28:12Z</time>
      </trkpt>
      <trkpt lat="43.56349" lon="5.65553">
        <ele>638</ele>
        <time>2017-02-19T08:28:18Z</time>
      </trkpt>
      <trkpt lat="43.56361" lon="5.65534">
        <ele>638</ele>
        <time>2017-02-19T08:28:23Z</time>
      </trkpt>
      <trkpt lat="43.56379" lon="5.65514">
        <ele>637</ele>
        <time>2017-02-19T08:28:27Z</time>
      </trkpt>
      <trkpt lat="43.56396" lon="5.65501">
        <ele>637</ele>
        <time>2017-02-19T08:28:32Z</time>
      </trkpt>
      <trkpt lat="43.56414" lon="5.65485">
        <ele>637</ele>
        <time>2017-02-19T08:28:38Z</time>
      </trkpt>
      <trkpt lat="43.56431" lon="5.65471">
        <ele>636</ele>
        <time>2017-02-19T08:28:43Z</time>
      </trkpt>
      <trkpt lat="43.56451" lon="5.65463">
        <ele>636</ele>
        <time>2017-02-19T08:28:47Z</time>
      </trkpt>
      <trkpt lat="43.56468" lon="5.6545">
        <ele>636</ele>
        <time>2017-02-19T08:28:50Z</time>
      </trkpt>
      <trkpt lat="43.56484" lon="5.65435">
        <ele>636</ele>
        <time>2017-02-19T08:28:53Z</time>
      </trkpt>
      <trkpt lat="43.56501" lon="5.65419">
        <ele>636</ele>
        <time>2017-02-19T08:28:56Z</time>
      </trkpt>
      <trkpt lat="43.56518" lon="5.65403">
        <ele>638</ele>
        <time>2017-02-19T08:29:00Z</time>
      </trkpt>
      <trkpt lat="43.56535" lon="5.65389">
        <ele>640</ele>
        <time>2017-02-19T08:29:06Z</time>
      </trkpt>
      <trkpt lat="43.56551" lon="5.65375">
        <ele>640</ele>
        <time>2017-02-19T08:29:12Z</time>
      </trkpt>
      <trkpt lat="43.56567" lon="5.65362">
        <ele>641</ele>
        <time>2017-02-19T08:29:21Z</time>
      </trkpt>
      <trkpt lat="43.56585" lon="5.65353">
        <ele>644</ele>
        <time>2017-02-19T08:29:31Z</time>
      </trkpt>
      <trkpt lat="43.56601" lon="5.6534">
        <ele>645</ele>
        <time>2017-02-19T08:29:45Z</time>
      </trkpt>
      <trkpt lat="43.56616" lon="5.65326">
        <ele>647</ele>
        <time>2017-02-19T08:29:58Z</time>
      </trkpt>
      <trkpt lat="43.56633" lon="5.65312">
        <ele>647</ele>
        <time>2017-02-19T08:30:10Z</time>
      </trkpt>
      <trkpt lat="43.56648" lon="5.65298">
        <ele>648</ele>
        <time>2017-02-19T08:30:19Z</time>
      </trkpt>
      <trkpt lat="43.56665" lon="5.65283">
        <ele>648</ele>
        <time>2017-02-19T08:30:29Z</time>
      </trkpt>
      <trkpt lat="43.5668" lon="5.65267">
        <ele>651</ele>
        <time>2017-02-19T08:30:41Z</time>
      </trkpt>
      <trkpt lat="43.56692" lon="5.65248">
        <ele>652</ele>
        <time>2017-02-19T08:30:54Z</time>
      </trkpt>
      <trkpt lat="43.56702" lon="5.65226">
        <ele>652</ele>
        <time>2017-02-19T08:31:06Z</time>
      </trkpt>
      <trkpt lat="43.56712" lon="5.65202">
        <ele>653</ele>
        <time>2017-02-19T08:31:18Z</time>
      </trkpt>
      <trkpt lat="43.56719" lon="5.65176">
        <ele>653</ele>
        <time>2017-02-19T08:31:28Z</time>
      </trkpt>
      <trkpt lat="43.56722" lon="5.65151">
        <ele>655</ele>
        <time>2017-02-19T08:31:37Z</time>
      </trkpt>
      <trkpt lat="43.56727" lon="5.65125">
        <ele>656</ele>
        <time>2017-02-19T08:31:46Z</time>
      </trkpt>
      <trkpt lat="43.56731" lon="5.65099">
        <ele>657</ele>
        <time>2017-02-19T08:31:55Z</time>
      </trkpt>
      <trkpt lat="43.56735" lon="5.65073">
        <ele>658</ele>
        <time>2017-02-19T08:32:04Z</time>
      </trkpt>
      <trkpt lat="43.56741" lon="5.65047">
        <ele>658</ele>
        <time>2017-02-19T08:32:13Z</time>
      </trkpt>
      <trkpt lat="43.56746" lon="5.65022">
        <ele>659</ele>
        <time>2017-02-19T08:32:22Z</time>
      </trkpt>
      <trkpt lat="43.5675" lon="5.64995">
        <ele>660</ele>
        <time>2017-02-19T08:32:31Z</time>
      </trkpt>
      <trkpt lat="43.56753" lon="5.6497">
        <ele>659</ele>
        <time>2017-02-19T08:32:39Z</time>
      </trkpt>
      <trkpt lat="43.56758" lon="5.64945">
        <ele>659</ele>
        <time>2017-02-19T08:32:47Z</time>
      </trkpt>
      <trkpt lat="43.56763" lon="5.6492">
        <ele>659</ele>
        <time>2017-02-19T08:32:54Z</time>
      </trkpt>
      <trkpt lat="43.56768" lon="5.64896">
        <ele>658</ele>
        <time>2017-02-19T08:33:00Z</time>
      </trkpt>
      <trkpt lat="43.56771" lon="5.64868">
        <ele>657</ele>
        <time>2017-02-19T08:33:06Z</time>
      </trkpt>
      <trkpt lat="43.56775" lon="5.64838">
        <ele>657</ele>
        <time>2017-02-19T08:33:11Z</time>
      </trkpt>
      <trkpt lat="43.56781" lon="5.64813">
        <ele>656</ele>
        <time>2017-02-19T08:33:15Z</time>
      </trkpt>
      <trkpt lat="43.56786" lon="5.64787">
        <ele>656</ele>
        <time>2017-02-19T08:33:19Z</time>
      </trkpt>
      <trkpt lat="43.56792" lon="5.64761">
        <ele>656</ele>
        <time>2017-02-19T08:33:23Z</time>
      </trkpt>
      <trkpt lat="43.56797" lon="5.64733">
        <ele>655</ele>
        <time>2017-02-19T08:33:27Z</time>
      </trkpt>
      <trkpt lat="43.56803" lon="5.64703">
        <ele>655</ele>
        <time>2017-02-19T08:33:31Z</time>
      </trkpt>
      <trkpt lat="43.56808" lon="5.64679">
        <ele>655</ele>
        <time>2017-02-19T08:33:34Z</time>
      </trkpt>
      <trkpt lat="43.56812" lon="5.64654">
        <ele>654</ele>
        <time>2017-02-19T08:33:37Z</time>
      </trkpt>
      <trkpt lat="43.56816" lon="5.64622">
        <ele>654</ele>
        <time>2017-02-19T08:33:41Z</time>
      </trkpt>
      <trkpt lat="43.56821" lon="5.64594">
        <ele>653</ele>
        <time>2017-02-19T08:33:45Z</time>
      </trkpt>
      <trkpt lat="43.56826" lon="5.64569">
        <ele>653</ele>
        <time>2017-02-19T08:33:49Z</time>
      </trkpt>
      <trkpt lat="43.56831" lon="5.64544">
        <ele>653</ele>
        <time>2017-02-19T08:33:54Z</time>
      </trkpt>
      <trkpt lat="43.56817" lon="5.64525">
        <ele>653</ele>
        <time>2017-02-19T08:37:37Z</time>
      </trkpt>
      <trkpt lat="43.56799" lon="5.64518">
        <ele>653</ele>
        <time>2017-02-19T08:37:45Z</time>
      </trkpt>
      <trkpt lat="43.5678" lon="5.64511">
        <ele>654</ele>
        <time>2017-02-19T08:37:54Z</time>
      </trkpt>
      <trkpt lat="43.56762" lon="5.64504">
        <ele>654</ele>
        <time>2017-02-19T08:38:03Z</time>
      </trkpt>
      <trkpt lat="43.56744" lon="5.64498">
        <ele>655</ele>
        <time>2017-02-19T08:38:09Z</time>
      </trkpt>
      <trkpt lat="43.5673" lon="5.6448">
        <ele>655</ele>
        <time>2017-02-19T08:38:17Z</time>
      </trkpt>
      <trkpt lat="43.5673" lon="5.64453">
        <ele>655</ele>
        <time>2017-02-19T08:38:25Z</time>
      </trkpt>
      <trkpt lat="43.56728" lon="5.64426">
        <ele>655</ele>
        <time>2017-02-19T08:38:33Z</time>
      </trkpt>
      <trkpt lat="43.56728" lon="5.64401">
        <ele>656</ele>
        <time>2017-02-19T08:38:39Z</time>
      </trkpt>
      <trkpt lat="43.56729" lon="5.64374">
        <ele>656</ele>
        <time>2017-02-19T08:38:44Z</time>
      </trkpt>
      <trkpt lat="43.5673" lon="5.64347">
        <ele>656</ele>
        <time>2017-02-19T08:38:49Z</time>
      </trkpt>
      <trkpt lat="43.56729" lon="5.64319">
        <ele>657</ele>
        <time>2017-02-19T08:38:54Z</time>
      </trkpt>
      <trkpt lat="43.5672" lon="5.64291">
        <ele>657</ele>
        <time>2017-02-19T08:38:59Z</time>
      </trkpt>
      <trkpt lat="43.56713" lon="5.64266">
        <ele>657</ele>
        <time>2017-02-19T08:39:03Z</time>
      </trkpt>
      <trkpt lat="43.56706" lon="5.64243">
        <ele>658</ele>
        <time>2017-02-19T08:39:07Z</time>
      </trkpt>
      <trkpt lat="43.56699" lon="5.64214">
        <ele>659</ele>
        <time>2017-02-19T08:39:12Z</time>
      </trkpt>
      <trkpt lat="43.56692" lon="5.64187">
        <ele>659</ele>
        <time>2017-02-19T08:39:17Z</time>
      </trkpt>
      <trkpt lat="43.56686" lon="5.64164">
        <ele>659</ele>
        <time>2017-02-19T08:39:21Z</time>
      </trkpt>
      <trkpt lat="43.56675" lon="5.64139">
        <ele>659</ele>
        <time>2017-02-19T08:39:26Z</time>
      </trkpt>
      <trkpt lat="43.56667" lon="5.64116">
        <ele>659</ele>
        <time>2017-02-19T08:39:31Z</time>
      </trkpt>
      <trkpt lat="43.56663" lon="5.64092">
        <ele>659</ele>
        <time>2017-02-19T08:39:37Z</time>
      </trkpt>
      <trkpt lat="43.56661" lon="5.64066">
        <ele>658</ele>
        <time>2017-02-19T08:39:44Z</time>
      </trkpt>
      <trkpt lat="43.56659" lon="5.64039">
        <ele>657</ele>
        <time>2017-02-19T08:39:50Z</time>
      </trkpt>
      <trkpt lat="43.56658" lon="5.64013">
        <ele>657</ele>
        <time>2017-02-19T08:39:55Z</time>
      </trkpt>
      <trkpt lat="43.56657" lon="5.63987">
        <ele>655</ele>
        <time>2017-02-19T08:39:59Z</time>
      </trkpt>
      <trkpt lat="43.56656" lon="5.63957">
        <ele>653</ele>
        <time>2017-02-19T08:40:03Z</time>
      </trkpt>
      <trkpt lat="43.56656" lon="5.63925">
        <ele>652</ele>
        <time>2017-02-19T08:40:07Z</time>
      </trkpt>
      <trkpt lat="43.56656" lon="5.63892">
        <ele>647</ele>
        <time>2017-02-19T08:40:11Z</time>
      </trkpt>
      <trkpt lat="43.56655" lon="5.63865">
        <ele>646</ele>
        <time>2017-02-19T08:40:14Z</time>
      </trkpt>
      <trkpt lat="43.56654" lon="5.63837">
        <ele>645</ele>
        <time>2017-02-19T08:40:17Z</time>
      </trkpt>
      <trkpt lat="43.56655" lon="5.63807">
        <ele>641</ele>
        <time>2017-02-19T08:40:20Z</time>
      </trkpt>
      <trkpt lat="43.56656" lon="5.63776">
        <ele>640</ele>
        <time>2017-02-19T08:40:23Z</time>
      </trkpt>
      <trkpt lat="43.56658" lon="5.63743">
        <ele>640</ele>
        <time>2017-02-19T08:40:26Z</time>
      </trkpt>
      <trkpt lat="43.56661" lon="5.6371">
        <ele>636</ele>
        <time>2017-02-19T08:40:29Z</time>
      </trkpt>
      <trkpt lat="43.56666" lon="5.63676">
        <ele>637</ele>
        <time>2017-02-19T08:40:32Z</time>
      </trkpt>
      <trkpt lat="43.56673" lon="5.63642">
        <ele>638</ele>
        <time>2017-02-19T08:40:35Z</time>
      </trkpt>
      <trkpt lat="43.5668" lon="5.63614">
        <ele>637</ele>
        <time>2017-02-19T08:40:38Z</time>
      </trkpt>
      <trkpt lat="43.56694" lon="5.63596">
        <ele>637</ele>
        <time>2017-02-19T08:40:41Z</time>
      </trkpt>
      <trkpt lat="43.56715" lon="5.63579">
        <ele>634</ele>
        <time>2017-02-19T08:40:45Z</time>
      </trkpt>
      <trkpt lat="43.56733" lon="5.63565">
        <ele>635</ele>
        <time>2017-02-19T08:40:48Z</time>
      </trkpt>
      <trkpt lat="43.56744" lon="5.63543">
        <ele>634</ele>
        <time>2017-02-19T08:40:51Z</time>
      </trkpt>
      <trkpt lat="43.5675" lon="5.63519">
        <ele>634</ele>
        <time>2017-02-19T08:40:54Z</time>
      </trkpt>
      <trkpt lat="43.56757" lon="5.63489">
        <ele>633</ele>
        <time>2017-02-19T08:40:58Z</time>
      </trkpt>
      <trkpt lat="43.56765" lon="5.63459">
        <ele>632</ele>
        <time>2017-02-19T08:41:02Z</time>
      </trkpt>
      <trkpt lat="43.56775" lon="5.63433">
        <ele>631</ele>
        <time>2017-02-19T08:41:06Z</time>
      </trkpt>
      <trkpt lat="43.56781" lon="5.63404">
        <ele>628</ele>
        <time>2017-02-19T08:41:10Z</time>
      </trkpt>
      <trkpt lat="43.56783" lon="5.63371">
        <ele>627</ele>
        <time>2017-02-19T08:41:14Z</time>
      </trkpt>
      <trkpt lat="43.56785" lon="5.63343">
        <ele>626</ele>
        <time>2017-02-19T08:41:17Z</time>
      </trkpt>
      <trkpt lat="43.5679" lon="5.63313">
        <ele>620</ele>
        <time>2017-02-19T08:41:20Z</time>
      </trkpt>
      <trkpt lat="43.56796" lon="5.63287">
        <ele>619</ele>
        <time>2017-02-19T08:41:23Z</time>
      </trkpt>
      <trkpt lat="43.56806" lon="5.63264">
        <ele>618</ele>
        <time>2017-02-19T08:41:26Z</time>
      </trkpt>
      <trkpt lat="43.5682" lon="5.63244">
        <ele>614</ele>
        <time>2017-02-19T08:41:29Z</time>
      </trkpt>
      <trkpt lat="43.5683" lon="5.63215">
        <ele>612</ele>
        <time>2017-02-19T08:41:32Z</time>
      </trkpt>
      <trkpt lat="43.56835" lon="5.63182">
        <ele>613</ele>
        <time>2017-02-19T08:41:35Z</time>
      </trkpt>
      <trkpt lat="43.56842" lon="5.63152">
        <ele>608</ele>
        <time>2017-02-19T08:41:38Z</time>
      </trkpt>
      <trkpt lat="43.56854" lon="5.63122">
        <ele>607</ele>
        <time>2017-02-19T08:41:41Z</time>
      </trkpt>
      <trkpt lat="43.56866" lon="5.63091">
        <ele>605</ele>
        <time>2017-02-19T08:41:44Z</time>
      </trkpt>
      <trkpt lat="43.56875" lon="5.63057">
        <ele>600</ele>
        <time>2017-02-19T08:41:47Z</time>
      </trkpt>
      <trkpt lat="43.56879" lon="5.63033">
        <ele>599</ele>
        <time>2017-02-19T08:41:49Z</time>
      </trkpt>
      <trkpt lat="43.56883" lon="5.63008">
        <ele>598</ele>
        <time>2017-02-19T08:41:51Z</time>
      </trkpt>
      <trkpt lat="43.56887" lon="5.62983">
        <ele>594</ele>
        <time>2017-02-19T08:41:53Z</time>
      </trkpt>
      <trkpt lat="43.5689" lon="5.62958">
        <ele>593</ele>
        <time>2017-02-19T08:41:55Z</time>
      </trkpt>
      <trkpt lat="43.56892" lon="5.62932">
        <ele>592</ele>
        <time>2017-02-19T08:41:57Z</time>
      </trkpt>
      <trkpt lat="43.56894" lon="5.62907">
        <ele>589</ele>
        <time>2017-02-19T08:41:59Z</time>
      </trkpt>
      <trkpt lat="43.56897" lon="5.62882">
        <ele>587</ele>
        <time>2017-02-19T08:42:01Z</time>
      </trkpt>
      <trkpt lat="43.56901" lon="5.62855">
        <ele>586</ele>
        <time>2017-02-19T08:42:03Z</time>
      </trkpt>
      <trkpt lat="43.56905" lon="5.62828">
        <ele>583</ele>
        <time>2017-02-19T08:42:05Z</time>
      </trkpt>
      <trkpt lat="43.56908" lon="5.628">
        <ele>580</ele>
        <time>2017-02-19T08:42:07Z</time>
      </trkpt>
      <trkpt lat="43.5691" lon="5.62772">
        <ele>579</ele>
        <time>2017-02-19T08:42:09Z</time>
      </trkpt>
      <trkpt lat="43.56913" lon="5.62744">
        <ele>578</ele>
        <time>2017-02-19T08:42:11Z</time>
      </trkpt>
      <trkpt lat="43.56914" lon="5.62718">
        <ele>573</ele>
        <time>2017-02-19T08:42:13Z</time>
      </trkpt>
      <trkpt lat="43.56914" lon="5.62691">
        <ele>573</ele>
        <time>2017-02-19T08:42:15Z</time>
      </trkpt>
      <trkpt lat="43.56913" lon="5.62663">
        <ele>577</ele>
        <time>2017-02-19T08:42:17Z</time>
      </trkpt>
      <trkpt lat="43.56911" lon="5.62636">
        <ele>571</ele>
        <time>2017-02-19T08:42:19Z</time>
      </trkpt>
      <trkpt lat="43.56909" lon="5.62609">
        <ele>571</ele>
        <time>2017-02-19T08:42:21Z</time>
      </trkpt>
      <trkpt lat="43.56907" lon="5.62581">
        <ele>574</ele>
        <time>2017-02-19T08:42:23Z</time>
      </trkpt>
      <trkpt lat="43.56908" lon="5.62554">
        <ele>571</ele>
        <time>2017-02-19T08:42:25Z</time>
      </trkpt>
      <trkpt lat="43.56913" lon="5.62529">
        <ele>571</ele>
        <time>2017-02-19T08:42:27Z</time>
      </trkpt>
      <trkpt lat="43.5692" lon="5.62505">
        <ele>575</ele>
        <time>2017-02-19T08:42:29Z</time>
      </trkpt>
      <trkpt lat="43.56931" lon="5.62474">
        <ele>572</ele>
        <time>2017-02-19T08:42:32Z</time>
      </trkpt>
      <trkpt lat="43.56947" lon="5.62459">
        <ele>571</ele>
        <time>2017-02-19T08:42:36Z</time>
      </trkpt>
      <trkpt lat="43.56926" lon="5.62475">
        <ele>572</ele>
        <time>2017-02-19T08:45:41Z</time>
      </trkpt>
      <trkpt lat="43.56942" lon="5.62462">
        <ele>571</ele>
        <time>2017-02-19T08:48:30Z</time>
      </trkpt>
      <trkpt lat="43.5696" lon="5.62466">
        <ele>571</ele>
        <time>2017-02-19T08:48:39Z</time>
      </trkpt>
      <trkpt lat="43.56979" lon="5.62474">
        <ele>571</ele>
        <time>2017-02-19T08:48:47Z</time>
      </trkpt>
      <trkpt lat="43.56997" lon="5.62483">
        <ele>571</ele>
        <time>2017-02-19T08:48:58Z</time>
      </trkpt>
      <trkpt lat="43.57013" lon="5.62499">
        <ele>570</ele>
        <time>2017-02-19T08:49:09Z</time>
      </trkpt>
      <trkpt lat="43.57033" lon="5.62515">
        <ele>571</ele>
        <time>2017-02-19T08:49:15Z</time>
      </trkpt>
      <trkpt lat="43.57051" lon="5.62532">
        <ele>570</ele>
        <time>2017-02-19T08:49:19Z</time>
      </trkpt>
      <trkpt lat="43.57066" lon="5.62552">
        <ele>570</ele>
        <time>2017-02-19T08:49:23Z</time>
      </trkpt>
      <trkpt lat="43.5708" lon="5.62571">
        <ele>570</ele>
        <time>2017-02-19T08:49:27Z</time>
      </trkpt>
      <trkpt lat="43.57093" lon="5.6259">
        <ele>569</ele>
        <time>2017-02-19T08:49:30Z</time>
      </trkpt>
      <trkpt lat="43.57113" lon="5.62607">
        <ele>568</ele>
        <time>2017-02-19T08:49:34Z</time>
      </trkpt>
      <trkpt lat="43.57135" lon="5.62612">
        <ele>567</ele>
        <time>2017-02-19T08:49:38Z</time>
      </trkpt>
      <trkpt lat="43.57153" lon="5.62604">
        <ele>566</ele>
        <time>2017-02-19T08:49:41Z</time>
      </trkpt>
      <trkpt lat="43.57171" lon="5.62598">
        <ele>564</ele>
        <time>2017-02-19T08:49:44Z</time>
      </trkpt>
      <trkpt lat="43.57189" lon="5.62594">
        <ele>564</ele>
        <time>2017-02-19T08:49:48Z</time>
      </trkpt>
      <trkpt lat="43.57208" lon="5.62583">
        <ele>568</ele>
        <time>2017-02-19T08:49:56Z</time>
      </trkpt>
      <trkpt lat="43.57223" lon="5.6257">
        <ele>569</ele>
        <time>2017-02-19T08:50:06Z</time>
      </trkpt>
      <trkpt lat="43.57242" lon="5.62562">
        <ele>569</ele>
        <time>2017-02-19T08:50:17Z</time>
      </trkpt>
      <trkpt lat="43.57248" lon="5.62538">
        <ele>571</ele>
        <time>2017-02-19T08:50:28Z</time>
      </trkpt>
      <trkpt lat="43.57261" lon="5.62521">
        <ele>574</ele>
        <time>2017-02-19T08:50:40Z</time>
      </trkpt>
      <trkpt lat="43.57276" lon="5.62504">
        <ele>575</ele>
        <time>2017-02-19T08:50:52Z</time>
      </trkpt>
      <trkpt lat="43.57286" lon="5.62483">
        <ele>578</ele>
        <time>2017-02-19T08:51:03Z</time>
      </trkpt>
      <trkpt lat="43.57295" lon="5.62461">
        <ele>578</ele>
        <time>2017-02-19T08:51:13Z</time>
      </trkpt>
      <trkpt lat="43.57305" lon="5.62438">
        <ele>578</ele>
        <time>2017-02-19T08:51:24Z</time>
      </trkpt>
      <trkpt lat="43.57317" lon="5.62418">
        <ele>577</ele>
        <time>2017-02-19T08:51:35Z</time>
      </trkpt>
      <trkpt lat="43.57341" lon="5.62433">
        <ele>577</ele>
        <time>2017-02-19T09:47:34Z</time>
      </trkpt>
      <trkpt lat="43.57342" lon="5.6246">
        <ele>577</ele>
        <time>2017-02-19T09:47:42Z</time>
      </trkpt>
      <trkpt lat="43.57347" lon="5.62485">
        <ele>577</ele>
        <time>2017-02-19T09:47:48Z</time>
      </trkpt>
      <trkpt lat="43.57351" lon="5.62513">
        <ele>577</ele>
        <time>2017-02-19T09:47:54Z</time>
      </trkpt>
      <trkpt lat="43.57353" lon="5.62538">
        <ele>578</ele>
        <time>2017-02-19T09:48:00Z</time>
      </trkpt>
      <trkpt lat="43.57355" lon="5.62565">
        <ele>577</ele>
        <time>2017-02-19T09:48:07Z</time>
      </trkpt>
      <trkpt lat="43.57353" lon="5.62592">
        <ele>576</ele>
        <time>2017-02-19T09:48:13Z</time>
      </trkpt>
      <trkpt lat="43.57349" lon="5.62618">
        <ele>576</ele>
        <time>2017-02-19T09:48:19Z</time>
      </trkpt>
      <trkpt lat="43.57348" lon="5.62645">
        <ele>576</ele>
        <time>2017-02-19T09:48:25Z</time>
      </trkpt>
      <trkpt lat="43.57351" lon="5.6267">
        <ele>576</ele>
        <time>2017-02-19T09:48:29Z</time>
      </trkpt>
      <trkpt lat="43.5735" lon="5.62698">
        <ele>577</ele>
        <time>2017-02-19T09:48:33Z</time>
      </trkpt>
      <trkpt lat="43.57333" lon="5.62709">
        <ele>571</ele>
        <time>2017-02-19T09:50:23Z</time>
      </trkpt>
      <trkpt lat="43.57315" lon="5.62711">
        <ele>571</ele>
        <time>2017-02-19T09:50:32Z</time>
      </trkpt>
      <trkpt lat="43.57296" lon="5.6272">
        <ele>570</ele>
        <time>2017-02-19T09:50:40Z</time>
      </trkpt>
      <trkpt lat="43.57281" lon="5.62737">
        <ele>569</ele>
        <time>2017-02-19T09:50:47Z</time>
      </trkpt>
      <trkpt lat="43.57268" lon="5.62755">
        <ele>571</ele>
        <time>2017-02-19T09:50:52Z</time>
      </trkpt>
      <trkpt lat="43.57254" lon="5.62773">
        <ele>571</ele>
        <time>2017-02-19T09:50:57Z</time>
      </trkpt>
      <trkpt lat="43.57244" lon="5.62799">
        <ele>571</ele>
        <time>2017-02-19T09:51:03Z</time>
      </trkpt>
      <trkpt lat="43.57235" lon="5.62824">
        <ele>572</ele>
        <time>2017-02-19T09:51:09Z</time>
      </trkpt>
      <trkpt lat="43.5723" lon="5.62852">
        <ele>575</ele>
        <time>2017-02-19T09:51:16Z</time>
      </trkpt>
      <trkpt lat="43.57226" lon="5.62878">
        <ele>576</ele>
        <time>2017-02-19T09:51:23Z</time>
      </trkpt>
      <trkpt lat="43.57221" lon="5.62903">
        <ele>577</ele>
        <time>2017-02-19T09:51:31Z</time>
      </trkpt>
      <trkpt lat="43.57217" lon="5.62927">
        <ele>580</ele>
        <time>2017-02-19T09:51:39Z</time>
      </trkpt>
      <trkpt lat="43.57215" lon="5.62955">
        <ele>580</ele>
        <time>2017-02-19T09:51:48Z</time>
      </trkpt>
      <trkpt lat="43.57208" lon="5.62978">
        <ele>581</ele>
        <time>2017-02-19T09:51:56Z</time>
      </trkpt>
      <trkpt lat="43.57203" lon="5.63003">
        <ele>582</ele>
        <time>2017-02-19T09:52:04Z</time>
      </trkpt>
      <trkpt lat="43.57198" lon="5.63028">
        <ele>582</ele>
        <time>2017-02-19T09:52:11Z</time>
      </trkpt>
      <trkpt lat="43.57194" lon="5.63054">
        <ele>583</ele>
        <time>2017-02-19T09:52:19Z</time>
      </trkpt>
      <trkpt lat="43.57192" lon="5.6308">
        <ele>582</ele>
        <time>2017-02-19T09:52:27Z</time>
      </trkpt>
      <trkpt lat="43.57185" lon="5.63105">
        <ele>584</ele>
        <time>2017-02-19T09:52:37Z</time>
      </trkpt>
      <trkpt lat="43.57181" lon="5.63131">
        <ele>585</ele>
        <time>2017-02-19T09:52:47Z</time>
      </trkpt>
      <trkpt lat="43.57175" lon="5.63156">
        <ele>584</ele>
        <time>2017-02-19T09:52:58Z</time>
      </trkpt>
      <trkpt lat="43.57174" lon="5.63182">
        <ele>586</ele>
        <time>2017-02-19T09:53:21Z</time>
      </trkpt>
      <trkpt lat="43.57172" lon="5.63209">
        <ele>587</ele>
        <time>2017-02-19T09:53:32Z</time>
      </trkpt>
      <trkpt lat="43.57169" lon="5.63235">
        <ele>587</ele>
        <time>2017-02-19T09:53:42Z</time>
      </trkpt>
      <trkpt lat="43.57167" lon="5.63262">
        <ele>587</ele>
        <time>2017-02-19T09:53:53Z</time>
      </trkpt>
      <trkpt lat="43.57169" lon="5.63288">
        <ele>590</ele>
        <time>2017-02-19T09:54:03Z</time>
      </trkpt>
      <trkpt lat="43.57167" lon="5.63314">
        <ele>590</ele>
        <time>2017-02-19T09:54:14Z</time>
      </trkpt>
      <trkpt lat="43.57167" lon="5.63339">
        <ele>589</ele>
        <time>2017-02-19T09:54:24Z</time>
      </trkpt>
      <trkpt lat="43.57167" lon="5.63366">
        <ele>595</ele>
        <time>2017-02-19T09:54:35Z</time>
      </trkpt>
      <trkpt lat="43.57167" lon="5.63392">
        <ele>594</ele>
        <time>2017-02-19T09:54:45Z</time>
      </trkpt>
      <trkpt lat="43.57167" lon="5.63418">
        <ele>594</ele>
        <time>2017-02-19T09:54:56Z</time>
      </trkpt>
      <trkpt lat="43.57166" lon="5.63445">
        <ele>599</ele>
        <time>2017-02-19T09:55:07Z</time>
      </trkpt>
      <trkpt lat="43.57165" lon="5.6347">
        <ele>599</ele>
        <time>2017-02-19T09:55:18Z</time>
      </trkpt>
      <trkpt lat="43.57168" lon="5.63496">
        <ele>595</ele>
        <time>2017-02-19T09:55:30Z</time>
      </trkpt>
      <trkpt lat="43.57169" lon="5.63522">
        <ele>597</ele>
        <time>2017-02-19T09:55:41Z</time>
      </trkpt>
      <trkpt lat="43.57169" lon="5.63547">
        <ele>598</ele>
        <time>2017-02-19T09:55:52Z</time>
      </trkpt>
      <trkpt lat="43.57173" lon="5.63573">
        <ele>600</ele>
        <time>2017-02-19T09:56:04Z</time>
      </trkpt>
      <trkpt lat="43.57183" lon="5.63594">
        <ele>600</ele>
        <time>2017-02-19T09:56:16Z</time>
      </trkpt>
      <trkpt lat="43.57191" lon="5.63618">
        <ele>600</ele>
        <time>2017-02-19T10:01:19Z</time>
      </trkpt>
      <trkpt lat="43.57188" lon="5.63643">
        <ele>601</ele>
        <time>2017-02-19T10:01:30Z</time>
      </trkpt>
      <trkpt lat="43.57184" lon="5.63669">
        <ele>602</ele>
        <time>2017-02-19T10:01:41Z</time>
      </trkpt>
      <trkpt lat="43.57174" lon="5.63691">
        <ele>601</ele>
        <time>2017-02-19T10:01:50Z</time>
      </trkpt>
      <trkpt lat="43.57163" lon="5.63712">
        <ele>613</ele>
        <time>2017-02-19T10:02:04Z</time>
      </trkpt>
      <trkpt lat="43.57156" lon="5.63736">
        <ele>612</ele>
        <time>2017-02-19T10:02:21Z</time>
      </trkpt>
      <trkpt lat="43.57154" lon="5.63762">
        <ele>613</ele>
        <time>2017-02-19T10:02:29Z</time>
      </trkpt>
      <trkpt lat="43.57155" lon="5.6379">
        <ele>615</ele>
        <time>2017-02-19T10:02:38Z</time>
      </trkpt>
      <trkpt lat="43.57156" lon="5.63816">
        <ele>613</ele>
        <time>2017-02-19T10:02:47Z</time>
      </trkpt>
      <trkpt lat="43.57156" lon="5.63844">
        <ele>613</ele>
        <time>2017-02-19T10:02:56Z</time>
      </trkpt>
      <trkpt lat="43.57155" lon="5.63871">
        <ele>616</ele>
        <time>2017-02-19T10:03:05Z</time>
      </trkpt>
      <trkpt lat="43.57156" lon="5.63896">
        <ele>615</ele>
        <time>2017-02-19T10:03:12Z</time>
      </trkpt>
      <trkpt lat="43.57157" lon="5.63922">
        <ele>611</ele>
        <time>2017-02-19T10:03:18Z</time>
      </trkpt>
      <trkpt lat="43.57158" lon="5.6395">
        <ele>614</ele>
        <time>2017-02-19T10:03:22Z</time>
      </trkpt>
      <trkpt lat="43.57156" lon="5.63976">
        <ele>612</ele>
        <time>2017-02-19T10:03:25Z</time>
      </trkpt>
      <trkpt lat="43.57151" lon="5.64003">
        <ele>607</ele>
        <time>2017-02-19T10:03:28Z</time>
      </trkpt>
      <trkpt lat="43.57145" lon="5.64031">
        <ele>609</ele>
        <time>2017-02-19T10:03:31Z</time>
      </trkpt>
      <trkpt lat="43.5714" lon="5.64061">
        <ele>609</ele>
        <time>2017-02-19T10:03:34Z</time>
      </trkpt>
      <trkpt lat="43.57136" lon="5.64091">
        <ele>606</ele>
        <time>2017-02-19T10:03:37Z</time>
      </trkpt>
      <trkpt lat="43.57132" lon="5.6412">
        <ele>607</ele>
        <time>2017-02-19T10:03:40Z</time>
      </trkpt>
      <trkpt lat="43.5713" lon="5.64151">
        <ele>606</ele>
        <time>2017-02-19T10:03:43Z</time>
      </trkpt>
      <trkpt lat="43.57128" lon="5.64183">
        <ele>603</ele>
        <time>2017-02-19T10:03:46Z</time>
      </trkpt>
      <trkpt lat="43.5713" lon="5.64216">
        <ele>602</ele>
        <time>2017-02-19T10:03:49Z</time>
      </trkpt>
      <trkpt lat="43.57134" lon="5.64249">
        <ele>600</ele>
        <time>2017-02-19T10:03:52Z</time>
      </trkpt>
      <trkpt lat="43.57137" lon="5.64285">
        <ele>597</ele>
        <time>2017-02-19T10:03:55Z</time>
      </trkpt>
      <trkpt lat="43.57137" lon="5.64321">
        <ele>595</ele>
        <time>2017-02-19T10:03:58Z</time>
      </trkpt>
      <trkpt lat="43.57135" lon="5.64357">
        <ele>594</ele>
        <time>2017-02-19T10:04:01Z</time>
      </trkpt>
      <trkpt lat="43.57134" lon="5.64391">
        <ele>594</ele>
        <time>2017-02-19T10:04:04Z</time>
      </trkpt>
      <trkpt lat="43.57133" lon="5.64429">
        <ele>592</ele>
        <time>2017-02-19T10:04:07Z</time>
      </trkpt>
      <trkpt lat="43.57131" lon="5.64454">
        <ele>592</ele>
        <time>2017-02-19T10:04:09Z</time>
      </trkpt>
      <trkpt lat="43.57128" lon="5.64479">
        <ele>592</ele>
        <time>2017-02-19T10:04:11Z</time>
      </trkpt>
      <trkpt lat="43.57119" lon="5.64513">
        <ele>590</ele>
        <time>2017-02-19T10:04:14Z</time>
      </trkpt>
      <trkpt lat="43.57113" lon="5.64536">
        <ele>589</ele>
        <time>2017-02-19T10:04:16Z</time>
      </trkpt>
      <trkpt lat="43.57108" lon="5.64562">
        <ele>589</ele>
        <time>2017-02-19T10:04:18Z</time>
      </trkpt>
      <trkpt lat="43.57104" lon="5.6459">
        <ele>588</ele>
        <time>2017-02-19T10:04:20Z</time>
      </trkpt>
      <trkpt lat="43.57106" lon="5.64617">
        <ele>587</ele>
        <time>2017-02-19T10:04:22Z</time>
      </trkpt>
      <trkpt lat="43.57124" lon="5.64638">
        <ele>586</ele>
        <time>2017-02-19T10:04:25Z</time>
      </trkpt>
      <trkpt lat="43.57143" lon="5.64651">
        <ele>584</ele>
        <time>2017-02-19T10:04:29Z</time>
      </trkpt>
      <trkpt lat="43.57148" lon="5.64677">
        <ele>585</ele>
        <time>2017-02-19T10:04:33Z</time>
      </trkpt>
      <trkpt lat="43.5715" lon="5.64706">
        <ele>587</ele>
        <time>2017-02-19T10:04:37Z</time>
      </trkpt>
      <trkpt lat="43.5715" lon="5.64739">
        <ele>586</ele>
        <time>2017-02-19T10:04:41Z</time>
      </trkpt>
      <trkpt lat="43.57145" lon="5.64769">
        <ele>586</ele>
        <time>2017-02-19T10:04:45Z</time>
      </trkpt>
      <trkpt lat="43.57134" lon="5.64797">
        <ele>587</ele>
        <time>2017-02-19T10:04:49Z</time>
      </trkpt>
      <trkpt lat="43.57123" lon="5.6482">
        <ele>587</ele>
        <time>2017-02-19T10:04:52Z</time>
      </trkpt>
      <trkpt lat="43.5711" lon="5.64846">
        <ele>584</ele>
        <time>2017-02-19T10:04:55Z</time>
      </trkpt>
      <trkpt lat="43.57104" lon="5.64877">
        <ele>582</ele>
        <time>2017-02-19T10:04:58Z</time>
      </trkpt>
      <trkpt lat="43.57105" lon="5.64914">
        <ele>580</ele>
        <time>2017-02-19T10:05:01Z</time>
      </trkpt>
      <trkpt lat="43.57107" lon="5.64941">
        <ele>574</ele>
        <time>2017-02-19T10:05:03Z</time>
      </trkpt>
      <trkpt lat="43.57108" lon="5.64968">
        <ele>571</ele>
        <time>2017-02-19T10:05:05Z</time>
      </trkpt>
      <trkpt lat="43.5711" lon="5.64993">
        <ele>570</ele>
        <time>2017-02-19T10:05:07Z</time>
      </trkpt>
      <trkpt lat="43.57113" lon="5.65027">
        <ele>566</ele>
        <time>2017-02-19T10:05:10Z</time>
      </trkpt>
      <trkpt lat="43.57111" lon="5.65061">
        <ele>566</ele>
        <time>2017-02-19T10:05:13Z</time>
      </trkpt>
      <trkpt lat="43.57106" lon="5.65095">
        <ele>564</ele>
        <time>2017-02-19T10:05:16Z</time>
      </trkpt>
      <trkpt lat="43.57105" lon="5.65131">
        <ele>563</ele>
        <time>2017-02-19T10:05:19Z</time>
      </trkpt>
      <trkpt lat="43.57106" lon="5.65156">
        <ele>563</ele>
        <time>2017-02-19T10:05:21Z</time>
      </trkpt>
      <trkpt lat="43.57108" lon="5.65182">
        <ele>560</ele>
        <time>2017-02-19T10:05:23Z</time>
      </trkpt>
      <trkpt lat="43.5711" lon="5.65207">
        <ele>559</ele>
        <time>2017-02-19T10:05:25Z</time>
      </trkpt>
      <trkpt lat="43.57111" lon="5.65233">
        <ele>558</ele>
        <time>2017-02-19T10:05:27Z</time>
      </trkpt>
      <trkpt lat="43.57113" lon="5.6526">
        <ele>556</ele>
        <time>2017-02-19T10:05:29Z</time>
      </trkpt>
      <trkpt lat="43.57115" lon="5.65287">
        <ele>556</ele>
        <time>2017-02-19T10:05:31Z</time>
      </trkpt>
      <trkpt lat="43.57117" lon="5.65313">
        <ele>556</ele>
        <time>2017-02-19T10:05:33Z</time>
      </trkpt>
      <trkpt lat="43.57117" lon="5.65339">
        <ele>554</ele>
        <time>2017-02-19T10:05:35Z</time>
      </trkpt>
      <trkpt lat="43.57116" lon="5.65365">
        <ele>553</ele>
        <time>2017-02-19T10:05:37Z</time>
      </trkpt>
      <trkpt lat="43.57116" lon="5.65402">
        <ele>553</ele>
        <time>2017-02-19T10:05:40Z</time>
      </trkpt>
      <trkpt lat="43.57116" lon="5.65438">
        <ele>551</ele>
        <time>2017-02-19T10:05:43Z</time>
      </trkpt>
      <trkpt lat="43.57116" lon="5.65474">
        <ele>551</ele>
        <time>2017-02-19T10:05:46Z</time>
      </trkpt>
      <trkpt lat="43.57116" lon="5.655">
        <ele>551</ele>
        <time>2017-02-19T10:05:48Z</time>
      </trkpt>
      <trkpt lat="43.57116" lon="5.65526">
        <ele>550</ele>
        <time>2017-02-19T10:05:50Z</time>
      </trkpt>
      <trkpt lat="43.57116" lon="5.65552">
        <ele>550</ele>
        <time>2017-02-19T10:05:52Z</time>
      </trkpt>
      <trkpt lat="43.57116" lon="5.65579">
        <ele>550</ele>
        <time>2017-02-19T10:05:54Z</time>
      </trkpt>
      <trkpt lat="43.57115" lon="5.65604">
        <ele>548</ele>
        <time>2017-02-19T10:05:56Z</time>
      </trkpt>
      <trkpt lat="43.57113" lon="5.65638">
        <ele>547</ele>
        <time>2017-02-19T10:05:59Z</time>
      </trkpt>
      <trkpt lat="43.57113" lon="5.65669">
        <ele>546</ele>
        <time>2017-02-19T10:06:02Z</time>
      </trkpt>
      <trkpt lat="43.57114" lon="5.65701">
        <ele>546</ele>
        <time>2017-02-19T10:06:05Z</time>
      </trkpt>
      <trkpt lat="43.57115" lon="5.65733">
        <ele>546</ele>
        <time>2017-02-19T10:06:08Z</time>
      </trkpt>
      <trkpt lat="43.57116" lon="5.65764">
        <ele>543</ele>
        <time>2017-02-19T10:06:11Z</time>
      </trkpt>
      <trkpt lat="43.57118" lon="5.65795">
        <ele>542</ele>
        <time>2017-02-19T10:06:14Z</time>
      </trkpt>
      <trkpt lat="43.5712" lon="5.6583">
        <ele>542</ele>
        <time>2017-02-19T10:06:17Z</time>
      </trkpt>
      <trkpt lat="43.57117" lon="5.65865">
        <ele>539</ele>
        <time>2017-02-19T10:06:20Z</time>
      </trkpt>
      <trkpt lat="43.57109" lon="5.65897">
        <ele>539</ele>
        <time>2017-02-19T10:06:23Z</time>
      </trkpt>
      <trkpt lat="43.57101" lon="5.65925">
        <ele>537</ele>
        <time>2017-02-19T10:06:26Z</time>
      </trkpt>
      <trkpt lat="43.57093" lon="5.65949">
        <ele>535</ele>
        <time>2017-02-19T10:06:29Z</time>
      </trkpt>
      <trkpt lat="43.57083" lon="5.65979">
        <ele>541</ele>
        <time>2017-02-19T10:06:33Z</time>
      </trkpt>
      <trkpt lat="43.57076" lon="5.66006">
        <ele>535</ele>
        <time>2017-02-19T10:06:37Z</time>
      </trkpt>
      <trkpt lat="43.57069" lon="5.6603">
        <ele>538</ele>
        <time>2017-02-19T10:06:40Z</time>
      </trkpt>
      <trkpt lat="43.57061" lon="5.66056">
        <ele>538</ele>
        <time>2017-02-19T10:06:43Z</time>
      </trkpt>
      <trkpt lat="43.57054" lon="5.6608">
        <ele>537</ele>
        <time>2017-02-19T10:06:46Z</time>
      </trkpt>
      <trkpt lat="43.57042" lon="5.66105">
        <ele>533</ele>
        <time>2017-02-19T10:06:50Z</time>
      </trkpt>
      <trkpt lat="43.57024" lon="5.6612">
        <ele>534</ele>
        <time>2017-02-19T10:06:55Z</time>
      </trkpt>
      <trkpt lat="43.57008" lon="5.66132">
        <ele>534</ele>
        <time>2017-02-19T10:06:59Z</time>
      </trkpt>
      <trkpt lat="43.5699" lon="5.6615">
        <ele>542</ele>
        <time>2017-02-19T10:07:04Z</time>
      </trkpt>
      <trkpt lat="43.56974" lon="5.66165">
        <ele>543</ele>
        <time>2017-02-19T10:07:09Z</time>
      </trkpt>
      <trkpt lat="43.56959" lon="5.66178">
        <ele>536</ele>
        <time>2017-02-19T10:07:14Z</time>
      </trkpt>
      <trkpt lat="43.56942" lon="5.66194">
        <ele>536</ele>
        <time>2017-02-19T10:07:19Z</time>
      </trkpt>
      <trkpt lat="43.56926" lon="5.66206">
        <ele>536</ele>
        <time>2017-02-19T10:07:23Z</time>
      </trkpt>
      <trkpt lat="43.56908" lon="5.66226">
        <ele>540</ele>
        <time>2017-02-19T10:07:27Z</time>
      </trkpt>
      <trkpt lat="43.569" lon="5.66251">
        <ele>536</ele>
        <time>2017-02-19T10:07:30Z</time>
      </trkpt>
      <trkpt lat="43.56897" lon="5.66284">
        <ele>538</ele>
        <time>2017-02-19T10:07:34Z</time>
      </trkpt>
      <trkpt lat="43.5689" lon="5.66307">
        <ele>538</ele>
        <time>2017-02-19T10:07:39Z</time>
      </trkpt>
      <trkpt lat="43.5688" lon="5.6633">
        <ele>540</ele>
        <time>2017-02-19T10:07:48Z</time>
      </trkpt>
      <trkpt lat="43.56869" lon="5.66351">
        <ele>540</ele>
        <time>2017-02-19T10:07:55Z</time>
      </trkpt>
      <trkpt lat="43.56859" lon="5.66374">
        <ele>541</ele>
        <time>2017-02-19T10:08:02Z</time>
      </trkpt>
      <trkpt lat="43.56849" lon="5.66395">
        <ele>541</ele>
        <time>2017-02-19T10:08:09Z</time>
      </trkpt>
      <trkpt lat="43.56837" lon="5.66418">
        <ele>543</ele>
        <time>2017-02-19T10:08:17Z</time>
      </trkpt>
      <trkpt lat="43.56826" lon="5.66439">
        <ele>550</ele>
        <time>2017-02-19T10:08:25Z</time>
      </trkpt>
      <trkpt lat="43.56816" lon="5.66462">
        <ele>551</ele>
        <time>2017-02-19T10:08:36Z</time>
      </trkpt>
      <trkpt lat="43.56803" lon="5.66482">
        <ele>552</ele>
        <time>2017-02-19T10:08:48Z</time>
      </trkpt>
      <trkpt lat="43.56788" lon="5.66498">
        <ele>554</ele>
        <time>2017-02-19T10:09:01Z</time>
      </trkpt>
      <trkpt lat="43.56773" lon="5.66513">
        <ele>555</ele>
        <time>2017-02-19T10:09:13Z</time>
      </trkpt>
      <trkpt lat="43.56756" lon="5.66526">
        <ele>556</ele>
        <time>2017-02-19T10:09:27Z</time>
      </trkpt>
      <trkpt lat="43.56739" lon="5.66536">
        <ele>563</ele>
        <time>2017-02-19T10:09:41Z</time>
      </trkpt>
      <trkpt lat="43.56723" lon="5.66546">
        <ele>563</ele>
        <time>2017-02-19T10:09:53Z</time>
      </trkpt>
      <trkpt lat="43.56705" lon="5.66557">
        <ele>564</ele>
        <time>2017-02-19T10:10:07Z</time>
      </trkpt>
      <trkpt lat="43.56687" lon="5.66562">
        <ele>564</ele>
        <time>2017-02-19T10:13:13Z</time>
      </trkpt>
      <trkpt lat="43.5667" lon="5.6658">
        <ele>562</ele>
        <time>2017-02-19T10:13:20Z</time>
      </trkpt>
      <trkpt lat="43.56656" lon="5.66601">
        <ele>560</ele>
        <time>2017-02-19T10:13:24Z</time>
      </trkpt>
      <trkpt lat="43.56643" lon="5.66618">
        <ele>559</ele>
        <time>2017-02-19T10:13:27Z</time>
      </trkpt>
      <trkpt lat="43.56627" lon="5.6663">
        <ele>558</ele>
        <time>2017-02-19T10:13:30Z</time>
      </trkpt>
      <trkpt lat="43.56608" lon="5.66645">
        <ele>557</ele>
        <time>2017-02-19T10:13:34Z</time>
      </trkpt>
      <trkpt lat="43.56592" lon="5.66659">
        <ele>556</ele>
        <time>2017-02-19T10:13:38Z</time>
      </trkpt>
      <trkpt lat="43.56578" lon="5.66677">
        <ele>560</ele>
        <time>2017-02-19T10:13:46Z</time>
      </trkpt>
      <trkpt lat="43.56565" lon="5.66697">
        <ele>564</ele>
        <time>2017-02-19T10:13:56Z</time>
      </trkpt>
      <trkpt lat="43.56554" lon="5.66718">
        <ele>566</ele>
        <time>2017-02-19T10:14:07Z</time>
      </trkpt>
      <trkpt lat="43.56553" lon="5.66743">
        <ele>566</ele>
        <time>2017-02-19T10:14:19Z</time>
      </trkpt>
      <trkpt lat="43.56554" lon="5.66769">
        <ele>567</ele>
        <time>2017-02-19T10:14:29Z</time>
      </trkpt>
      <trkpt lat="43.56552" lon="5.66794">
        <ele>568</ele>
        <time>2017-02-19T10:14:39Z</time>
      </trkpt>
      <trkpt lat="43.56552" lon="5.6682">
        <ele>567</ele>
        <time>2017-02-19T10:14:49Z</time>
      </trkpt>
      <trkpt lat="43.56552" lon="5.66847">
        <ele>569</ele>
        <time>2017-02-19T10:14:58Z</time>
      </trkpt>
      <trkpt lat="43.56552" lon="5.66872">
        <ele>570</ele>
        <time>2017-02-19T10:15:07Z</time>
      </trkpt>
      <trkpt lat="43.56554" lon="5.66898">
        <ele>570</ele>
        <time>2017-02-19T10:15:16Z</time>
      </trkpt>
      <trkpt lat="43.56555" lon="5.66924">
        <ele>572</ele>
        <time>2017-02-19T10:15:25Z</time>
      </trkpt>
      <trkpt lat="43.56555" lon="5.66951">
        <ele>573</ele>
        <time>2017-02-19T10:15:34Z</time>
      </trkpt>
      <trkpt lat="43.56557" lon="5.66978">
        <ele>573</ele>
        <time>2017-02-19T10:15:40Z</time>
      </trkpt>
      <trkpt lat="43.56561" lon="5.67004">
        <ele>575</ele>
        <time>2017-02-19T10:15:46Z</time>
      </trkpt>
      <trkpt lat="43.56568" lon="5.67029">
        <ele>576</ele>
        <time>2017-02-19T10:15:51Z</time>
      </trkpt>
      <trkpt lat="43.56575" lon="5.67053">
        <ele>577</ele>
        <time>2017-02-19T10:15:56Z</time>
      </trkpt>
      <trkpt lat="43.56582" lon="5.6708">
        <ele>572</ele>
        <time>2017-02-19T10:16:02Z</time>
      </trkpt>
      <trkpt lat="43.56588" lon="5.67105">
        <ele>574</ele>
        <time>2017-02-19T10:16:09Z</time>
      </trkpt>
      <trkpt lat="43.56592" lon="5.6713">
        <ele>576</ele>
        <time>2017-02-19T10:16:19Z</time>
      </trkpt>
      <trkpt lat="43.56597" lon="5.67156">
        <ele>578</ele>
        <time>2017-02-19T10:16:30Z</time>
      </trkpt>
      <trkpt lat="43.56605" lon="5.6718">
        <ele>582</ele>
        <time>2017-02-19T10:16:41Z</time>
      </trkpt>
      <trkpt lat="43.56613" lon="5.67203">
        <ele>584</ele>
        <time>2017-02-19T10:16:53Z</time>
      </trkpt>
      <trkpt lat="43.56622" lon="5.67226">
        <ele>585</ele>
        <time>2017-02-19T10:17:06Z</time>
      </trkpt>
      <trkpt lat="43.56628" lon="5.6725">
        <ele>590</ele>
        <time>2017-02-19T10:17:19Z</time>
      </trkpt>
      <trkpt lat="43.56636" lon="5.67274">
        <ele>590</ele>
        <time>2017-02-19T10:17:33Z</time>
      </trkpt>
      <trkpt lat="43.56639" lon="5.67299">
        <ele>591</ele>
        <time>2017-02-19T10:17:59Z</time>
      </trkpt>
      <trkpt lat="43.56622" lon="5.67306">
        <ele>593</ele>
        <time>2017-02-19T10:18:38Z</time>
      </trkpt>
      <trkpt lat="43.56606" lon="5.67291">
        <ele>594</ele>
        <time>2017-02-19T10:21:20Z</time>
      </trkpt>
      <trkpt lat="43.56591" lon="5.67278">
        <ele>594</ele>
        <time>2017-02-19T10:21:31Z</time>
      </trkpt>
      <trkpt lat="43.56576" lon="5.67261">
        <ele>599</ele>
        <time>2017-02-19T10:21:44Z</time>
      </trkpt>
      <trkpt lat="43.56562" lon="5.67241">
        <ele>596</ele>
        <time>2017-02-19T10:21:56Z</time>
      </trkpt>
      <trkpt lat="43.56551" lon="5.67221">
        <ele>597</ele>
        <time>2017-02-19T10:22:07Z</time>
      </trkpt>
      <trkpt lat="43.56537" lon="5.67202">
        <ele>598</ele>
        <time>2017-02-19T10:22:21Z</time>
      </trkpt>
      <trkpt lat="43.56525" lon="5.67183">
        <ele>599</ele>
        <time>2017-02-19T10:22:33Z</time>
      </trkpt>
      <trkpt lat="43.56515" lon="5.67161">
        <ele>597</ele>
        <time>2017-02-19T10:22:45Z</time>
      </trkpt>
      <trkpt lat="43.56502" lon="5.67142">
        <ele>595</ele>
        <time>2017-02-19T10:22:55Z</time>
      </trkpt>
      <trkpt lat="43.56491" lon="5.6712">
        <ele>605</ele>
        <time>2017-02-19T10:23:04Z</time>
      </trkpt>
      <trkpt lat="43.56479" lon="5.671">
        <ele>604</ele>
        <time>2017-02-19T10:23:12Z</time>
      </trkpt>
      <trkpt lat="43.56466" lon="5.67079">
        <ele>604</ele>
        <time>2017-02-19T10:23:21Z</time>
      </trkpt>
      <trkpt lat="43.56456" lon="5.67058">
        <ele>605</ele>
        <time>2017-02-19T10:23:29Z</time>
      </trkpt>
      <trkpt lat="43.56446" lon="5.67037">
        <ele>606</ele>
        <time>2017-02-19T10:23:38Z</time>
      </trkpt>
      <trkpt lat="43.56427" lon="5.67036">
        <ele>608</ele>
        <time>2017-02-19T10:23:47Z</time>
      </trkpt>
      <trkpt lat="43.56408" lon="5.67038">
        <ele>613</ele>
        <time>2017-02-19T10:23:56Z</time>
      </trkpt>
      <trkpt lat="43.56388" lon="5.67042">
        <ele>613</ele>
        <time>2017-02-19T10:24:04Z</time>
      </trkpt>
      <trkpt lat="43.56368" lon="5.67048">
        <ele>613</ele>
        <time>2017-02-19T10:24:10Z</time>
      </trkpt>
      <trkpt lat="43.56349" lon="5.67051">
        <ele>612</ele>
        <time>2017-02-19T10:24:15Z</time>
      </trkpt>
      <trkpt lat="43.56325" lon="5.67049">
        <ele>609</ele>
        <time>2017-02-19T10:24:19Z</time>
      </trkpt>
      <trkpt lat="43.56303" lon="5.67038">
        <ele>609</ele>
        <time>2017-02-19T10:24:23Z</time>
      </trkpt>
      <trkpt lat="43.56287" lon="5.67016">
        <ele>609</ele>
        <time>2017-02-19T10:24:27Z</time>
      </trkpt>
      <trkpt lat="43.5627" lon="5.66995">
        <ele>611</ele>
        <time>2017-02-19T10:24:31Z</time>
      </trkpt>
      <trkpt lat="43.56261" lon="5.66966">
        <ele>612</ele>
        <time>2017-02-19T10:24:35Z</time>
      </trkpt>
      <trkpt lat="43.56244" lon="5.66948">
        <ele>611</ele>
        <time>2017-02-19T10:24:39Z</time>
      </trkpt>
      <trkpt lat="43.56222" lon="5.66941">
        <ele>611</ele>
        <time>2017-02-19T10:24:44Z</time>
      </trkpt>
      <trkpt lat="43.56204" lon="5.66952">
        <ele>610</ele>
        <time>2017-02-19T10:24:49Z</time>
      </trkpt>
      <trkpt lat="43.56198" lon="5.66978">
        <ele>610</ele>
        <time>2017-02-19T10:24:55Z</time>
      </trkpt>
      <trkpt lat="43.56184" lon="5.66998">
        <ele>609</ele>
        <time>2017-02-19T10:25:00Z</time>
      </trkpt>
      <trkpt lat="43.56171" lon="5.67021">
        <ele>607</ele>
        <time>2017-02-19T10:25:05Z</time>
      </trkpt>
      <trkpt lat="43.56158" lon="5.67041">
        <ele>605</ele>
        <time>2017-02-19T10:25:09Z</time>
      </trkpt>
      <trkpt lat="43.56146" lon="5.6706">
        <ele>605</ele>
        <time>2017-02-19T10:25:13Z</time>
      </trkpt>
      <trkpt lat="43.56134" lon="5.6708">
        <ele>604</ele>
        <time>2017-02-19T10:25:17Z</time>
      </trkpt>
      <trkpt lat="43.56119" lon="5.67096">
        <ele>601</ele>
        <time>2017-02-19T10:25:21Z</time>
      </trkpt>
      <trkpt lat="43.56109" lon="5.67118">
        <ele>601</ele>
        <time>2017-02-19T10:25:25Z</time>
      </trkpt>
      <trkpt lat="43.56104" lon="5.67147">
        <ele>600</ele>
        <time>2017-02-19T10:25:29Z</time>
      </trkpt>
      <trkpt lat="43.56096" lon="5.67178">
        <ele>599</ele>
        <time>2017-02-19T10:25:33Z</time>
      </trkpt>
      <trkpt lat="43.56087" lon="5.67201">
        <ele>599</ele>
        <time>2017-02-19T10:25:36Z</time>
      </trkpt>
      <trkpt lat="43.56075" lon="5.67226">
        <ele>594</ele>
        <time>2017-02-19T10:25:39Z</time>
      </trkpt>
      <trkpt lat="43.56067" lon="5.67258">
        <ele>594</ele>
        <time>2017-02-19T10:25:42Z</time>
      </trkpt>
      <trkpt lat="43.56062" lon="5.67291">
        <ele>592</ele>
        <time>2017-02-19T10:25:45Z</time>
      </trkpt>
      <trkpt lat="43.56059" lon="5.67325">
        <ele>592</ele>
        <time>2017-02-19T10:25:48Z</time>
      </trkpt>
      <trkpt lat="43.56059" lon="5.67355">
        <ele>592</ele>
        <time>2017-02-19T10:25:51Z</time>
      </trkpt>
      <trkpt lat="43.56041" lon="5.67357">
        <ele>590</ele>
        <time>2017-02-19T10:25:56Z</time>
      </trkpt>
      <trkpt lat="43.56029" lon="5.6733">
        <ele>590</ele>
        <time>2017-02-19T10:26:00Z</time>
      </trkpt>
      <trkpt lat="43.56017" lon="5.67308">
        <ele>589</ele>
        <time>2017-02-19T10:26:03Z</time>
      </trkpt>
      <trkpt lat="43.56006" lon="5.67286">
        <ele>589</ele>
        <time>2017-02-19T10:26:06Z</time>
      </trkpt>
      <trkpt lat="43.55984" lon="5.67292">
        <ele>585</ele>
        <time>2017-02-19T10:26:11Z</time>
      </trkpt>
      <trkpt lat="43.55966" lon="5.67309">
        <ele>585</ele>
        <time>2017-02-19T10:26:15Z</time>
      </trkpt>
      <trkpt lat="43.55948" lon="5.67326">
        <ele>585</ele>
        <time>2017-02-19T10:26:20Z</time>
      </trkpt>
      <trkpt lat="43.55931" lon="5.67345">
        <ele>586</ele>
        <time>2017-02-19T10:26:24Z</time>
      </trkpt>
      <trkpt lat="43.55911" lon="5.67357">
        <ele>588</ele>
        <time>2017-02-19T10:26:28Z</time>
      </trkpt>
      <trkpt lat="43.55894" lon="5.6737">
        <ele>589</ele>
        <time>2017-02-19T10:26:33Z</time>
      </trkpt>
      <trkpt lat="43.55886" lon="5.67398">
        <ele>589</ele>
        <time>2017-02-19T10:26:38Z</time>
      </trkpt>
      <trkpt lat="43.55882" lon="5.67426">
        <ele>590</ele>
        <time>2017-02-19T10:26:45Z</time>
      </trkpt>
      <trkpt lat="43.55867" lon="5.67442">
        <ele>591</ele>
        <time>2017-02-19T10:26:54Z</time>
      </trkpt>
      <trkpt lat="43.55849" lon="5.67448">
        <ele>592</ele>
        <time>2017-02-19T10:27:02Z</time>
      </trkpt>
      <trkpt lat="43.5583" lon="5.6746">
        <ele>595</ele>
        <time>2017-02-19T10:27:10Z</time>
      </trkpt>
      <trkpt lat="43.55811" lon="5.67469">
        <ele>595</ele>
        <time>2017-02-19T10:27:18Z</time>
      </trkpt>
      <trkpt lat="43.55794" lon="5.67478">
        <ele>595</ele>
        <time>2017-02-19T10:27:24Z</time>
      </trkpt>
      <trkpt lat="43.55776" lon="5.67488">
        <ele>595</ele>
        <time>2017-02-19T10:27:30Z</time>
      </trkpt>
      <trkpt lat="43.5578" lon="5.67513">
        <ele>594</ele>
        <time>2017-02-19T10:27:46Z</time>
      </trkpt>
      <trkpt lat="43.55791" lon="5.67534">
        <ele>593</ele>
        <time>2017-02-19T10:27:52Z</time>
      </trkpt>
      <trkpt lat="43.55803" lon="5.67557">
        <ele>593</ele>
        <time>2017-02-19T10:27:57Z</time>
      </trkpt>
      <trkpt lat="43.55813" lon="5.67583">
        <ele>593</ele>
        <time>2017-02-19T10:28:01Z</time>
      </trkpt>
      <trkpt lat="43.55827" lon="5.6761">
        <ele>591</ele>
        <time>2017-02-19T10:28:05Z</time>
      </trkpt>
      <trkpt lat="43.55839" lon="5.67631">
        <ele>588</ele>
        <time>2017-02-19T10:28:08Z</time>
      </trkpt>
      <trkpt lat="43.55853" lon="5.6765">
        <ele>588</ele>
        <time>2017-02-19T10:28:11Z</time>
      </trkpt>
      <trkpt lat="43.55869" lon="5.67668">
        <ele>586</ele>
        <time>2017-02-19T10:28:14Z</time>
      </trkpt>
      <trkpt lat="43.55884" lon="5.67687">
        <ele>585</ele>
        <time>2017-02-19T10:28:17Z</time>
      </trkpt>
      <trkpt lat="43.55898" lon="5.67705">
        <ele>585</ele>
        <time>2017-02-19T10:28:20Z</time>
      </trkpt>
      <trkpt lat="43.55913" lon="5.67721">
        <ele>585</ele>
        <time>2017-02-19T10:28:23Z</time>
      </trkpt>
      <trkpt lat="43.55926" lon="5.67739">
        <ele>583</ele>
        <time>2017-02-19T10:28:26Z</time>
      </trkpt>
      <trkpt lat="43.55935" lon="5.67763">
        <ele>582</ele>
        <time>2017-02-19T10:28:29Z</time>
      </trkpt>
      <trkpt lat="43.55944" lon="5.67789">
        <ele>582</ele>
        <time>2017-02-19T10:28:32Z</time>
      </trkpt>
      <trkpt lat="43.55951" lon="5.67815">
        <ele>581</ele>
        <time>2017-02-19T10:28:35Z</time>
      </trkpt>
      <trkpt lat="43.55954" lon="5.67843">
        <ele>581</ele>
        <time>2017-02-19T10:28:38Z</time>
      </trkpt>
      <trkpt lat="43.55954" lon="5.6787">
        <ele>581</ele>
        <time>2017-02-19T10:28:41Z</time>
      </trkpt>
      <trkpt lat="43.55953" lon="5.67895">
        <ele>581</ele>
        <time>2017-02-19T10:28:44Z</time>
      </trkpt>
      <trkpt lat="43.55946" lon="5.67926">
        <ele>580</ele>
        <time>2017-02-19T10:28:48Z</time>
      </trkpt>
      <trkpt lat="43.55934" lon="5.67946">
        <ele>580</ele>
        <time>2017-02-19T10:28:51Z</time>
      </trkpt>
      <trkpt lat="43.55927" lon="5.67971">
        <ele>579</ele>
        <time>2017-02-19T10:28:54Z</time>
      </trkpt>
      <trkpt lat="43.55923" lon="5.67999">
        <ele>578</ele>
        <time>2017-02-19T10:28:57Z</time>
      </trkpt>
      <trkpt lat="43.55917" lon="5.68026">
        <ele>578</ele>
        <time>2017-02-19T10:29:00Z</time>
      </trkpt>
      <trkpt lat="43.55905" lon="5.68052">
        <ele>576</ele>
        <time>2017-02-19T10:29:04Z</time>
      </trkpt>
      <trkpt lat="43.55885" lon="5.68061">
        <ele>576</ele>
        <time>2017-02-19T10:29:08Z</time>
      </trkpt>
      <trkpt lat="43.55876" lon="5.68087">
        <ele>573</ele>
        <time>2017-02-19T10:29:12Z</time>
      </trkpt>
      <trkpt lat="43.55877" lon="5.68117">
        <ele>573</ele>
        <time>2017-02-19T10:29:16Z</time>
      </trkpt>
      <trkpt lat="43.55886" lon="5.68147">
        <ele>572</ele>
        <time>2017-02-19T10:29:20Z</time>
      </trkpt>
      <trkpt lat="43.55903" lon="5.68168">
        <ele>572</ele>
        <time>2017-02-19T10:29:24Z</time>
      </trkpt>
      <trkpt lat="43.55921" lon="5.6818">
        <ele>574</ele>
        <time>2017-02-19T10:29:27Z</time>
      </trkpt>
      <trkpt lat="43.55942" lon="5.68183">
        <ele>575</ele>
        <time>2017-02-19T10:29:31Z</time>
      </trkpt>
      <trkpt lat="43.55964" lon="5.68184">
        <ele>576</ele>
        <time>2017-02-19T10:29:36Z</time>
      </trkpt>
      <trkpt lat="43.55983" lon="5.68185">
        <ele>577</ele>
        <time>2017-02-19T10:29:41Z</time>
      </trkpt>
      <trkpt lat="43.55999" lon="5.68202">
        <ele>576</ele>
        <time>2017-02-19T10:29:49Z</time>
      </trkpt>
      <trkpt lat="43.56002" lon="5.68228">
        <ele>578</ele>
        <time>2017-02-19T10:29:55Z</time>
      </trkpt>
      <trkpt lat="43.55998" lon="5.68258">
        <ele>576</ele>
        <time>2017-02-19T10:30:01Z</time>
      </trkpt>
      <trkpt lat="43.55992" lon="5.68282">
        <ele>575</ele>
        <time>2017-02-19T10:30:05Z</time>
      </trkpt>
      <trkpt lat="43.55987" lon="5.6831">
        <ele>575</ele>
        <time>2017-02-19T10:30:09Z</time>
      </trkpt>
      <trkpt lat="43.55974" lon="5.68335">
        <ele>573</ele>
        <time>2017-02-19T10:30:13Z</time>
      </trkpt>
      <trkpt lat="43.55958" lon="5.68347">
        <ele>572</ele>
        <time>2017-02-19T10:30:16Z</time>
      </trkpt>
      <trkpt lat="43.55943" lon="5.68366">
        <ele>572</ele>
        <time>2017-02-19T10:30:19Z</time>
      </trkpt>
      <trkpt lat="43.55931" lon="5.68391">
        <ele>571</ele>
        <time>2017-02-19T10:30:22Z</time>
      </trkpt>
      <trkpt lat="43.55914" lon="5.6841">
        <ele>567</ele>
        <time>2017-02-19T10:30:25Z</time>
      </trkpt>
      <trkpt lat="43.55897" lon="5.68423">
        <ele>565</ele>
        <time>2017-02-19T10:30:28Z</time>
      </trkpt>
      <trkpt lat="43.55885" lon="5.68445">
        <ele>563</ele>
        <time>2017-02-19T10:30:31Z</time>
      </trkpt>
      <trkpt lat="43.55878" lon="5.68476">
        <ele>562</ele>
        <time>2017-02-19T10:30:34Z</time>
      </trkpt>
      <trkpt lat="43.55879" lon="5.6851">
        <ele>559</ele>
        <time>2017-02-19T10:30:37Z</time>
      </trkpt>
      <trkpt lat="43.55887" lon="5.6854">
        <ele>559</ele>
        <time>2017-02-19T10:30:40Z</time>
      </trkpt>
      <trkpt lat="43.55898" lon="5.68564">
        <ele>559</ele>
        <time>2017-02-19T10:30:43Z</time>
      </trkpt>
      <trkpt lat="43.55907" lon="5.68586">
        <ele>558</ele>
        <time>2017-02-19T10:30:46Z</time>
      </trkpt>
      <trkpt lat="43.55921" lon="5.68603">
        <ele>560</ele>
        <time>2017-02-19T10:30:49Z</time>
      </trkpt>
      <trkpt lat="43.5594" lon="5.68619">
        <ele>560</ele>
        <time>2017-02-19T10:30:53Z</time>
      </trkpt>
      <trkpt lat="43.55961" lon="5.68638">
        <ele>560</ele>
        <time>2017-02-19T10:30:57Z</time>
      </trkpt>
      <trkpt lat="43.55976" lon="5.6866">
        <ele>560</ele>
        <time>2017-02-19T10:31:00Z</time>
      </trkpt>
      <trkpt lat="43.55989" lon="5.68688">
        <ele>558</ele>
        <time>2017-02-19T10:31:03Z</time>
      </trkpt>
      <trkpt lat="43.56004" lon="5.6871">
        <ele>560</ele>
        <time>2017-02-19T10:31:07Z</time>
      </trkpt>
      <trkpt lat="43.56013" lon="5.68738">
        <ele>559</ele>
        <time>2017-02-19T10:31:11Z</time>
      </trkpt>
      <trkpt lat="43.56024" lon="5.68757">
        <ele>557</ele>
        <time>2017-02-19T10:31:14Z</time>
      </trkpt>
      <trkpt lat="43.56039" lon="5.68776">
        <ele>557</ele>
        <time>2017-02-19T10:31:18Z</time>
      </trkpt>
      <trkpt lat="43.56051" lon="5.68799">
        <ele>557</ele>
        <time>2017-02-19T10:31:23Z</time>
      </trkpt>
      <trkpt lat="43.5605" lon="5.68826">
        <ele>557</ele>
        <time>2017-02-19T10:31:29Z</time>
      </trkpt>
      <trkpt lat="43.56033" lon="5.68839">
        <ele>554</ele>
        <time>2017-02-19T10:31:34Z</time>
      </trkpt>
      <trkpt lat="43.56014" lon="5.68848">
        <ele>553</ele>
        <time>2017-02-19T10:31:38Z</time>
      </trkpt>
      <trkpt lat="43.55994" lon="5.6886">
        <ele>548</ele>
        <time>2017-02-19T10:31:42Z</time>
      </trkpt>
      <trkpt lat="43.55978" lon="5.68876">
        <ele>547</ele>
        <time>2017-02-19T10:31:47Z</time>
      </trkpt>
      <trkpt lat="43.55959" lon="5.68867">
        <ele>546</ele>
        <time>2017-02-19T10:31:52Z</time>
      </trkpt>
      <trkpt lat="43.55936" lon="5.68868">
        <ele>545</ele>
        <time>2017-02-19T10:31:56Z</time>
      </trkpt>
      <trkpt lat="43.55919" lon="5.68879">
        <ele>544</ele>
        <time>2017-02-19T10:32:01Z</time>
      </trkpt>
      <trkpt lat="43.55927" lon="5.68903">
        <ele>543</ele>
        <time>2017-02-19T10:33:46Z</time>
      </trkpt>
      <trkpt lat="43.55934" lon="5.68929">
        <ele>542</ele>
        <time>2017-02-19T10:33:51Z</time>
      </trkpt>
      <trkpt lat="43.55937" lon="5.68955">
        <ele>542</ele>
        <time>2017-02-19T10:33:55Z</time>
      </trkpt>
      <trkpt lat="43.55941" lon="5.68981">
        <ele>542</ele>
        <time>2017-02-19T10:33:59Z</time>
      </trkpt>
      <trkpt lat="43.55945" lon="5.69009">
        <ele>540</ele>
        <time>2017-02-19T10:34:03Z</time>
      </trkpt>
      <trkpt lat="43.55945" lon="5.69036">
        <ele>540</ele>
        <time>2017-02-19T10:34:07Z</time>
      </trkpt>
      <trkpt lat="43.55948" lon="5.69063">
        <ele>540</ele>
        <time>2017-02-19T10:34:11Z</time>
      </trkpt>
      <trkpt lat="43.55957" lon="5.69091">
        <ele>539</ele>
        <time>2017-02-19T10:34:15Z</time>
      </trkpt>
      <trkpt lat="43.55965" lon="5.69117">
        <ele>539</ele>
        <time>2017-02-19T10:34:19Z</time>
      </trkpt>
      <trkpt lat="43.55975" lon="5.69142">
        <ele>538</ele>
        <time>2017-02-19T10:34:23Z</time>
      </trkpt>
      <trkpt lat="43.55985" lon="5.69165">
        <ele>537</ele>
        <time>2017-02-19T10:34:27Z</time>
      </trkpt>
      <trkpt lat="43.55996" lon="5.69187">
        <ele>538</ele>
        <time>2017-02-19T10:34:31Z</time>
      </trkpt>
      <trkpt lat="43.56009" lon="5.6921">
        <ele>535</ele>
        <time>2017-02-19T10:34:36Z</time>
      </trkpt>
      <trkpt lat="43.56018" lon="5.69233">
        <ele>535</ele>
        <time>2017-02-19T10:34:44Z</time>
      </trkpt>
      <trkpt lat="43.5603" lon="5.69254">
        <ele>535</ele>
        <time>2017-02-19T10:34:51Z</time>
      </trkpt>
      <trkpt lat="43.56042" lon="5.69273">
        <ele>535</ele>
        <time>2017-02-19T10:34:56Z</time>
      </trkpt>
      <trkpt lat="43.56054" lon="5.69293">
        <ele>534</ele>
        <time>2017-02-19T10:35:01Z</time>
      </trkpt>
      <trkpt lat="43.5606" lon="5.69319">
        <ele>534</ele>
        <time>2017-02-19T10:35:07Z</time>
      </trkpt>
      <trkpt lat="43.56046" lon="5.6934">
        <ele>535</ele>
        <time>2017-02-19T10:35:15Z</time>
      </trkpt>
      <trkpt lat="43.56032" lon="5.69355">
        <ele>536</ele>
        <time>2017-02-19T10:38:39Z</time>
      </trkpt>
      <trkpt lat="43.56019" lon="5.69373">
        <ele>536</ele>
        <time>2017-02-19T10:38:49Z</time>
      </trkpt>
      <trkpt lat="43.56006" lon="5.69391">
        <ele>537</ele>
        <time>2017-02-19T10:39:00Z</time>
      </trkpt>
      <trkpt lat="43.55996" lon="5.69414">
        <ele>540</ele>
        <time>2017-02-19T10:39:11Z</time>
      </trkpt>
      <trkpt lat="43.55985" lon="5.69438">
        <ele>542</ele>
        <time>2017-02-19T10:39:20Z</time>
      </trkpt>
      <trkpt lat="43.55978" lon="5.69462">
        <ele>543</ele>
        <time>2017-02-19T10:39:27Z</time>
      </trkpt>
      <trkpt lat="43.55975" lon="5.69491">
        <ele>542</ele>
        <time>2017-02-19T10:39:34Z</time>
      </trkpt>
      <trkpt lat="43.55973" lon="5.69517">
        <ele>543</ele>
        <time>2017-02-19T10:39:40Z</time>
      </trkpt>
      <trkpt lat="43.55972" lon="5.69542">
        <ele>543</ele>
        <time>2017-02-19T10:39:45Z</time>
      </trkpt>
      <trkpt lat="43.55973" lon="5.69571">
        <ele>543</ele>
        <time>2017-02-19T10:39:51Z</time>
      </trkpt>
      <trkpt lat="43.55969" lon="5.69596">
        <ele>543</ele>
        <time>2017-02-19T10:39:56Z</time>
      </trkpt>
      <trkpt lat="43.55968" lon="5.69625">
        <ele>544</ele>
        <time>2017-02-19T10:40:01Z</time>
      </trkpt>
      <trkpt lat="43.55969" lon="5.69652">
        <ele>543</ele>
        <time>2017-02-19T10:40:06Z</time>
      </trkpt>
      <trkpt lat="43.55976" lon="5.69678">
        <ele>543</ele>
        <time>2017-02-19T10:40:12Z</time>
      </trkpt>
      <trkpt lat="43.55981" lon="5.69705">
        <ele>544</ele>
        <time>2017-02-19T10:40:17Z</time>
      </trkpt>
      <trkpt lat="43.55979" lon="5.69731">
        <ele>544</ele>
        <time>2017-02-19T10:40:22Z</time>
      </trkpt>
      <trkpt lat="43.55975" lon="5.69757">
        <ele>546</ele>
        <time>2017-02-19T10:40:28Z</time>
      </trkpt>
      <trkpt lat="43.55973" lon="5.69782">
        <ele>547</ele>
        <time>2017-02-19T10:40:34Z</time>
      </trkpt>
      <trkpt lat="43.55975" lon="5.69808">
        <ele>547</ele>
        <time>2017-02-19T10:40:40Z</time>
      </trkpt>
      <trkpt lat="43.55978" lon="5.69835">
        <ele>548</ele>
        <time>2017-02-19T10:40:46Z</time>
      </trkpt>
      <trkpt lat="43.55979" lon="5.69862">
        <ele>549</ele>
        <time>2017-02-19T10:40:53Z</time>
      </trkpt>
      <trkpt lat="43.55981" lon="5.69888">
        <ele>549</ele>
        <time>2017-02-19T10:40:59Z</time>
      </trkpt>
      <trkpt lat="43.55981" lon="5.69916">
        <ele>549</ele>
        <time>2017-02-19T10:41:05Z</time>
      </trkpt>
      <trkpt lat="43.55979" lon="5.69945">
        <ele>550</ele>
        <time>2017-02-19T10:41:11Z</time>
      </trkpt>
      <trkpt lat="43.55977" lon="5.69975">
        <ele>551</ele>
        <time>2017-02-19T10:41:17Z</time>
      </trkpt>
      <trkpt lat="43.55975" lon="5.70001">
        <ele>550</ele>
        <time>2017-02-19T10:41:22Z</time>
      </trkpt>
      <trkpt lat="43.55971" lon="5.70026">
        <ele>551</ele>
        <time>2017-02-19T10:41:27Z</time>
      </trkpt>
      <trkpt lat="43.55963" lon="5.7005">
        <ele>551</ele>
        <time>2017-02-19T10:41:33Z</time>
      </trkpt>
      <trkpt lat="43.55953" lon="5.70073">
        <ele>552</ele>
        <time>2017-02-19T10:41:39Z</time>
      </trkpt>
      <trkpt lat="43.55944" lon="5.70097">
        <ele>551</ele>
        <time>2017-02-19T10:41:45Z</time>
      </trkpt>
      <trkpt lat="43.55933" lon="5.70121">
        <ele>551</ele>
        <time>2017-02-19T10:41:51Z</time>
      </trkpt>
      <trkpt lat="43.55924" lon="5.70144">
        <ele>550</ele>
        <time>2017-02-19T10:41:59Z</time>
      </trkpt>
      <trkpt lat="43.55924" lon="5.70145">
        <ele>550</ele>
        <time>2017-02-19T10:44:13Z</time>
      </trkpt>
      <trkpt lat="43.55922" lon="5.70171">
        <ele>550</ele>
        <time>2017-02-19T10:44:23Z</time>
      </trkpt>
      <trkpt lat="43.55914" lon="5.70196">
        <ele>546</ele>
        <time>2017-02-19T10:44:30Z</time>
      </trkpt>
      <trkpt lat="43.55911" lon="5.70221">
        <ele>545</ele>
        <time>2017-02-19T10:44:38Z</time>
      </trkpt>
      <trkpt lat="43.55926" lon="5.70239">
        <ele>547</ele>
        <time>2017-02-19T10:44:53Z</time>
      </trkpt>
      <trkpt lat="43.55942" lon="5.70257">
        <ele>545</ele>
        <time>2017-02-19T10:44:59Z</time>
      </trkpt>
      <trkpt lat="43.55958" lon="5.70275">
        <ele>545</ele>
        <time>2017-02-19T10:45:05Z</time>
      </trkpt>
      <trkpt lat="43.55973" lon="5.70294">
        <ele>545</ele>
        <time>2017-02-19T10:45:11Z</time>
      </trkpt>
      <trkpt lat="43.55983" lon="5.70317">
        <ele>545</ele>
        <time>2017-02-19T10:45:19Z</time>
      </trkpt>
      <trkpt lat="43.55972" lon="5.70338">
        <ele>542</ele>
        <time>2017-02-19T10:45:32Z</time>
      </trkpt>
      <trkpt lat="43.55966" lon="5.70362">
        <ele>541</ele>
        <time>2017-02-19T10:45:43Z</time>
      </trkpt>
      <trkpt lat="43.5595" lon="5.70378">
        <ele>540</ele>
        <time>2017-02-19T10:45:54Z</time>
      </trkpt>
      <trkpt lat="43.55936" lon="5.70396">
        <ele>538</ele>
        <time>2017-02-19T10:46:03Z</time>
      </trkpt>
      <trkpt lat="43.55922" lon="5.70413">
        <ele>533</ele>
        <time>2017-02-19T10:46:11Z</time>
      </trkpt>
      <trkpt lat="43.55908" lon="5.70434">
        <ele>527</ele>
        <time>2017-02-19T10:46:18Z</time>
      </trkpt>
      <trkpt lat="43.55894" lon="5.70455">
        <ele>524</ele>
        <time>2017-02-19T10:46:24Z</time>
      </trkpt>
      <trkpt lat="43.55882" lon="5.70476">
        <ele>522</ele>
        <time>2017-02-19T10:46:30Z</time>
      </trkpt>
      <trkpt lat="43.55869" lon="5.705">
        <ele>521</ele>
        <time>2017-02-19T10:46:36Z</time>
      </trkpt>
      <trkpt lat="43.55851" lon="5.70517">
        <ele>517</ele>
        <time>2017-02-19T10:46:40Z</time>
      </trkpt>
      <trkpt lat="43.55834" lon="5.70539">
        <ele>517</ele>
        <time>2017-02-19T10:46:44Z</time>
      </trkpt>
      <trkpt lat="43.55818" lon="5.70554">
        <ele>511</ele>
        <time>2017-02-19T10:46:48Z</time>
      </trkpt>
      <trkpt lat="43.55799" lon="5.70569">
        <ele>509</ele>
        <time>2017-02-19T10:46:52Z</time>
      </trkpt>
      <trkpt lat="43.55783" lon="5.70589">
        <ele>509</ele>
        <time>2017-02-19T10:46:56Z</time>
      </trkpt>
      <trkpt lat="43.55763" lon="5.70593">
        <ele>506</ele>
        <time>2017-02-19T10:47:01Z</time>
      </trkpt>
      <trkpt lat="43.55743" lon="5.70585">
        <ele>502</ele>
        <time>2017-02-19T10:47:05Z</time>
      </trkpt>
      <trkpt lat="43.55723" lon="5.70597">
        <ele>502</ele>
        <time>2017-02-19T10:47:09Z</time>
      </trkpt>
      <trkpt lat="43.55707" lon="5.70611">
        <ele>501</ele>
        <time>2017-02-19T10:47:13Z</time>
      </trkpt>
      <trkpt lat="43.55694" lon="5.70629">
        <ele>501</ele>
        <time>2017-02-19T10:47:25Z</time>
      </trkpt>
      <trkpt lat="43.5568" lon="5.70648">
        <ele>501</ele>
        <time>2017-02-19T10:47:33Z</time>
      </trkpt>
      <trkpt lat="43.55663" lon="5.70663">
        <ele>499</ele>
        <time>2017-02-19T10:47:40Z</time>
      </trkpt>
      <trkpt lat="43.55646" lon="5.70673">
        <ele>499</ele>
        <time>2017-02-19T10:47:49Z</time>
      </trkpt>
      <trkpt lat="43.55633" lon="5.70655">
        <ele>500</ele>
        <time>2017-02-19T10:48:01Z</time>
      </trkpt>
      <trkpt lat="43.55631" lon="5.7063">
        <ele>500</ele>
        <time>2017-02-19T10:48:11Z</time>
      </trkpt>
      <trkpt lat="43.55629" lon="5.70605">
        <ele>500</ele>
        <time>2017-02-19T10:48:22Z</time>
      </trkpt>
      <trkpt lat="43.55621" lon="5.70582">
        <ele>502</ele>
        <time>2017-02-19T10:48:33Z</time>
      </trkpt>
      <trkpt lat="43.55603" lon="5.70574">
        <ele>503</ele>
        <time>2017-02-19T10:48:44Z</time>
      </trkpt>
      <trkpt lat="43.55586" lon="5.70586">
        <ele>503</ele>
        <time>2017-02-19T10:48:57Z</time>
      </trkpt>
      <trkpt lat="43.55569" lon="5.70595">
        <ele>503</ele>
        <time>2017-02-19T10:49:08Z</time>
      </trkpt>
      <trkpt lat="43.55549" lon="5.70601">
        <ele>503</ele>
        <time>2017-02-19T10:49:18Z</time>
      </trkpt>
      <trkpt lat="43.55531" lon="5.70605">
        <ele>503</ele>
        <time>2017-02-19T10:49:26Z</time>
      </trkpt>
      <trkpt lat="43.55511" lon="5.70613">
        <ele>503</ele>
        <time>2017-02-19T10:49:32Z</time>
      </trkpt>
      <trkpt lat="43.55494" lon="5.70621">
        <ele>503</ele>
        <time>2017-02-19T10:49:36Z</time>
      </trkpt>
      <trkpt lat="43.55476" lon="5.70629">
        <ele>503</ele>
        <time>2017-02-19T10:49:40Z</time>
      </trkpt>
      <trkpt lat="43.55458" lon="5.70637">
        <ele>503</ele>
        <time>2017-02-19T10:49:44Z</time>
      </trkpt>
      <trkpt lat="43.5544" lon="5.70645">
        <ele>502</ele>
        <time>2017-02-19T10:49:48Z</time>
      </trkpt>
      <trkpt lat="43.5542" lon="5.70652">
        <ele>501</ele>
        <time>2017-02-19T10:49:53Z</time>
      </trkpt>
      <trkpt lat="43.554" lon="5.70659">
        <ele>502</ele>
        <time>2017-02-19T10:49:58Z</time>
      </trkpt>
      <trkpt lat="43.55381" lon="5.70663">
        <ele>503</ele>
        <time>2017-02-19T10:50:03Z</time>
      </trkpt>
      <trkpt lat="43.55362" lon="5.70665">
        <ele>503</ele>
        <time>2017-02-19T10:50:08Z</time>
      </trkpt>
      <trkpt lat="43.55341" lon="5.70667">
        <ele>500</ele>
        <time>2017-02-19T10:50:13Z</time>
      </trkpt>
      <trkpt lat="43.55319" lon="5.70664">
        <ele>503</ele>
        <time>2017-02-19T10:50:18Z</time>
      </trkpt>
      <trkpt lat="43.55299" lon="5.7066">
        <ele>503</ele>
        <time>2017-02-19T10:50:23Z</time>
      </trkpt>
      <trkpt lat="43.55277" lon="5.70658">
        <ele>503</ele>
        <time>2017-02-19T10:50:28Z</time>
      </trkpt>
      <trkpt lat="43.55258" lon="5.70656">
        <ele>502</ele>
        <time>2017-02-19T10:50:32Z</time>
      </trkpt>
      <trkpt lat="43.55237" lon="5.70653">
        <ele>501</ele>
        <time>2017-02-19T10:50:36Z</time>
      </trkpt>
      <trkpt lat="43.55215" lon="5.7065">
        <ele>502</ele>
        <time>2017-02-19T10:50:40Z</time>
      </trkpt>
      <trkpt lat="43.55192" lon="5.70645">
        <ele>501</ele>
        <time>2017-02-19T10:50:44Z</time>
      </trkpt>
      <trkpt lat="43.55174" lon="5.7064">
        <ele>501</ele>
        <time>2017-02-19T10:50:47Z</time>
      </trkpt>
      <trkpt lat="43.55156" lon="5.70634">
        <ele>500</ele>
        <time>2017-02-19T10:50:50Z</time>
      </trkpt>
      <trkpt lat="43.55133" lon="5.70628">
        <ele>499</ele>
        <time>2017-02-19T10:50:54Z</time>
      </trkpt>
      <trkpt lat="43.55112" lon="5.70624">
        <ele>499</ele>
        <time>2017-02-19T10:50:58Z</time>
      </trkpt>
      <trkpt lat="43.55093" lon="5.70619">
        <ele>499</ele>
        <time>2017-02-19T10:51:02Z</time>
      </trkpt>
      <trkpt lat="43.55074" lon="5.70613">
        <ele>498</ele>
        <time>2017-02-19T10:51:06Z</time>
      </trkpt>
      <trkpt lat="43.55056" lon="5.70609">
        <ele>498</ele>
        <time>2017-02-19T10:51:10Z</time>
      </trkpt>
      <trkpt lat="43.55038" lon="5.70606">
        <ele>498</ele>
        <time>2017-02-19T10:51:14Z</time>
      </trkpt>
      <trkpt lat="43.55017" lon="5.70602">
        <ele>498</ele>
        <time>2017-02-19T10:51:18Z</time>
      </trkpt>
      <trkpt lat="43.54996" lon="5.706">
        <ele>498</ele>
        <time>2017-02-19T10:51:22Z</time>
      </trkpt>
      <trkpt lat="43.54974" lon="5.70597">
        <ele>498</ele>
        <time>2017-02-19T10:51:26Z</time>
      </trkpt>
      <trkpt lat="43.54955" lon="5.70595">
        <ele>498</ele>
        <time>2017-02-19T10:51:30Z</time>
      </trkpt>
      <trkpt lat="43.54935" lon="5.70593">
        <ele>498</ele>
        <time>2017-02-19T10:51:34Z</time>
      </trkpt>
      <trkpt lat="43.54912" lon="5.70589">
        <ele>498</ele>
        <time>2017-02-19T10:51:38Z</time>
      </trkpt>
      <trkpt lat="43.54893" lon="5.70588">
        <ele>497</ele>
        <time>2017-02-19T10:51:41Z</time>
      </trkpt>
      <trkpt lat="43.54871" lon="5.7059">
        <ele>497</ele>
        <time>2017-02-19T10:51:45Z</time>
      </trkpt>
      <trkpt lat="43.5485" lon="5.70592">
        <ele>497</ele>
        <time>2017-02-19T10:51:49Z</time>
      </trkpt>
      <trkpt lat="43.54828" lon="5.70591">
        <ele>498</ele>
        <time>2017-02-19T10:51:53Z</time>
      </trkpt>
      <trkpt lat="43.54806" lon="5.70588">
        <ele>498</ele>
        <time>2017-02-19T10:51:57Z</time>
      </trkpt>
      <trkpt lat="43.54786" lon="5.70584">
        <ele>498</ele>
        <time>2017-02-19T10:52:01Z</time>
      </trkpt>
      <trkpt lat="43.54767" lon="5.7058">
        <ele>500</ele>
        <time>2017-02-19T10:52:05Z</time>
      </trkpt>
      <trkpt lat="43.54749" lon="5.70576">
        <ele>500</ele>
        <time>2017-02-19T10:52:09Z</time>
      </trkpt>
      <trkpt lat="43.54731" lon="5.70573">
        <ele>500</ele>
        <time>2017-02-19T10:52:13Z</time>
      </trkpt>
      <trkpt lat="43.54711" lon="5.70568">
        <ele>501</ele>
        <time>2017-02-19T10:52:18Z</time>
      </trkpt>
      <trkpt lat="43.54692" lon="5.70559">
        <ele>501</ele>
        <time>2017-02-19T10:52:23Z</time>
      </trkpt>
      <trkpt lat="43.54674" lon="5.70551">
        <ele>501</ele>
        <time>2017-02-19T10:52:28Z</time>
      </trkpt>
      <trkpt lat="43.54655" lon="5.70559">
        <ele>500</ele>
        <time>2017-02-19T10:52:34Z</time>
      </trkpt>
      <trkpt lat="43.54638" lon="5.7058">
        <ele>499</ele>
        <time>2017-02-19T10:52:39Z</time>
      </trkpt>
      <trkpt lat="43.54624" lon="5.70602">
        <ele>497</ele>
        <time>2017-02-19T10:52:43Z</time>
      </trkpt>
      <trkpt lat="43.54607" lon="5.70625">
        <ele>497</ele>
        <time>2017-02-19T10:52:47Z</time>
      </trkpt>
      <trkpt lat="43.54593" lon="5.7064">
        <ele>496</ele>
        <time>2017-02-19T10:52:52Z</time>
      </trkpt>
      <trkpt lat="43.54581" lon="5.70662">
        <ele>495</ele>
        <time>2017-02-19T10:53:02Z</time>
      </trkpt>
      <trkpt lat="43.54566" lon="5.70684">
        <ele>493</ele>
        <time>2017-02-19T10:53:08Z</time>
      </trkpt>
      <trkpt lat="43.54554" lon="5.70704">
        <ele>493</ele>
        <time>2017-02-19T10:53:12Z</time>
      </trkpt>
      <trkpt lat="43.54541" lon="5.70727">
        <ele>492</ele>
        <time>2017-02-19T10:53:16Z</time>
      </trkpt>
      <trkpt lat="43.54528" lon="5.70749">
        <ele>492</ele>
        <time>2017-02-19T10:53:20Z</time>
      </trkpt>
      <trkpt lat="43.54515" lon="5.70772">
        <ele>490</ele>
        <time>2017-02-19T10:53:24Z</time>
      </trkpt>
      <trkpt lat="43.54499" lon="5.70797">
        <ele>489</ele>
        <time>2017-02-19T10:53:28Z</time>
      </trkpt>
      <trkpt lat="43.54486" lon="5.70815">
        <ele>489</ele>
        <time>2017-02-19T10:53:31Z</time>
      </trkpt>
      <trkpt lat="43.5447" lon="5.7084">
        <ele>488</ele>
        <time>2017-02-19T10:53:35Z</time>
      </trkpt>
      <trkpt lat="43.54459" lon="5.70859">
        <ele>488</ele>
        <time>2017-02-19T10:53:38Z</time>
      </trkpt>
      <trkpt lat="43.54444" lon="5.70884">
        <ele>488</ele>
        <time>2017-02-19T10:53:42Z</time>
      </trkpt>
      <trkpt lat="43.54434" lon="5.70906">
        <ele>489</ele>
        <time>2017-02-19T10:53:45Z</time>
      </trkpt>
      <trkpt lat="43.54419" lon="5.70931">
        <ele>489</ele>
        <time>2017-02-19T10:53:49Z</time>
      </trkpt>
      <trkpt lat="43.54406" lon="5.70951">
        <ele>489</ele>
        <time>2017-02-19T10:53:52Z</time>
      </trkpt>
      <trkpt lat="43.54391" lon="5.70973">
        <ele>489</ele>
        <time>2017-02-19T10:53:56Z</time>
      </trkpt>
      <trkpt lat="43.54375" lon="5.70993">
        <ele>489</ele>
        <time>2017-02-19T10:54:00Z</time>
      </trkpt>
      <trkpt lat="43.5436" lon="5.71013">
        <ele>489</ele>
        <time>2017-02-19T10:54:04Z</time>
      </trkpt>
      <trkpt lat="43.54344" lon="5.71034">
        <ele>489</ele>
        <time>2017-02-19T10:54:08Z</time>
      </trkpt>
      <trkpt lat="43.5433" lon="5.71053">
        <ele>491</ele>
        <time>2017-02-19T10:54:12Z</time>
      </trkpt>
      <trkpt lat="43.54318" lon="5.71072">
        <ele>490</ele>
        <time>2017-02-19T10:54:16Z</time>
      </trkpt>
      <trkpt lat="43.54307" lon="5.71092">
        <ele>490</ele>
        <time>2017-02-19T10:54:20Z</time>
      </trkpt>
      <trkpt lat="43.54296" lon="5.71116">
        <ele>491</ele>
        <time>2017-02-19T10:54:26Z</time>
      </trkpt>
      <trkpt lat="43.54284" lon="5.71138">
        <ele>491</ele>
        <time>2017-02-19T10:54:33Z</time>
      </trkpt>
      <trkpt lat="43.54272" lon="5.71158">
        <ele>492</ele>
        <time>2017-02-19T10:54:40Z</time>
      </trkpt>
      <trkpt lat="43.5426" lon="5.71177">
        <ele>491</ele>
        <time>2017-02-19T10:54:47Z</time>
      </trkpt>
      <trkpt lat="43.54248" lon="5.71196">
        <ele>498</ele>
        <time>2017-02-19T10:54:54Z</time>
      </trkpt>
      <trkpt lat="43.54235" lon="5.71216">
        <ele>498</ele>
        <time>2017-02-19T10:55:02Z</time>
      </trkpt>
      <trkpt lat="43.54222" lon="5.71237">
        <ele>499</ele>
        <time>2017-02-19T10:55:11Z</time>
      </trkpt>
      <trkpt lat="43.54209" lon="5.71257">
        <ele>497</ele>
        <time>2017-02-19T10:55:21Z</time>
      </trkpt>
      <trkpt lat="43.54196" lon="5.71277">
        <ele>498</ele>
        <time>2017-02-19T10:55:30Z</time>
      </trkpt>
      <trkpt lat="43.54185" lon="5.71297">
        <ele>498</ele>
        <time>2017-02-19T10:55:39Z</time>
      </trkpt>
      <trkpt lat="43.54174" lon="5.71317">
        <ele>499</ele>
        <time>2017-02-19T10:55:48Z</time>
      </trkpt>
      <trkpt lat="43.5416" lon="5.71336">
        <ele>502</ele>
        <time>2017-02-19T10:55:57Z</time>
      </trkpt>
      <trkpt lat="43.54148" lon="5.71355">
        <ele>505</ele>
        <time>2017-02-19T10:56:07Z</time>
      </trkpt>
      <trkpt lat="43.54135" lon="5.71373">
        <ele>506</ele>
        <time>2017-02-19T10:56:16Z</time>
      </trkpt>
      <trkpt lat="43.54121" lon="5.7139">
        <ele>507</ele>
        <time>2017-02-19T10:56:25Z</time>
      </trkpt>
      <trkpt lat="43.54106" lon="5.71406">
        <ele>508</ele>
        <time>2017-02-19T10:56:34Z</time>
      </trkpt>
      <trkpt lat="43.54092" lon="5.71422">
        <ele>507</ele>
        <time>2017-02-19T10:56:42Z</time>
      </trkpt>
      <trkpt lat="43.54077" lon="5.71438">
        <ele>509</ele>
        <time>2017-02-19T10:56:49Z</time>
      </trkpt>
      <trkpt lat="43.54062" lon="5.71453">
        <ele>508</ele>
        <time>2017-02-19T10:56:56Z</time>
      </trkpt>
      <trkpt lat="43.54048" lon="5.71469">
        <ele>508</ele>
        <time>2017-02-19T10:57:03Z</time>
      </trkpt>
      <trkpt lat="43.54034" lon="5.71487">
        <ele>508</ele>
        <time>2017-02-19T10:57:11Z</time>
      </trkpt>
      <trkpt lat="43.54018" lon="5.71506">
        <ele>506</ele>
        <time>2017-02-19T10:57:19Z</time>
      </trkpt>
      <trkpt lat="43.54001" lon="5.71521">
        <ele>506</ele>
        <time>2017-02-19T10:57:26Z</time>
      </trkpt>
      <trkpt lat="43.53984" lon="5.71531">
        <ele>507</ele>
        <time>2017-02-19T10:57:32Z</time>
      </trkpt>
      <trkpt lat="43.53966" lon="5.71536">
        <ele>506</ele>
        <time>2017-02-19T10:57:39Z</time>
      </trkpt>
      <trkpt lat="43.53946" lon="5.71537">
        <ele>506</ele>
        <time>2017-02-19T10:57:45Z</time>
      </trkpt>
      <trkpt lat="43.53928" lon="5.71539">
        <ele>506</ele>
        <time>2017-02-19T11:00:10Z</time>
      </trkpt>
      <trkpt lat="43.53908" lon="5.71537">
        <ele>503</ele>
        <time>2017-02-19T11:00:17Z</time>
      </trkpt>
      <trkpt lat="43.53888" lon="5.71536">
        <ele>503</ele>
        <time>2017-02-19T11:00:24Z</time>
      </trkpt>
      <trkpt lat="43.53871" lon="5.71526">
        <ele>502</ele>
        <time>2017-02-19T11:00:30Z</time>
      </trkpt>
      <trkpt lat="43.53855" lon="5.71513">
        <ele>500</ele>
        <time>2017-02-19T11:00:36Z</time>
      </trkpt>
      <trkpt lat="43.53838" lon="5.71501">
        <ele>497</ele>
        <time>2017-02-19T11:00:42Z</time>
      </trkpt>
      <trkpt lat="43.53819" lon="5.71487">
        <ele>493</ele>
        <time>2017-02-19T11:00:48Z</time>
      </trkpt>
      <trkpt lat="43.53802" lon="5.71476">
        <ele>492</ele>
        <time>2017-02-19T11:00:53Z</time>
      </trkpt>
      <trkpt lat="43.53783" lon="5.71466">
        <ele>490</ele>
        <time>2017-02-19T11:00:59Z</time>
      </trkpt>
      <trkpt lat="43.53765" lon="5.71452">
        <ele>490</ele>
        <time>2017-02-19T11:01:05Z</time>
      </trkpt>
      <trkpt lat="43.53751" lon="5.71434">
        <ele>488</ele>
        <time>2017-02-19T11:01:10Z</time>
      </trkpt>
      <trkpt lat="43.53735" lon="5.71416">
        <ele>485</ele>
        <time>2017-02-19T11:01:14Z</time>
      </trkpt>
      <trkpt lat="43.53718" lon="5.71393">
        <ele>484</ele>
        <time>2017-02-19T11:01:18Z</time>
      </trkpt>
      <trkpt lat="43.53703" lon="5.71368">
        <ele>484</ele>
        <time>2017-02-19T11:01:22Z</time>
      </trkpt>
      <trkpt lat="43.53692" lon="5.71348">
        <ele>484</ele>
        <time>2017-02-19T11:01:26Z</time>
      </trkpt>
      <trkpt lat="43.5368" lon="5.71328">
        <ele>483</ele>
        <time>2017-02-19T11:01:31Z</time>
      </trkpt>
      <trkpt lat="43.53668" lon="5.71309">
        <ele>484</ele>
        <time>2017-02-19T11:01:36Z</time>
      </trkpt>
      <trkpt lat="43.53655" lon="5.71288">
        <ele>480</ele>
        <time>2017-02-19T11:01:41Z</time>
      </trkpt>
      <trkpt lat="43.53641" lon="5.71264">
        <ele>480</ele>
        <time>2017-02-19T11:01:46Z</time>
      </trkpt>
      <trkpt lat="43.53627" lon="5.71242">
        <ele>481</ele>
        <time>2017-02-19T11:01:50Z</time>
      </trkpt>
      <trkpt lat="43.53613" lon="5.7122">
        <ele>481</ele>
        <time>2017-02-19T11:01:54Z</time>
      </trkpt>
      <trkpt lat="43.53599" lon="5.71198">
        <ele>481</ele>
        <time>2017-02-19T11:01:58Z</time>
      </trkpt>
      <trkpt lat="43.53583" lon="5.71176">
        <ele>480</ele>
        <time>2017-02-19T11:02:02Z</time>
      </trkpt>
      <trkpt lat="43.53568" lon="5.71153">
        <ele>479</ele>
        <time>2017-02-19T11:02:06Z</time>
      </trkpt>
      <trkpt lat="43.53554" lon="5.71127">
        <ele>478</ele>
        <time>2017-02-19T11:02:10Z</time>
      </trkpt>
      <trkpt lat="43.53545" lon="5.71098">
        <ele>478</ele>
        <time>2017-02-19T11:02:14Z</time>
      </trkpt>
      <trkpt lat="43.53537" lon="5.71069">
        <ele>478</ele>
        <time>2017-02-19T11:02:18Z</time>
      </trkpt>
      <trkpt lat="43.53525" lon="5.71042">
        <ele>478</ele>
        <time>2017-02-19T11:02:22Z</time>
      </trkpt>
      <trkpt lat="43.53516" lon="5.71014">
        <ele>478</ele>
        <time>2017-02-19T11:02:26Z</time>
      </trkpt>
      <trkpt lat="43.53505" lon="5.70985">
        <ele>478</ele>
        <time>2017-02-19T11:02:30Z</time>
      </trkpt>
      <trkpt lat="43.53496" lon="5.70963">
        <ele>474</ele>
        <time>2017-02-19T11:02:33Z</time>
      </trkpt>
      <trkpt lat="43.53487" lon="5.70939">
        <ele>475</ele>
        <time>2017-02-19T11:02:36Z</time>
      </trkpt>
      <trkpt lat="43.53478" lon="5.70913">
        <ele>475</ele>
        <time>2017-02-19T11:02:39Z</time>
      </trkpt>
      <trkpt lat="43.53472" lon="5.70886">
        <ele>475</ele>
        <time>2017-02-19T11:02:42Z</time>
      </trkpt>
      <trkpt lat="43.53464" lon="5.70861">
        <ele>474</ele>
        <time>2017-02-19T11:02:45Z</time>
      </trkpt>
      <trkpt lat="43.53457" lon="5.70837">
        <ele>474</ele>
        <time>2017-02-19T11:02:48Z</time>
      </trkpt>
      <trkpt lat="43.53447" lon="5.70814">
        <ele>475</ele>
        <time>2017-02-19T11:02:51Z</time>
      </trkpt>
      <trkpt lat="43.53438" lon="5.70791">
        <ele>475</ele>
        <time>2017-02-19T11:02:54Z</time>
      </trkpt>
      <trkpt lat="43.53429" lon="5.70767">
        <ele>475</ele>
        <time>2017-02-19T11:02:57Z</time>
      </trkpt>
      <trkpt lat="43.5342" lon="5.70745">
        <ele>476</ele>
        <time>2017-02-19T11:03:00Z</time>
      </trkpt>
      <trkpt lat="43.5341" lon="5.70722">
        <ele>475</ele>
        <time>2017-02-19T11:03:03Z</time>
      </trkpt>
      <trkpt lat="43.53401" lon="5.70698">
        <ele>475</ele>
        <time>2017-02-19T11:03:06Z</time>
      </trkpt>
      <trkpt lat="43.53392" lon="5.70676">
        <ele>475</ele>
        <time>2017-02-19T11:03:09Z</time>
      </trkpt>
      <trkpt lat="43.53384" lon="5.70654">
        <ele>475</ele>
        <time>2017-02-19T11:03:12Z</time>
      </trkpt>
      <trkpt lat="43.53373" lon="5.70625">
        <ele>475</ele>
        <time>2017-02-19T11:03:16Z</time>
      </trkpt>
      <trkpt lat="43.5336" lon="5.70597">
        <ele>475</ele>
        <time>2017-02-19T11:03:20Z</time>
      </trkpt>
      <trkpt lat="43.53347" lon="5.7057">
        <ele>475</ele>
        <time>2017-02-19T11:03:24Z</time>
      </trkpt>
      <trkpt lat="43.53334" lon="5.70543">
        <ele>475</ele>
        <time>2017-02-19T11:03:28Z</time>
      </trkpt>
      <trkpt lat="43.53322" lon="5.70518">
        <ele>472</ele>
        <time>2017-02-19T11:03:32Z</time>
      </trkpt>
      <trkpt lat="43.53311" lon="5.70493">
        <ele>471</ele>
        <time>2017-02-19T11:03:36Z</time>
      </trkpt>
      <trkpt lat="43.53302" lon="5.70469">
        <ele>471</ele>
        <time>2017-02-19T11:03:40Z</time>
      </trkpt>
      <trkpt lat="43.53294" lon="5.70446">
        <ele>470</ele>
        <time>2017-02-19T11:03:44Z</time>
      </trkpt>
      <trkpt lat="43.53287" lon="5.70418">
        <ele>470</ele>
        <time>2017-02-19T11:03:49Z</time>
      </trkpt>
      <trkpt lat="43.53281" lon="5.70392">
        <ele>468</ele>
        <time>2017-02-19T11:03:54Z</time>
      </trkpt>
      <trkpt lat="43.53273" lon="5.70364">
        <ele>468</ele>
        <time>2017-02-19T11:03:59Z</time>
      </trkpt>
      <trkpt lat="43.53271" lon="5.70339">
        <ele>466</ele>
        <time>2017-02-19T11:04:03Z</time>
      </trkpt>
      <trkpt lat="43.53271" lon="5.70313">
        <ele>467</ele>
        <time>2017-02-19T11:04:09Z</time>
      </trkpt>
      <trkpt lat="43.53264" lon="5.70289">
        <ele>468</ele>
        <time>2017-02-19T11:05:03Z</time>
      </trkpt>
      <trkpt lat="43.53267" lon="5.70264">
        <ele>467</ele>
        <time>2017-02-19T11:05:10Z</time>
      </trkpt>
      <trkpt lat="43.53252" lon="5.70243">
        <ele>466</ele>
        <time>2017-02-19T11:05:16Z</time>
      </trkpt>
      <trkpt lat="43.53234" lon="5.70232">
        <ele>459</ele>
        <time>2017-02-19T11:05:20Z</time>
      </trkpt>
      <trkpt lat="43.53223" lon="5.70206">
        <ele>457</ele>
        <time>2017-02-19T11:05:24Z</time>
      </trkpt>
      <trkpt lat="43.53217" lon="5.70175">
        <ele>457</ele>
        <time>2017-02-19T11:05:28Z</time>
      </trkpt>
      <trkpt lat="43.53212" lon="5.70149">
        <ele>457</ele>
        <time>2017-02-19T11:05:31Z</time>
      </trkpt>
      <trkpt lat="43.53207" lon="5.70122">
        <ele>456</ele>
        <time>2017-02-19T11:05:34Z</time>
      </trkpt>
      <trkpt lat="43.53202" lon="5.70092">
        <ele>454</ele>
        <time>2017-02-19T11:05:37Z</time>
      </trkpt>
      <trkpt lat="43.53201" lon="5.70057">
        <ele>451</ele>
        <time>2017-02-19T11:05:40Z</time>
      </trkpt>
      <trkpt lat="43.53198" lon="5.70022">
        <ele>449</ele>
        <time>2017-02-19T11:05:43Z</time>
      </trkpt>
      <trkpt lat="43.53202" lon="5.69994">
        <ele>448</ele>
        <time>2017-02-19T11:05:46Z</time>
      </trkpt>
      <trkpt lat="43.53215" lon="5.69974">
        <ele>451</ele>
        <time>2017-02-19T11:05:49Z</time>
      </trkpt>
      <trkpt lat="43.53222" lon="5.69947">
        <ele>452</ele>
        <time>2017-02-19T11:05:52Z</time>
      </trkpt>
      <trkpt lat="43.53216" lon="5.69923">
        <ele>451</ele>
        <time>2017-02-19T11:05:55Z</time>
      </trkpt>
      <trkpt lat="43.53195" lon="5.69911">
        <ele>449</ele>
        <time>2017-02-19T11:05:59Z</time>
      </trkpt>
      <trkpt lat="43.53178" lon="5.69895">
        <ele>446</ele>
        <time>2017-02-19T11:06:02Z</time>
      </trkpt>
      <trkpt lat="43.5316" lon="5.69877">
        <ele>432</ele>
        <time>2017-02-19T11:06:05Z</time>
      </trkpt>
      <trkpt lat="43.53148" lon="5.69851">
        <ele>433</ele>
        <time>2017-02-19T11:06:08Z</time>
      </trkpt>
      <trkpt lat="43.53143" lon="5.69823">
        <ele>433</ele>
        <time>2017-02-19T11:06:11Z</time>
      </trkpt>
      <trkpt lat="43.53149" lon="5.69796">
        <ele>432</ele>
        <time>2017-02-19T11:06:14Z</time>
      </trkpt>
      <trkpt lat="43.53163" lon="5.69776">
        <ele>434</ele>
        <time>2017-02-19T11:06:17Z</time>
      </trkpt>
      <trkpt lat="43.53162" lon="5.69748">
        <ele>438</ele>
        <time>2017-02-19T11:06:22Z</time>
      </trkpt>
      <trkpt lat="43.53145" lon="5.6974">
        <ele>435</ele>
        <time>2017-02-19T11:06:25Z</time>
      </trkpt>
      <trkpt lat="43.53125" lon="5.69734">
        <ele>432</ele>
        <time>2017-02-19T11:06:28Z</time>
      </trkpt>
      <trkpt lat="43.53104" lon="5.69722">
        <ele>429</ele>
        <time>2017-02-19T11:06:31Z</time>
      </trkpt>
      <trkpt lat="43.5309" lon="5.69704">
        <ele>429</ele>
        <time>2017-02-19T11:06:34Z</time>
      </trkpt>
      <trkpt lat="43.53084" lon="5.69676">
        <ele>427</ele>
        <time>2017-02-19T11:06:37Z</time>
      </trkpt>
      <trkpt lat="43.53081" lon="5.69643">
        <ele>421</ele>
        <time>2017-02-19T11:06:40Z</time>
      </trkpt>
      <trkpt lat="43.53076" lon="5.6961">
        <ele>421</ele>
        <time>2017-02-19T11:06:43Z</time>
      </trkpt>
      <trkpt lat="43.53071" lon="5.69581">
        <ele>423</ele>
        <time>2017-02-19T11:06:46Z</time>
      </trkpt>
      <trkpt lat="43.53065" lon="5.69553">
        <ele>420</ele>
        <time>2017-02-19T11:06:49Z</time>
      </trkpt>
      <trkpt lat="43.53059" lon="5.69524">
        <ele>420</ele>
        <time>2017-02-19T11:06:52Z</time>
      </trkpt>
      <trkpt lat="43.53056" lon="5.69491">
        <ele>420</ele>
        <time>2017-02-19T11:06:55Z</time>
      </trkpt>
      <trkpt lat="43.53054" lon="5.69456">
        <ele>419</ele>
        <time>2017-02-19T11:06:58Z</time>
      </trkpt>
      <trkpt lat="43.53044" lon="5.69432">
        <ele>418</ele>
        <time>2017-02-19T11:07:02Z</time>
      </trkpt>
      <trkpt lat="43.53025" lon="5.69441">
        <ele>416</ele>
        <time>2017-02-19T11:07:05Z</time>
      </trkpt>
      <trkpt lat="43.53005" lon="5.69452">
        <ele>415</ele>
        <time>2017-02-19T11:07:08Z</time>
      </trkpt>
      <trkpt lat="43.52985" lon="5.69465">
        <ele>402</ele>
        <time>2017-02-19T11:07:11Z</time>
      </trkpt>
      <trkpt lat="43.52967" lon="5.69473">
        <ele>401</ele>
        <time>2017-02-19T11:07:14Z</time>
      </trkpt>
      <trkpt lat="43.52944" lon="5.69473">
        <ele>398</ele>
        <time>2017-02-19T11:07:18Z</time>
      </trkpt>
      <trkpt lat="43.52927" lon="5.69462">
        <ele>397</ele>
        <time>2017-02-19T11:07:21Z</time>
      </trkpt>
      <trkpt lat="43.52912" lon="5.69444">
        <ele>388</ele>
        <time>2017-02-19T11:07:24Z</time>
      </trkpt>
      <trkpt lat="43.529" lon="5.69414">
        <ele>391</ele>
        <time>2017-02-19T11:07:28Z</time>
      </trkpt>
      <trkpt lat="43.52892" lon="5.69385">
        <ele>388</ele>
        <time>2017-02-19T11:07:31Z</time>
      </trkpt>
      <trkpt lat="43.52886" lon="5.69353">
        <ele>387</ele>
        <time>2017-02-19T11:07:34Z</time>
      </trkpt>
      <trkpt lat="43.52883" lon="5.69318">
        <ele>385</ele>
        <time>2017-02-19T11:07:37Z</time>
      </trkpt>
      <trkpt lat="43.52882" lon="5.69285">
        <ele>384</ele>
        <time>2017-02-19T11:07:40Z</time>
      </trkpt>
      <trkpt lat="43.52881" lon="5.69258">
        <ele>384</ele>
        <time>2017-02-19T11:07:43Z</time>
      </trkpt>
      <trkpt lat="43.52861" lon="5.6924">
        <ele>382</ele>
        <time>2017-02-19T11:07:47Z</time>
      </trkpt>
      <trkpt lat="43.52838" lon="5.69238">
        <ele>378</ele>
        <time>2017-02-19T11:07:50Z</time>
      </trkpt>
      <trkpt lat="43.52815" lon="5.69239">
        <ele>370</ele>
        <time>2017-02-19T11:07:53Z</time>
      </trkpt>
      <trkpt lat="43.52794" lon="5.69225">
        <ele>367</ele>
        <time>2017-02-19T11:07:57Z</time>
      </trkpt>
      <trkpt lat="43.52783" lon="5.69202">
        <ele>366</ele>
        <time>2017-02-19T11:08:00Z</time>
      </trkpt>
      <trkpt lat="43.52772" lon="5.69176">
        <ele>365</ele>
        <time>2017-02-19T11:08:03Z</time>
      </trkpt>
      <trkpt lat="43.5276" lon="5.69147">
        <ele>365</ele>
        <time>2017-02-19T11:08:06Z</time>
      </trkpt>
      <trkpt lat="43.52751" lon="5.69122">
        <ele>366</ele>
        <time>2017-02-19T11:08:09Z</time>
      </trkpt>
      <trkpt lat="43.52743" lon="5.69099">
        <ele>360</ele>
        <time>2017-02-19T11:08:12Z</time>
      </trkpt>
      <trkpt lat="43.52733" lon="5.6907">
        <ele>361</ele>
        <time>2017-02-19T11:08:16Z</time>
      </trkpt>
      <trkpt lat="43.52724" lon="5.69044">
        <ele>360</ele>
        <time>2017-02-19T11:08:20Z</time>
      </trkpt>
      <trkpt lat="43.52707" lon="5.69025">
        <ele>360</ele>
        <time>2017-02-19T11:08:24Z</time>
      </trkpt>
      <trkpt lat="43.52693" lon="5.69">
        <ele>358</ele>
        <time>2017-02-19T11:08:28Z</time>
      </trkpt>
      <trkpt lat="43.5269" lon="5.68974">
        <ele>358</ele>
        <time>2017-02-19T11:08:31Z</time>
      </trkpt>
      <trkpt lat="43.52686" lon="5.68944">
        <ele>358</ele>
        <time>2017-02-19T11:08:34Z</time>
      </trkpt>
      <trkpt lat="43.52682" lon="5.68912">
        <ele>356</ele>
        <time>2017-02-19T11:08:37Z</time>
      </trkpt>
      <trkpt lat="43.52678" lon="5.68878">
        <ele>356</ele>
        <time>2017-02-19T11:08:40Z</time>
      </trkpt>
      <trkpt lat="43.52676" lon="5.68844">
        <ele>355</ele>
        <time>2017-02-19T11:08:43Z</time>
      </trkpt>
      <trkpt lat="43.52674" lon="5.6881">
        <ele>353</ele>
        <time>2017-02-19T11:08:46Z</time>
      </trkpt>
      <trkpt lat="43.52667" lon="5.68781">
        <ele>353</ele>
        <time>2017-02-19T11:08:49Z</time>
      </trkpt>
      <trkpt lat="43.52658" lon="5.68754">
        <ele>349</ele>
        <time>2017-02-19T11:08:52Z</time>
      </trkpt>
      <trkpt lat="43.52647" lon="5.6873">
        <ele>349</ele>
        <time>2017-02-19T11:08:55Z</time>
      </trkpt>
      <trkpt lat="43.52637" lon="5.68708">
        <ele>349</ele>
        <time>2017-02-19T11:08:58Z</time>
      </trkpt>
      <trkpt lat="43.52624" lon="5.6868">
        <ele>349</ele>
        <time>2017-02-19T11:09:02Z</time>
      </trkpt>
      <trkpt lat="43.52615" lon="5.68653">
        <ele>352</ele>
        <time>2017-02-19T11:09:06Z</time>
      </trkpt>
      <trkpt lat="43.52612" lon="5.68623">
        <ele>352</ele>
        <time>2017-02-19T11:09:11Z</time>
      </trkpt>
      <trkpt lat="43.52611" lon="5.68597">
        <ele>353</ele>
        <time>2017-02-19T11:09:15Z</time>
      </trkpt>
      <trkpt lat="43.52614" lon="5.68572">
        <ele>355</ele>
        <time>2017-02-19T11:09:19Z</time>
      </trkpt>
      <trkpt lat="43.5262" lon="5.68547">
        <ele>356</ele>
        <time>2017-02-19T11:09:23Z</time>
      </trkpt>
      <trkpt lat="43.52626" lon="5.68521">
        <ele>356</ele>
        <time>2017-02-19T11:09:28Z</time>
      </trkpt>
      <trkpt lat="43.52633" lon="5.68498">
        <ele>358</ele>
        <time>2017-02-19T11:09:33Z</time>
      </trkpt>
      <trkpt lat="43.5264" lon="5.68471">
        <ele>358</ele>
        <time>2017-02-19T11:09:39Z</time>
      </trkpt>
      <trkpt lat="43.52645" lon="5.68446">
        <ele>358</ele>
        <time>2017-02-19T11:09:44Z</time>
      </trkpt>
      <trkpt lat="43.52648" lon="5.68421">
        <ele>359</ele>
        <time>2017-02-19T11:09:49Z</time>
      </trkpt>
      <trkpt lat="43.5265" lon="5.68395">
        <ele>360</ele>
        <time>2017-02-19T11:09:54Z</time>
      </trkpt>
      <trkpt lat="43.52649" lon="5.6837">
        <ele>361</ele>
        <time>2017-02-19T11:09:59Z</time>
      </trkpt>
      <trkpt lat="43.52645" lon="5.68343">
        <ele>362</ele>
        <time>2017-02-19T11:10:05Z</time>
      </trkpt>
      <trkpt lat="43.52641" lon="5.68319">
        <ele>363</ele>
        <time>2017-02-19T11:10:11Z</time>
      </trkpt>
      <trkpt lat="43.52637" lon="5.68292">
        <ele>362</ele>
        <time>2017-02-19T11:10:17Z</time>
      </trkpt>
      <trkpt lat="43.52635" lon="5.68266">
        <ele>362</ele>
        <time>2017-02-19T11:10:23Z</time>
      </trkpt>
      <trkpt lat="43.52633" lon="5.68239">
        <ele>359</ele>
        <time>2017-02-19T11:10:27Z</time>
      </trkpt>
      <trkpt lat="43.52634" lon="5.68208">
        <ele>358</ele>
        <time>2017-02-19T11:10:31Z</time>
      </trkpt>
      <trkpt lat="43.52637" lon="5.68183">
        <ele>358</ele>
        <time>2017-02-19T11:10:34Z</time>
      </trkpt>
      <trkpt lat="43.5264" lon="5.68155">
        <ele>357</ele>
        <time>2017-02-19T11:10:39Z</time>
      </trkpt>
    </trkseg>
  </trk>
</gpx>